<?xml version="1.0" encoding="UTF-8" standalone="no" ?>
<gpx xmlns="http://www.topografix.com/GPX/1/1" xmlns:xsi="http://www.w3.org/2001/XMLSchema-instance" xsi:schemaLocation="http://www.topografix.com/GPX/1/1 http://www.topografix.com/GPX/1/1/gpx.xsd" version="1.1" creator="VisuGPX - https://www.visugpx.com">
  <metadata>
    <name>couloir N de Caoubère et Agalops</name>
    <desc><![CDATA[description à venir
[url][/url]
[img][/img]]]></desc>
  </metadata>
  <trk>
    <name><![CDATA[24-MAI-15 13:23:09]]></name>
    <trkseg>
      <trkpt lat="42.9038" lon="0.13728">
        <ele>1810</ele>
        <time>2015-05-24T06:20:59Z</time>
      </trkpt>
      <trkpt lat="42.90389" lon="0.13687">
        <ele>1810</ele>
        <time>2015-05-24T06:21:17Z</time>
      </trkpt>
      <trkpt lat="42.90388" lon="0.13688">
        <ele>1814</ele>
        <time>2015-05-24T06:21:25Z</time>
      </trkpt>
      <trkpt lat="42.90391" lon="0.13692">
        <ele>1817</ele>
        <time>2015-05-24T06:21:28Z</time>
      </trkpt>
      <trkpt lat="42.90392" lon="0.13691">
        <ele>1821</ele>
        <time>2015-05-24T06:21:31Z</time>
      </trkpt>
      <trkpt lat="42.90392" lon="0.13691">
        <ele>1826</ele>
        <time>2015-05-24T06:21:34Z</time>
      </trkpt>
      <trkpt lat="42.90394" lon="0.13692">
        <ele>1830</ele>
        <time>2015-05-24T06:21:37Z</time>
      </trkpt>
      <trkpt lat="42.90394" lon="0.13691">
        <ele>1834</ele>
        <time>2015-05-24T06:21:41Z</time>
      </trkpt>
      <trkpt lat="42.90396" lon="0.13691">
        <ele>1837</ele>
        <time>2015-05-24T06:21:44Z</time>
      </trkpt>
      <trkpt lat="42.90397" lon="0.13691">
        <ele>1841</ele>
        <time>2015-05-24T06:21:48Z</time>
      </trkpt>
      <trkpt lat="42.90398" lon="0.13691">
        <ele>1844</ele>
        <time>2015-05-24T06:21:52Z</time>
      </trkpt>
      <trkpt lat="42.90396" lon="0.13691">
        <ele>1847</ele>
        <time>2015-05-24T06:21:56Z</time>
      </trkpt>
      <trkpt lat="42.90396" lon="0.13691">
        <ele>1850</ele>
        <time>2015-05-24T06:22:02Z</time>
      </trkpt>
      <trkpt lat="42.90396" lon="0.13692">
        <ele>1852</ele>
        <time>2015-05-24T06:22:06Z</time>
      </trkpt>
      <trkpt lat="42.90396" lon="0.13691">
        <ele>1854</ele>
        <time>2015-05-24T06:22:08Z</time>
      </trkpt>
      <trkpt lat="42.90396" lon="0.13692">
        <ele>1855</ele>
        <time>2015-05-24T06:22:11Z</time>
      </trkpt>
      <trkpt lat="42.90395" lon="0.13692">
        <ele>1857</ele>
        <time>2015-05-24T06:22:16Z</time>
      </trkpt>
      <trkpt lat="42.90396" lon="0.13693">
        <ele>1860</ele>
        <time>2015-05-24T06:22:27Z</time>
      </trkpt>
      <trkpt lat="42.90398" lon="0.13698">
        <ele>1864</ele>
        <time>2015-05-24T06:22:45Z</time>
      </trkpt>
      <trkpt lat="42.90398" lon="0.13698">
        <ele>1867</ele>
        <time>2015-05-24T06:23:00Z</time>
      </trkpt>
      <trkpt lat="42.90398" lon="0.13699">
        <ele>1870</ele>
        <time>2015-05-24T06:23:16Z</time>
      </trkpt>
      <trkpt lat="42.90399" lon="0.137">
        <ele>1870</ele>
        <time>2015-05-24T06:23:56Z</time>
      </trkpt>
      <trkpt lat="42.90399" lon="0.13703">
        <ele>1870</ele>
        <time>2015-05-24T06:24:28Z</time>
      </trkpt>
      <trkpt lat="42.90398" lon="0.13701">
        <ele>1870</ele>
        <time>2015-05-24T06:25:04Z</time>
      </trkpt>
      <trkpt lat="42.90399" lon="0.13695">
        <ele>1870</ele>
        <time>2015-05-24T06:25:28Z</time>
      </trkpt>
      <trkpt lat="42.90405" lon="0.137">
        <ele>1871</ele>
        <time>2015-05-24T06:25:57Z</time>
      </trkpt>
      <trkpt lat="42.90405" lon="0.13698">
        <ele>1871</ele>
        <time>2015-05-24T06:26:31Z</time>
      </trkpt>
      <trkpt lat="42.90401" lon="0.13702">
        <ele>1872</ele>
        <time>2015-05-24T06:26:57Z</time>
      </trkpt>
      <trkpt lat="42.904" lon="0.13695">
        <ele>1872</ele>
        <time>2015-05-24T06:27:16Z</time>
      </trkpt>
      <trkpt lat="42.90398" lon="0.13695">
        <ele>1873</ele>
        <time>2015-05-24T06:27:31Z</time>
      </trkpt>
      <trkpt lat="42.904" lon="0.13697">
        <ele>1873</ele>
        <time>2015-05-24T06:27:46Z</time>
      </trkpt>
      <trkpt lat="42.90398" lon="0.13699">
        <ele>1872</ele>
        <time>2015-05-24T06:28:02Z</time>
      </trkpt>
      <trkpt lat="42.90398" lon="0.13699">
        <ele>1873</ele>
        <time>2015-05-24T06:28:18Z</time>
      </trkpt>
      <trkpt lat="42.90398" lon="0.13701">
        <ele>1872</ele>
        <time>2015-05-24T06:28:33Z</time>
      </trkpt>
      <trkpt lat="42.90399" lon="0.13702">
        <ele>1872</ele>
        <time>2015-05-24T06:28:36Z</time>
      </trkpt>
      <trkpt lat="42.90394" lon="0.13704">
        <ele>1872</ele>
        <time>2015-05-24T06:28:50Z</time>
      </trkpt>
      <trkpt lat="42.90392" lon="0.13703">
        <ele>1872</ele>
        <time>2015-05-24T06:28:52Z</time>
      </trkpt>
      <trkpt lat="42.90372" lon="0.13691">
        <ele>1870</ele>
        <time>2015-05-24T06:29:09Z</time>
      </trkpt>
      <trkpt lat="42.9036" lon="0.13688">
        <ele>1870</ele>
        <time>2015-05-24T06:29:22Z</time>
      </trkpt>
      <trkpt lat="42.90355" lon="0.13695">
        <ele>1873</ele>
        <time>2015-05-24T06:29:32Z</time>
      </trkpt>
      <trkpt lat="42.90356" lon="0.13712">
        <ele>1877</ele>
        <time>2015-05-24T06:29:44Z</time>
      </trkpt>
      <trkpt lat="42.90357" lon="0.13716">
        <ele>1878</ele>
        <time>2015-05-24T06:29:47Z</time>
      </trkpt>
      <trkpt lat="42.90356" lon="0.13725">
        <ele>1879</ele>
        <time>2015-05-24T06:29:53Z</time>
      </trkpt>
      <trkpt lat="42.90356" lon="0.13739">
        <ele>1880</ele>
        <time>2015-05-24T06:30:04Z</time>
      </trkpt>
      <trkpt lat="42.90354" lon="0.13747">
        <ele>1880</ele>
        <time>2015-05-24T06:30:09Z</time>
      </trkpt>
      <trkpt lat="42.90354" lon="0.13757">
        <ele>1881</ele>
        <time>2015-05-24T06:30:16Z</time>
      </trkpt>
      <trkpt lat="42.90352" lon="0.13761">
        <ele>1881</ele>
        <time>2015-05-24T06:30:19Z</time>
      </trkpt>
      <trkpt lat="42.90358" lon="0.13785">
        <ele>1883</ele>
        <time>2015-05-24T06:30:35Z</time>
      </trkpt>
      <trkpt lat="42.90358" lon="0.13788">
        <ele>1884</ele>
        <time>2015-05-24T06:30:37Z</time>
      </trkpt>
      <trkpt lat="42.90355" lon="0.13798">
        <ele>1885</ele>
        <time>2015-05-24T06:30:45Z</time>
      </trkpt>
      <trkpt lat="42.90355" lon="0.13801">
        <ele>1886</ele>
        <time>2015-05-24T06:30:47Z</time>
      </trkpt>
      <trkpt lat="42.90356" lon="0.13822">
        <ele>1888</ele>
        <time>2015-05-24T06:31:03Z</time>
      </trkpt>
      <trkpt lat="42.90355" lon="0.13824">
        <ele>1888</ele>
        <time>2015-05-24T06:31:04Z</time>
      </trkpt>
      <trkpt lat="42.90354" lon="0.13827">
        <ele>1888</ele>
        <time>2015-05-24T06:31:08Z</time>
      </trkpt>
      <trkpt lat="42.90348" lon="0.13848">
        <ele>1888</ele>
        <time>2015-05-24T06:31:23Z</time>
      </trkpt>
      <trkpt lat="42.90346" lon="0.13865">
        <ele>1890</ele>
        <time>2015-05-24T06:31:36Z</time>
      </trkpt>
      <trkpt lat="42.90343" lon="0.13873">
        <ele>1892</ele>
        <time>2015-05-24T06:31:45Z</time>
      </trkpt>
      <trkpt lat="42.90334" lon="0.13885">
        <ele>1894</ele>
        <time>2015-05-24T06:32:02Z</time>
      </trkpt>
      <trkpt lat="42.90324" lon="0.13892">
        <ele>1896</ele>
        <time>2015-05-24T06:32:15Z</time>
      </trkpt>
      <trkpt lat="42.90312" lon="0.13904">
        <ele>1897</ele>
        <time>2015-05-24T06:32:29Z</time>
      </trkpt>
      <trkpt lat="42.90299" lon="0.13909">
        <ele>1898</ele>
        <time>2015-05-24T06:32:45Z</time>
      </trkpt>
      <trkpt lat="42.90299" lon="0.13912">
        <ele>1898</ele>
        <time>2015-05-24T06:33:00Z</time>
      </trkpt>
      <trkpt lat="42.90301" lon="0.13916">
        <ele>1897</ele>
        <time>2015-05-24T06:33:23Z</time>
      </trkpt>
      <trkpt lat="42.90299" lon="0.13914">
        <ele>1897</ele>
        <time>2015-05-24T06:33:53Z</time>
      </trkpt>
      <trkpt lat="42.90298" lon="0.13912">
        <ele>1898</ele>
        <time>2015-05-24T06:34:13Z</time>
      </trkpt>
      <trkpt lat="42.90298" lon="0.13913">
        <ele>1898</ele>
        <time>2015-05-24T06:34:30Z</time>
      </trkpt>
      <trkpt lat="42.90298" lon="0.13913">
        <ele>1898</ele>
        <time>2015-05-24T06:34:50Z</time>
      </trkpt>
      <trkpt lat="42.90296" lon="0.13914">
        <ele>1898</ele>
        <time>2015-05-24T06:35:08Z</time>
      </trkpt>
      <trkpt lat="42.90295" lon="0.13915">
        <ele>1898</ele>
        <time>2015-05-24T06:35:25Z</time>
      </trkpt>
      <trkpt lat="42.90295" lon="0.13915">
        <ele>1898</ele>
        <time>2015-05-24T06:35:40Z</time>
      </trkpt>
      <trkpt lat="42.90292" lon="0.13915">
        <ele>1897</ele>
        <time>2015-05-24T06:36:01Z</time>
      </trkpt>
      <trkpt lat="42.90293" lon="0.13916">
        <ele>1899</ele>
        <time>2015-05-24T06:36:19Z</time>
      </trkpt>
      <trkpt lat="42.90298" lon="0.13917">
        <ele>1898</ele>
        <time>2015-05-24T06:36:41Z</time>
      </trkpt>
      <trkpt lat="42.90293" lon="0.13912">
        <ele>1898</ele>
        <time>2015-05-24T06:37:05Z</time>
      </trkpt>
      <trkpt lat="42.90289" lon="0.13912">
        <ele>1899</ele>
        <time>2015-05-24T06:37:09Z</time>
      </trkpt>
      <trkpt lat="42.90277" lon="0.13919">
        <ele>1899</ele>
        <time>2015-05-24T06:37:23Z</time>
      </trkpt>
      <trkpt lat="42.90264" lon="0.13932">
        <ele>1899</ele>
        <time>2015-05-24T06:37:36Z</time>
      </trkpt>
      <trkpt lat="42.90252" lon="0.13946">
        <ele>1901</ele>
        <time>2015-05-24T06:37:52Z</time>
      </trkpt>
      <trkpt lat="42.90245" lon="0.13957">
        <ele>1902</ele>
        <time>2015-05-24T06:38:04Z</time>
      </trkpt>
      <trkpt lat="42.9024" lon="0.13964">
        <ele>1901</ele>
        <time>2015-05-24T06:38:10Z</time>
      </trkpt>
      <trkpt lat="42.90228" lon="0.13978">
        <ele>1903</ele>
        <time>2015-05-24T06:38:24Z</time>
      </trkpt>
      <trkpt lat="42.90223" lon="0.13995">
        <ele>1902</ele>
        <time>2015-05-24T06:38:37Z</time>
      </trkpt>
      <trkpt lat="42.90219" lon="0.14007">
        <ele>1903</ele>
        <time>2015-05-24T06:38:50Z</time>
      </trkpt>
      <trkpt lat="42.90212" lon="0.14022">
        <ele>1904</ele>
        <time>2015-05-24T06:39:04Z</time>
      </trkpt>
      <trkpt lat="42.90207" lon="0.14031">
        <ele>1905</ele>
        <time>2015-05-24T06:39:19Z</time>
      </trkpt>
      <trkpt lat="42.90201" lon="0.14043">
        <ele>1907</ele>
        <time>2015-05-24T06:39:33Z</time>
      </trkpt>
      <trkpt lat="42.90197" lon="0.14056">
        <ele>1909</ele>
        <time>2015-05-24T06:39:47Z</time>
      </trkpt>
      <trkpt lat="42.9019" lon="0.14068">
        <ele>1911</ele>
        <time>2015-05-24T06:40:04Z</time>
      </trkpt>
      <trkpt lat="42.90184" lon="0.14075">
        <ele>1914</ele>
        <time>2015-05-24T06:40:19Z</time>
      </trkpt>
      <trkpt lat="42.90181" lon="0.14083">
        <ele>1916</ele>
        <time>2015-05-24T06:40:33Z</time>
      </trkpt>
      <trkpt lat="42.90175" lon="0.14093">
        <ele>1918</ele>
        <time>2015-05-24T06:40:49Z</time>
      </trkpt>
      <trkpt lat="42.90172" lon="0.14103">
        <ele>1919</ele>
        <time>2015-05-24T06:41:00Z</time>
      </trkpt>
      <trkpt lat="42.90166" lon="0.14113">
        <ele>1921</ele>
        <time>2015-05-24T06:41:14Z</time>
      </trkpt>
      <trkpt lat="42.90163" lon="0.14123">
        <ele>1924</ele>
        <time>2015-05-24T06:41:29Z</time>
      </trkpt>
      <trkpt lat="42.90157" lon="0.14132">
        <ele>1926</ele>
        <time>2015-05-24T06:41:44Z</time>
      </trkpt>
      <trkpt lat="42.90151" lon="0.14141">
        <ele>1929</ele>
        <time>2015-05-24T06:42:01Z</time>
      </trkpt>
      <trkpt lat="42.90149" lon="0.14128">
        <ele>1929</ele>
        <time>2015-05-24T06:42:17Z</time>
      </trkpt>
      <trkpt lat="42.90148" lon="0.14127">
        <ele>1929</ele>
        <time>2015-05-24T06:42:19Z</time>
      </trkpt>
      <trkpt lat="42.90143" lon="0.14116">
        <ele>1932</ele>
        <time>2015-05-24T06:42:34Z</time>
      </trkpt>
      <trkpt lat="42.90137" lon="0.14104">
        <ele>1934</ele>
        <time>2015-05-24T06:42:49Z</time>
      </trkpt>
      <trkpt lat="42.90136" lon="0.14103">
        <ele>1936</ele>
        <time>2015-05-24T06:43:01Z</time>
      </trkpt>
      <trkpt lat="42.90136" lon="0.14116">
        <ele>1937</ele>
        <time>2015-05-24T06:43:14Z</time>
      </trkpt>
      <trkpt lat="42.90134" lon="0.14129">
        <ele>1939</ele>
        <time>2015-05-24T06:43:30Z</time>
      </trkpt>
      <trkpt lat="42.90131" lon="0.14141">
        <ele>1942</ele>
        <time>2015-05-24T06:43:45Z</time>
      </trkpt>
      <trkpt lat="42.90128" lon="0.14149">
        <ele>1943</ele>
        <time>2015-05-24T06:43:58Z</time>
      </trkpt>
      <trkpt lat="42.90125" lon="0.14162">
        <ele>1946</ele>
        <time>2015-05-24T06:44:13Z</time>
      </trkpt>
      <trkpt lat="42.90123" lon="0.14172">
        <ele>1948</ele>
        <time>2015-05-24T06:44:27Z</time>
      </trkpt>
      <trkpt lat="42.90121" lon="0.14184">
        <ele>1950</ele>
        <time>2015-05-24T06:44:44Z</time>
      </trkpt>
      <trkpt lat="42.90121" lon="0.14195">
        <ele>1953</ele>
        <time>2015-05-24T06:45:00Z</time>
      </trkpt>
      <trkpt lat="42.90116" lon="0.14205">
        <ele>1955</ele>
        <time>2015-05-24T06:45:16Z</time>
      </trkpt>
      <trkpt lat="42.90112" lon="0.14219">
        <ele>1958</ele>
        <time>2015-05-24T06:45:33Z</time>
      </trkpt>
      <trkpt lat="42.90108" lon="0.14231">
        <ele>1960</ele>
        <time>2015-05-24T06:45:48Z</time>
      </trkpt>
      <trkpt lat="42.90105" lon="0.14242">
        <ele>1962</ele>
        <time>2015-05-24T06:46:01Z</time>
      </trkpt>
      <trkpt lat="42.90101" lon="0.14251">
        <ele>1965</ele>
        <time>2015-05-24T06:46:18Z</time>
      </trkpt>
      <trkpt lat="42.90098" lon="0.14237">
        <ele>1966</ele>
        <time>2015-05-24T06:46:33Z</time>
      </trkpt>
      <trkpt lat="42.90092" lon="0.14231">
        <ele>1968</ele>
        <time>2015-05-24T06:46:47Z</time>
      </trkpt>
      <trkpt lat="42.90089" lon="0.14219">
        <ele>1970</ele>
        <time>2015-05-24T06:47:03Z</time>
      </trkpt>
      <trkpt lat="42.9009" lon="0.14209">
        <ele>1972</ele>
        <time>2015-05-24T06:47:17Z</time>
      </trkpt>
      <trkpt lat="42.90086" lon="0.14203">
        <ele>1974</ele>
        <time>2015-05-24T06:47:32Z</time>
      </trkpt>
      <trkpt lat="42.90079" lon="0.14211">
        <ele>1976</ele>
        <time>2015-05-24T06:47:48Z</time>
      </trkpt>
      <trkpt lat="42.90072" lon="0.14218">
        <ele>1979</ele>
        <time>2015-05-24T06:48:05Z</time>
      </trkpt>
      <trkpt lat="42.90065" lon="0.14227">
        <ele>1981</ele>
        <time>2015-05-24T06:48:20Z</time>
      </trkpt>
      <trkpt lat="42.90059" lon="0.14234">
        <ele>1983</ele>
        <time>2015-05-24T06:48:32Z</time>
      </trkpt>
      <trkpt lat="42.90052" lon="0.14243">
        <ele>1985</ele>
        <time>2015-05-24T06:48:48Z</time>
      </trkpt>
      <trkpt lat="42.90048" lon="0.14242">
        <ele>1986</ele>
        <time>2015-05-24T06:48:54Z</time>
      </trkpt>
      <trkpt lat="42.9004" lon="0.1424">
        <ele>1989</ele>
        <time>2015-05-24T06:49:06Z</time>
      </trkpt>
      <trkpt lat="42.90031" lon="0.14244">
        <ele>1991</ele>
        <time>2015-05-24T06:49:23Z</time>
      </trkpt>
      <trkpt lat="42.90022" lon="0.14249">
        <ele>1992</ele>
        <time>2015-05-24T06:49:41Z</time>
      </trkpt>
      <trkpt lat="42.9002" lon="0.14251">
        <ele>1993</ele>
        <time>2015-05-24T06:49:56Z</time>
      </trkpt>
      <trkpt lat="42.90021" lon="0.14248">
        <ele>1993</ele>
        <time>2015-05-24T06:50:13Z</time>
      </trkpt>
      <trkpt lat="42.90022" lon="0.14247">
        <ele>1993</ele>
        <time>2015-05-24T06:50:34Z</time>
      </trkpt>
      <trkpt lat="42.90019" lon="0.14243">
        <ele>1992</ele>
        <time>2015-05-24T06:50:56Z</time>
      </trkpt>
      <trkpt lat="42.90017" lon="0.14245">
        <ele>1991</ele>
        <time>2015-05-24T06:51:19Z</time>
      </trkpt>
      <trkpt lat="42.90014" lon="0.14247">
        <ele>1993</ele>
        <time>2015-05-24T06:51:34Z</time>
      </trkpt>
      <trkpt lat="42.90014" lon="0.14253">
        <ele>1993</ele>
        <time>2015-05-24T06:51:59Z</time>
      </trkpt>
      <trkpt lat="42.90009" lon="0.14252">
        <ele>1994</ele>
        <time>2015-05-24T06:52:19Z</time>
      </trkpt>
      <trkpt lat="42.90009" lon="0.14258">
        <ele>1995</ele>
        <time>2015-05-24T06:52:35Z</time>
      </trkpt>
      <trkpt lat="42.89998" lon="0.14257">
        <ele>1996</ele>
        <time>2015-05-24T06:52:53Z</time>
      </trkpt>
      <trkpt lat="42.89994" lon="0.14258">
        <ele>1996</ele>
        <time>2015-05-24T06:52:58Z</time>
      </trkpt>
      <trkpt lat="42.8998" lon="0.1426">
        <ele>1997</ele>
        <time>2015-05-24T06:53:13Z</time>
      </trkpt>
      <trkpt lat="42.8997" lon="0.14263">
        <ele>1998</ele>
        <time>2015-05-24T06:53:28Z</time>
      </trkpt>
      <trkpt lat="42.89963" lon="0.14262">
        <ele>2000</ele>
        <time>2015-05-24T06:53:42Z</time>
      </trkpt>
      <trkpt lat="42.89962" lon="0.14261">
        <ele>2000</ele>
        <time>2015-05-24T06:54:06Z</time>
      </trkpt>
      <trkpt lat="42.89956" lon="0.14263">
        <ele>2001</ele>
        <time>2015-05-24T06:54:19Z</time>
      </trkpt>
      <trkpt lat="42.89944" lon="0.14271">
        <ele>2004</ele>
        <time>2015-05-24T06:54:36Z</time>
      </trkpt>
      <trkpt lat="42.89931" lon="0.14272">
        <ele>2005</ele>
        <time>2015-05-24T06:54:53Z</time>
      </trkpt>
      <trkpt lat="42.89926" lon="0.14273">
        <ele>2006</ele>
        <time>2015-05-24T06:55:07Z</time>
      </trkpt>
      <trkpt lat="42.89918" lon="0.14278">
        <ele>2008</ele>
        <time>2015-05-24T06:55:19Z</time>
      </trkpt>
      <trkpt lat="42.8991" lon="0.14284">
        <ele>2009</ele>
        <time>2015-05-24T06:55:31Z</time>
      </trkpt>
      <trkpt lat="42.89901" lon="0.14288">
        <ele>2011</ele>
        <time>2015-05-24T06:55:45Z</time>
      </trkpt>
      <trkpt lat="42.8989" lon="0.14294">
        <ele>2011</ele>
        <time>2015-05-24T06:55:59Z</time>
      </trkpt>
      <trkpt lat="42.89875" lon="0.14301">
        <ele>2012</ele>
        <time>2015-05-24T06:56:17Z</time>
      </trkpt>
      <trkpt lat="42.89864" lon="0.14295">
        <ele>2015</ele>
        <time>2015-05-24T06:56:34Z</time>
      </trkpt>
      <trkpt lat="42.89853" lon="0.14284">
        <ele>2017</ele>
        <time>2015-05-24T06:56:55Z</time>
      </trkpt>
      <trkpt lat="42.89844" lon="0.14282">
        <ele>2019</ele>
        <time>2015-05-24T06:57:09Z</time>
      </trkpt>
      <trkpt lat="42.89837" lon="0.14284">
        <ele>2021</ele>
        <time>2015-05-24T06:57:26Z</time>
      </trkpt>
      <trkpt lat="42.89834" lon="0.14284">
        <ele>2022</ele>
        <time>2015-05-24T06:57:40Z</time>
      </trkpt>
      <trkpt lat="42.8982" lon="0.14291">
        <ele>2023</ele>
        <time>2015-05-24T06:57:59Z</time>
      </trkpt>
      <trkpt lat="42.89807" lon="0.14294">
        <ele>2026</ele>
        <time>2015-05-24T06:58:15Z</time>
      </trkpt>
      <trkpt lat="42.89803" lon="0.14295">
        <ele>2027</ele>
        <time>2015-05-24T06:58:22Z</time>
      </trkpt>
      <trkpt lat="42.8979" lon="0.14303">
        <ele>2028</ele>
        <time>2015-05-24T06:58:39Z</time>
      </trkpt>
      <trkpt lat="42.89781" lon="0.14304">
        <ele>2030</ele>
        <time>2015-05-24T06:58:54Z</time>
      </trkpt>
      <trkpt lat="42.89768" lon="0.14308">
        <ele>2032</ele>
        <time>2015-05-24T06:59:12Z</time>
      </trkpt>
      <trkpt lat="42.8976" lon="0.14313">
        <ele>2035</ele>
        <time>2015-05-24T06:59:30Z</time>
      </trkpt>
      <trkpt lat="42.89748" lon="0.14316">
        <ele>2039</ele>
        <time>2015-05-24T06:59:49Z</time>
      </trkpt>
      <trkpt lat="42.89746" lon="0.14323">
        <ele>2041</ele>
        <time>2015-05-24T07:00:01Z</time>
      </trkpt>
      <trkpt lat="42.89733" lon="0.14319">
        <ele>2044</ele>
        <time>2015-05-24T07:00:20Z</time>
      </trkpt>
      <trkpt lat="42.89721" lon="0.14317">
        <ele>2046</ele>
        <time>2015-05-24T07:00:33Z</time>
      </trkpt>
      <trkpt lat="42.8971" lon="0.14315">
        <ele>2047</ele>
        <time>2015-05-24T07:00:51Z</time>
      </trkpt>
      <trkpt lat="42.89703" lon="0.14317">
        <ele>2048</ele>
        <time>2015-05-24T07:00:59Z</time>
      </trkpt>
      <trkpt lat="42.89695" lon="0.14323">
        <ele>2050</ele>
        <time>2015-05-24T07:01:11Z</time>
      </trkpt>
      <trkpt lat="42.89692" lon="0.1433">
        <ele>2053</ele>
        <time>2015-05-24T07:01:29Z</time>
      </trkpt>
      <trkpt lat="42.89685" lon="0.14345">
        <ele>2055</ele>
        <time>2015-05-24T07:01:42Z</time>
      </trkpt>
      <trkpt lat="42.89676" lon="0.14352">
        <ele>2056</ele>
        <time>2015-05-24T07:01:59Z</time>
      </trkpt>
      <trkpt lat="42.89667" lon="0.14359">
        <ele>2059</ele>
        <time>2015-05-24T07:02:16Z</time>
      </trkpt>
      <trkpt lat="42.8966" lon="0.14365">
        <ele>2062</ele>
        <time>2015-05-24T07:02:32Z</time>
      </trkpt>
      <trkpt lat="42.89652" lon="0.14369">
        <ele>2063</ele>
        <time>2015-05-24T07:02:50Z</time>
      </trkpt>
      <trkpt lat="42.89645" lon="0.14371">
        <ele>2066</ele>
        <time>2015-05-24T07:03:05Z</time>
      </trkpt>
      <trkpt lat="42.89632" lon="0.14374">
        <ele>2067</ele>
        <time>2015-05-24T07:03:22Z</time>
      </trkpt>
      <trkpt lat="42.89624" lon="0.14378">
        <ele>2069</ele>
        <time>2015-05-24T07:03:39Z</time>
      </trkpt>
      <trkpt lat="42.89613" lon="0.14392">
        <ele>2072</ele>
        <time>2015-05-24T07:03:55Z</time>
      </trkpt>
      <trkpt lat="42.89612" lon="0.14392">
        <ele>2072</ele>
        <time>2015-05-24T07:03:56Z</time>
      </trkpt>
      <trkpt lat="42.89606" lon="0.144">
        <ele>2074</ele>
        <time>2015-05-24T07:04:12Z</time>
      </trkpt>
      <trkpt lat="42.89599" lon="0.14411">
        <ele>2077</ele>
        <time>2015-05-24T07:04:29Z</time>
      </trkpt>
      <trkpt lat="42.89594" lon="0.1442">
        <ele>2078</ele>
        <time>2015-05-24T07:04:45Z</time>
      </trkpt>
      <trkpt lat="42.89588" lon="0.1443">
        <ele>2081</ele>
        <time>2015-05-24T07:05:01Z</time>
      </trkpt>
      <trkpt lat="42.89582" lon="0.1444">
        <ele>2083</ele>
        <time>2015-05-24T07:05:18Z</time>
      </trkpt>
      <trkpt lat="42.89573" lon="0.14447">
        <ele>2086</ele>
        <time>2015-05-24T07:05:32Z</time>
      </trkpt>
      <trkpt lat="42.89563" lon="0.14456">
        <ele>2089</ele>
        <time>2015-05-24T07:05:48Z</time>
      </trkpt>
      <trkpt lat="42.89558" lon="0.14449">
        <ele>2091</ele>
        <time>2015-05-24T07:06:01Z</time>
      </trkpt>
      <trkpt lat="42.89555" lon="0.14439">
        <ele>2093</ele>
        <time>2015-05-24T07:06:14Z</time>
      </trkpt>
      <trkpt lat="42.89551" lon="0.14426">
        <ele>2097</ele>
        <time>2015-05-24T07:06:28Z</time>
      </trkpt>
      <trkpt lat="42.8955" lon="0.14416">
        <ele>2098</ele>
        <time>2015-05-24T07:06:43Z</time>
      </trkpt>
      <trkpt lat="42.89541" lon="0.14424">
        <ele>2100</ele>
        <time>2015-05-24T07:06:56Z</time>
      </trkpt>
      <trkpt lat="42.8954" lon="0.14432">
        <ele>2102</ele>
        <time>2015-05-24T07:07:14Z</time>
      </trkpt>
      <trkpt lat="42.89536" lon="0.14437">
        <ele>2103</ele>
        <time>2015-05-24T07:07:26Z</time>
      </trkpt>
      <trkpt lat="42.8953" lon="0.1445">
        <ele>2105</ele>
        <time>2015-05-24T07:07:44Z</time>
      </trkpt>
      <trkpt lat="42.89526" lon="0.14454">
        <ele>2106</ele>
        <time>2015-05-24T07:07:52Z</time>
      </trkpt>
      <trkpt lat="42.89517" lon="0.14457">
        <ele>2109</ele>
        <time>2015-05-24T07:08:08Z</time>
      </trkpt>
      <trkpt lat="42.8951" lon="0.14459">
        <ele>2111</ele>
        <time>2015-05-24T07:08:25Z</time>
      </trkpt>
      <trkpt lat="42.89502" lon="0.14461">
        <ele>2114</ele>
        <time>2015-05-24T07:08:41Z</time>
      </trkpt>
      <trkpt lat="42.89496" lon="0.14464">
        <ele>2116</ele>
        <time>2015-05-24T07:08:58Z</time>
      </trkpt>
      <trkpt lat="42.89492" lon="0.14468">
        <ele>2119</ele>
        <time>2015-05-24T07:09:13Z</time>
      </trkpt>
      <trkpt lat="42.89485" lon="0.1447">
        <ele>2121</ele>
        <time>2015-05-24T07:09:29Z</time>
      </trkpt>
      <trkpt lat="42.89477" lon="0.14472">
        <ele>2123</ele>
        <time>2015-05-24T07:09:44Z</time>
      </trkpt>
      <trkpt lat="42.89468" lon="0.14474">
        <ele>2126</ele>
        <time>2015-05-24T07:10:00Z</time>
      </trkpt>
      <trkpt lat="42.89464" lon="0.14466">
        <ele>2128</ele>
        <time>2015-05-24T07:10:17Z</time>
      </trkpt>
      <trkpt lat="42.89468" lon="0.14453">
        <ele>2131</ele>
        <time>2015-05-24T07:10:32Z</time>
      </trkpt>
      <trkpt lat="42.89474" lon="0.14442">
        <ele>2132</ele>
        <time>2015-05-24T07:10:49Z</time>
      </trkpt>
      <trkpt lat="42.89472" lon="0.14436">
        <ele>2135</ele>
        <time>2015-05-24T07:11:06Z</time>
      </trkpt>
      <trkpt lat="42.89465" lon="0.1444">
        <ele>2137</ele>
        <time>2015-05-24T07:11:21Z</time>
      </trkpt>
      <trkpt lat="42.89457" lon="0.14442">
        <ele>2138</ele>
        <time>2015-05-24T07:11:35Z</time>
      </trkpt>
      <trkpt lat="42.89449" lon="0.14444">
        <ele>2140</ele>
        <time>2015-05-24T07:11:49Z</time>
      </trkpt>
      <trkpt lat="42.89452" lon="0.14432">
        <ele>2141</ele>
        <time>2015-05-24T07:12:04Z</time>
      </trkpt>
      <trkpt lat="42.89453" lon="0.14419">
        <ele>2144</ele>
        <time>2015-05-24T07:12:21Z</time>
      </trkpt>
      <trkpt lat="42.89449" lon="0.14421">
        <ele>2145</ele>
        <time>2015-05-24T07:12:38Z</time>
      </trkpt>
      <trkpt lat="42.89442" lon="0.14425">
        <ele>2147</ele>
        <time>2015-05-24T07:12:51Z</time>
      </trkpt>
      <trkpt lat="42.89436" lon="0.14428">
        <ele>2149</ele>
        <time>2015-05-24T07:13:04Z</time>
      </trkpt>
      <trkpt lat="42.89426" lon="0.14433">
        <ele>2151</ele>
        <time>2015-05-24T07:13:21Z</time>
      </trkpt>
      <trkpt lat="42.89417" lon="0.14439">
        <ele>2154</ele>
        <time>2015-05-24T07:13:38Z</time>
      </trkpt>
      <trkpt lat="42.89413" lon="0.1443">
        <ele>2156</ele>
        <time>2015-05-24T07:13:53Z</time>
      </trkpt>
      <trkpt lat="42.89417" lon="0.14421">
        <ele>2157</ele>
        <time>2015-05-24T07:14:08Z</time>
      </trkpt>
      <trkpt lat="42.89418" lon="0.14417">
        <ele>2159</ele>
        <time>2015-05-24T07:14:23Z</time>
      </trkpt>
      <trkpt lat="42.89418" lon="0.14417">
        <ele>2159</ele>
        <time>2015-05-24T07:14:43Z</time>
      </trkpt>
      <trkpt lat="42.89409" lon="0.14419">
        <ele>2160</ele>
        <time>2015-05-24T07:14:58Z</time>
      </trkpt>
      <trkpt lat="42.89405" lon="0.1442">
        <ele>2162</ele>
        <time>2015-05-24T07:15:04Z</time>
      </trkpt>
      <trkpt lat="42.89397" lon="0.14428">
        <ele>2164</ele>
        <time>2015-05-24T07:15:20Z</time>
      </trkpt>
      <trkpt lat="42.89391" lon="0.14436">
        <ele>2166</ele>
        <time>2015-05-24T07:15:37Z</time>
      </trkpt>
      <trkpt lat="42.89385" lon="0.14443">
        <ele>2168</ele>
        <time>2015-05-24T07:15:52Z</time>
      </trkpt>
      <trkpt lat="42.89378" lon="0.14455">
        <ele>2171</ele>
        <time>2015-05-24T07:16:09Z</time>
      </trkpt>
      <trkpt lat="42.89373" lon="0.14468">
        <ele>2173</ele>
        <time>2015-05-24T07:16:26Z</time>
      </trkpt>
      <trkpt lat="42.89368" lon="0.14478">
        <ele>2175</ele>
        <time>2015-05-24T07:16:42Z</time>
      </trkpt>
      <trkpt lat="42.8936" lon="0.14486">
        <ele>2177</ele>
        <time>2015-05-24T07:16:58Z</time>
      </trkpt>
      <trkpt lat="42.89353" lon="0.1449">
        <ele>2178</ele>
        <time>2015-05-24T07:17:10Z</time>
      </trkpt>
      <trkpt lat="42.89344" lon="0.14501">
        <ele>2180</ele>
        <time>2015-05-24T07:17:25Z</time>
      </trkpt>
      <trkpt lat="42.89339" lon="0.14505">
        <ele>2183</ele>
        <time>2015-05-24T07:17:40Z</time>
      </trkpt>
      <trkpt lat="42.89339" lon="0.145">
        <ele>2183</ele>
        <time>2015-05-24T07:18:11Z</time>
      </trkpt>
      <trkpt lat="42.89328" lon="0.14497">
        <ele>2184</ele>
        <time>2015-05-24T07:18:26Z</time>
      </trkpt>
      <trkpt lat="42.89322" lon="0.14495">
        <ele>2185</ele>
        <time>2015-05-24T07:18:36Z</time>
      </trkpt>
      <trkpt lat="42.89313" lon="0.14502">
        <ele>2187</ele>
        <time>2015-05-24T07:18:53Z</time>
      </trkpt>
      <trkpt lat="42.89308" lon="0.14497">
        <ele>2189</ele>
        <time>2015-05-24T07:19:07Z</time>
      </trkpt>
      <trkpt lat="42.89305" lon="0.14492">
        <ele>2191</ele>
        <time>2015-05-24T07:19:21Z</time>
      </trkpt>
      <trkpt lat="42.89302" lon="0.14507">
        <ele>2194</ele>
        <time>2015-05-24T07:19:39Z</time>
      </trkpt>
      <trkpt lat="42.89301" lon="0.14521">
        <ele>2196</ele>
        <time>2015-05-24T07:19:54Z</time>
      </trkpt>
      <trkpt lat="42.89294" lon="0.14524">
        <ele>2198</ele>
        <time>2015-05-24T07:20:09Z</time>
      </trkpt>
      <trkpt lat="42.89287" lon="0.14513">
        <ele>2201</ele>
        <time>2015-05-24T07:20:25Z</time>
      </trkpt>
      <trkpt lat="42.89283" lon="0.1452">
        <ele>2203</ele>
        <time>2015-05-24T07:20:38Z</time>
      </trkpt>
      <trkpt lat="42.89277" lon="0.14532">
        <ele>2205</ele>
        <time>2015-05-24T07:20:54Z</time>
      </trkpt>
      <trkpt lat="42.89273" lon="0.14526">
        <ele>2208</ele>
        <time>2015-05-24T07:21:10Z</time>
      </trkpt>
      <trkpt lat="42.89271" lon="0.14532">
        <ele>2210</ele>
        <time>2015-05-24T07:21:27Z</time>
      </trkpt>
      <trkpt lat="42.89268" lon="0.1454">
        <ele>2212</ele>
        <time>2015-05-24T07:21:44Z</time>
      </trkpt>
      <trkpt lat="42.89264" lon="0.1455">
        <ele>2214</ele>
        <time>2015-05-24T07:21:57Z</time>
      </trkpt>
      <trkpt lat="42.89254" lon="0.14554">
        <ele>2216</ele>
        <time>2015-05-24T07:22:10Z</time>
      </trkpt>
      <trkpt lat="42.89247" lon="0.14562">
        <ele>2219</ele>
        <time>2015-05-24T07:22:26Z</time>
      </trkpt>
      <trkpt lat="42.89244" lon="0.14567">
        <ele>2220</ele>
        <time>2015-05-24T07:22:39Z</time>
      </trkpt>
      <trkpt lat="42.89234" lon="0.14576">
        <ele>2222</ele>
        <time>2015-05-24T07:22:54Z</time>
      </trkpt>
      <trkpt lat="42.89225" lon="0.14583">
        <ele>2224</ele>
        <time>2015-05-24T07:23:09Z</time>
      </trkpt>
      <trkpt lat="42.89214" lon="0.1459">
        <ele>2226</ele>
        <time>2015-05-24T07:23:26Z</time>
      </trkpt>
      <trkpt lat="42.89206" lon="0.14596">
        <ele>2227</ele>
        <time>2015-05-24T07:23:40Z</time>
      </trkpt>
      <trkpt lat="42.89202" lon="0.14604">
        <ele>2229</ele>
        <time>2015-05-24T07:23:54Z</time>
      </trkpt>
      <trkpt lat="42.89196" lon="0.14614">
        <ele>2232</ele>
        <time>2015-05-24T07:24:11Z</time>
      </trkpt>
      <trkpt lat="42.8919" lon="0.14622">
        <ele>2235</ele>
        <time>2015-05-24T07:24:26Z</time>
      </trkpt>
      <trkpt lat="42.8919" lon="0.14628">
        <ele>2235</ele>
        <time>2015-05-24T07:24:31Z</time>
      </trkpt>
      <trkpt lat="42.89188" lon="0.14636">
        <ele>2235</ele>
        <time>2015-05-24T07:24:44Z</time>
      </trkpt>
      <trkpt lat="42.89187" lon="0.14639">
        <ele>2235</ele>
        <time>2015-05-24T07:25:00Z</time>
      </trkpt>
      <trkpt lat="42.89177" lon="0.14642">
        <ele>2237</ele>
        <time>2015-05-24T07:25:13Z</time>
      </trkpt>
      <trkpt lat="42.8917" lon="0.14643">
        <ele>2237</ele>
        <time>2015-05-24T07:25:26Z</time>
      </trkpt>
      <trkpt lat="42.89162" lon="0.14649">
        <ele>2239</ele>
        <time>2015-05-24T07:25:42Z</time>
      </trkpt>
      <trkpt lat="42.89166" lon="0.14647">
        <ele>2239</ele>
        <time>2015-05-24T07:26:05Z</time>
      </trkpt>
      <trkpt lat="42.89164" lon="0.14653">
        <ele>2238</ele>
        <time>2015-05-24T07:26:35Z</time>
      </trkpt>
      <trkpt lat="42.89163" lon="0.14644">
        <ele>2238</ele>
        <time>2015-05-24T07:26:57Z</time>
      </trkpt>
      <trkpt lat="42.89162" lon="0.14648">
        <ele>2238</ele>
        <time>2015-05-24T07:27:21Z</time>
      </trkpt>
      <trkpt lat="42.89157" lon="0.14646">
        <ele>2238</ele>
        <time>2015-05-24T07:27:46Z</time>
      </trkpt>
      <trkpt lat="42.89162" lon="0.14649">
        <ele>2238</ele>
        <time>2015-05-24T07:28:13Z</time>
      </trkpt>
      <trkpt lat="42.89165" lon="0.14654">
        <ele>2238</ele>
        <time>2015-05-24T07:28:42Z</time>
      </trkpt>
      <trkpt lat="42.89164" lon="0.14655">
        <ele>2238</ele>
        <time>2015-05-24T07:29:05Z</time>
      </trkpt>
      <trkpt lat="42.8916" lon="0.14654">
        <ele>2238</ele>
        <time>2015-05-24T07:29:36Z</time>
      </trkpt>
      <trkpt lat="42.89156" lon="0.14649">
        <ele>2239</ele>
        <time>2015-05-24T07:30:04Z</time>
      </trkpt>
      <trkpt lat="42.89156" lon="0.14646">
        <ele>2238</ele>
        <time>2015-05-24T07:30:30Z</time>
      </trkpt>
      <trkpt lat="42.89159" lon="0.14647">
        <ele>2238</ele>
        <time>2015-05-24T07:30:50Z</time>
      </trkpt>
      <trkpt lat="42.89154" lon="0.14652">
        <ele>2238</ele>
        <time>2015-05-24T07:31:09Z</time>
      </trkpt>
      <trkpt lat="42.89142" lon="0.14655">
        <ele>2240</ele>
        <time>2015-05-24T07:31:26Z</time>
      </trkpt>
      <trkpt lat="42.89129" lon="0.14658">
        <ele>2240</ele>
        <time>2015-05-24T07:31:41Z</time>
      </trkpt>
      <trkpt lat="42.89116" lon="0.14666">
        <ele>2242</ele>
        <time>2015-05-24T07:31:59Z</time>
      </trkpt>
      <trkpt lat="42.89114" lon="0.14668">
        <ele>2242</ele>
        <time>2015-05-24T07:32:06Z</time>
      </trkpt>
      <trkpt lat="42.89107" lon="0.14682">
        <ele>2244</ele>
        <time>2015-05-24T07:32:23Z</time>
      </trkpt>
      <trkpt lat="42.89099" lon="0.14691">
        <ele>2245</ele>
        <time>2015-05-24T07:32:42Z</time>
      </trkpt>
      <trkpt lat="42.89093" lon="0.14701">
        <ele>2246</ele>
        <time>2015-05-24T07:32:55Z</time>
      </trkpt>
      <trkpt lat="42.8909" lon="0.14708">
        <ele>2248</ele>
        <time>2015-05-24T07:33:10Z</time>
      </trkpt>
      <trkpt lat="42.89074" lon="0.14719">
        <ele>2251</ele>
        <time>2015-05-24T07:33:27Z</time>
      </trkpt>
      <trkpt lat="42.89065" lon="0.14723">
        <ele>2252</ele>
        <time>2015-05-24T07:33:45Z</time>
      </trkpt>
      <trkpt lat="42.89063" lon="0.14725">
        <ele>2253</ele>
        <time>2015-05-24T07:33:49Z</time>
      </trkpt>
      <trkpt lat="42.89056" lon="0.14724">
        <ele>2255</ele>
        <time>2015-05-24T07:34:07Z</time>
      </trkpt>
      <trkpt lat="42.89049" lon="0.14726">
        <ele>2256</ele>
        <time>2015-05-24T07:34:22Z</time>
      </trkpt>
      <trkpt lat="42.89042" lon="0.14733">
        <ele>2258</ele>
        <time>2015-05-24T07:34:40Z</time>
      </trkpt>
      <trkpt lat="42.89033" lon="0.14735">
        <ele>2261</ele>
        <time>2015-05-24T07:34:57Z</time>
      </trkpt>
      <trkpt lat="42.89023" lon="0.14736">
        <ele>2263</ele>
        <time>2015-05-24T07:35:15Z</time>
      </trkpt>
      <trkpt lat="42.89012" lon="0.14741">
        <ele>2265</ele>
        <time>2015-05-24T07:35:36Z</time>
      </trkpt>
      <trkpt lat="42.89002" lon="0.1474">
        <ele>2266</ele>
        <time>2015-05-24T07:35:51Z</time>
      </trkpt>
      <trkpt lat="42.88997" lon="0.14734">
        <ele>2267</ele>
        <time>2015-05-24T07:36:07Z</time>
      </trkpt>
      <trkpt lat="42.88995" lon="0.14733">
        <ele>2267</ele>
        <time>2015-05-24T07:36:26Z</time>
      </trkpt>
      <trkpt lat="42.88991" lon="0.14736">
        <ele>2268</ele>
        <time>2015-05-24T07:36:45Z</time>
      </trkpt>
      <trkpt lat="42.88989" lon="0.14736">
        <ele>2268</ele>
        <time>2015-05-24T07:36:49Z</time>
      </trkpt>
      <trkpt lat="42.88985" lon="0.1474">
        <ele>2269</ele>
        <time>2015-05-24T07:37:06Z</time>
      </trkpt>
      <trkpt lat="42.88976" lon="0.14749">
        <ele>2270</ele>
        <time>2015-05-24T07:37:23Z</time>
      </trkpt>
      <trkpt lat="42.88973" lon="0.14764">
        <ele>2273</ele>
        <time>2015-05-24T07:37:42Z</time>
      </trkpt>
      <trkpt lat="42.88968" lon="0.14779">
        <ele>2275</ele>
        <time>2015-05-24T07:38:00Z</time>
      </trkpt>
      <trkpt lat="42.88964" lon="0.14767">
        <ele>2277</ele>
        <time>2015-05-24T07:38:15Z</time>
      </trkpt>
      <trkpt lat="42.88963" lon="0.14759">
        <ele>2278</ele>
        <time>2015-05-24T07:38:28Z</time>
      </trkpt>
      <trkpt lat="42.8896" lon="0.14773">
        <ele>2280</ele>
        <time>2015-05-24T07:38:43Z</time>
      </trkpt>
      <trkpt lat="42.88953" lon="0.14783">
        <ele>2282</ele>
        <time>2015-05-24T07:39:00Z</time>
      </trkpt>
      <trkpt lat="42.88943" lon="0.14793">
        <ele>2284</ele>
        <time>2015-05-24T07:39:16Z</time>
      </trkpt>
      <trkpt lat="42.88941" lon="0.14796">
        <ele>2285</ele>
        <time>2015-05-24T07:39:20Z</time>
      </trkpt>
      <trkpt lat="42.88936" lon="0.14785">
        <ele>2287</ele>
        <time>2015-05-24T07:39:37Z</time>
      </trkpt>
      <trkpt lat="42.88928" lon="0.14771">
        <ele>2288</ele>
        <time>2015-05-24T07:39:52Z</time>
      </trkpt>
      <trkpt lat="42.88928" lon="0.14773">
        <ele>2290</ele>
        <time>2015-05-24T07:40:04Z</time>
      </trkpt>
      <trkpt lat="42.88925" lon="0.14783">
        <ele>2291</ele>
        <time>2015-05-24T07:40:20Z</time>
      </trkpt>
      <trkpt lat="42.88925" lon="0.14796">
        <ele>2293</ele>
        <time>2015-05-24T07:40:35Z</time>
      </trkpt>
      <trkpt lat="42.88923" lon="0.14799">
        <ele>2293</ele>
        <time>2015-05-24T07:40:39Z</time>
      </trkpt>
      <trkpt lat="42.88918" lon="0.14804">
        <ele>2295</ele>
        <time>2015-05-24T07:40:54Z</time>
      </trkpt>
      <trkpt lat="42.88911" lon="0.14812">
        <ele>2298</ele>
        <time>2015-05-24T07:41:11Z</time>
      </trkpt>
      <trkpt lat="42.88907" lon="0.14816">
        <ele>2300</ele>
        <time>2015-05-24T07:41:18Z</time>
      </trkpt>
      <trkpt lat="42.88898" lon="0.14824">
        <ele>2302</ele>
        <time>2015-05-24T07:41:33Z</time>
      </trkpt>
      <trkpt lat="42.88887" lon="0.14827">
        <ele>2304</ele>
        <time>2015-05-24T07:41:52Z</time>
      </trkpt>
      <trkpt lat="42.88882" lon="0.14829">
        <ele>2306</ele>
        <time>2015-05-24T07:42:09Z</time>
      </trkpt>
      <trkpt lat="42.88882" lon="0.14821">
        <ele>2306</ele>
        <time>2015-05-24T07:42:21Z</time>
      </trkpt>
      <trkpt lat="42.88883" lon="0.14809">
        <ele>2308</ele>
        <time>2015-05-24T07:42:34Z</time>
      </trkpt>
      <trkpt lat="42.88883" lon="0.14798">
        <ele>2309</ele>
        <time>2015-05-24T07:42:48Z</time>
      </trkpt>
      <trkpt lat="42.88885" lon="0.14793">
        <ele>2311</ele>
        <time>2015-05-24T07:43:06Z</time>
      </trkpt>
      <trkpt lat="42.88883" lon="0.14782">
        <ele>2313</ele>
        <time>2015-05-24T07:43:22Z</time>
      </trkpt>
      <trkpt lat="42.8888" lon="0.1478">
        <ele>2314</ele>
        <time>2015-05-24T07:43:39Z</time>
      </trkpt>
      <trkpt lat="42.88876" lon="0.14789">
        <ele>2316</ele>
        <time>2015-05-24T07:43:53Z</time>
      </trkpt>
      <trkpt lat="42.8887" lon="0.148">
        <ele>2318</ele>
        <time>2015-05-24T07:44:11Z</time>
      </trkpt>
      <trkpt lat="42.88865" lon="0.14807">
        <ele>2321</ele>
        <time>2015-05-24T07:44:27Z</time>
      </trkpt>
      <trkpt lat="42.88862" lon="0.14802">
        <ele>2322</ele>
        <time>2015-05-24T07:44:44Z</time>
      </trkpt>
      <trkpt lat="42.88859" lon="0.1479">
        <ele>2323</ele>
        <time>2015-05-24T07:44:56Z</time>
      </trkpt>
      <trkpt lat="42.88858" lon="0.14783">
        <ele>2325</ele>
        <time>2015-05-24T07:45:09Z</time>
      </trkpt>
      <trkpt lat="42.88856" lon="0.14769">
        <ele>2327</ele>
        <time>2015-05-24T07:45:23Z</time>
      </trkpt>
      <trkpt lat="42.88858" lon="0.1476">
        <ele>2330</ele>
        <time>2015-05-24T07:45:40Z</time>
      </trkpt>
      <trkpt lat="42.88856" lon="0.14767">
        <ele>2330</ele>
        <time>2015-05-24T07:45:56Z</time>
      </trkpt>
      <trkpt lat="42.88853" lon="0.14776">
        <ele>2334</ele>
        <time>2015-05-24T07:46:11Z</time>
      </trkpt>
      <trkpt lat="42.88847" lon="0.14777">
        <ele>2336</ele>
        <time>2015-05-24T07:46:23Z</time>
      </trkpt>
      <trkpt lat="42.8884" lon="0.14787">
        <ele>2339</ele>
        <time>2015-05-24T07:46:41Z</time>
      </trkpt>
      <trkpt lat="42.88837" lon="0.14778">
        <ele>2339</ele>
        <time>2015-05-24T07:46:55Z</time>
      </trkpt>
      <trkpt lat="42.88836" lon="0.14765">
        <ele>2342</ele>
        <time>2015-05-24T07:47:10Z</time>
      </trkpt>
      <trkpt lat="42.88834" lon="0.14759">
        <ele>2343</ele>
        <time>2015-05-24T07:47:27Z</time>
      </trkpt>
      <trkpt lat="42.88833" lon="0.14768">
        <ele>2345</ele>
        <time>2015-05-24T07:47:45Z</time>
      </trkpt>
      <trkpt lat="42.88829" lon="0.14785">
        <ele>2347</ele>
        <time>2015-05-24T07:48:01Z</time>
      </trkpt>
      <trkpt lat="42.88826" lon="0.14795">
        <ele>2349</ele>
        <time>2015-05-24T07:48:16Z</time>
      </trkpt>
      <trkpt lat="42.88818" lon="0.14806">
        <ele>2352</ele>
        <time>2015-05-24T07:48:33Z</time>
      </trkpt>
      <trkpt lat="42.88811" lon="0.14811">
        <ele>2353</ele>
        <time>2015-05-24T07:48:47Z</time>
      </trkpt>
      <trkpt lat="42.88808" lon="0.14806">
        <ele>2353</ele>
        <time>2015-05-24T07:49:02Z</time>
      </trkpt>
      <trkpt lat="42.88808" lon="0.14808">
        <ele>2354</ele>
        <time>2015-05-24T07:49:34Z</time>
      </trkpt>
      <trkpt lat="42.8881" lon="0.14812">
        <ele>2354</ele>
        <time>2015-05-24T07:49:57Z</time>
      </trkpt>
      <trkpt lat="42.8881" lon="0.14811">
        <ele>2354</ele>
        <time>2015-05-24T07:50:28Z</time>
      </trkpt>
      <trkpt lat="42.88813" lon="0.14817">
        <ele>2353</ele>
        <time>2015-05-24T07:51:01Z</time>
      </trkpt>
      <trkpt lat="42.88811" lon="0.14811">
        <ele>2354</ele>
        <time>2015-05-24T07:51:27Z</time>
      </trkpt>
      <trkpt lat="42.88813" lon="0.14812">
        <ele>2354</ele>
        <time>2015-05-24T07:52:04Z</time>
      </trkpt>
      <trkpt lat="42.8881" lon="0.1481">
        <ele>2354</ele>
        <time>2015-05-24T07:52:32Z</time>
      </trkpt>
      <trkpt lat="42.88815" lon="0.14807">
        <ele>2354</ele>
        <time>2015-05-24T07:53:00Z</time>
      </trkpt>
      <trkpt lat="42.88814" lon="0.14809">
        <ele>2354</ele>
        <time>2015-05-24T07:53:20Z</time>
      </trkpt>
      <trkpt lat="42.88812" lon="0.14806">
        <ele>2354</ele>
        <time>2015-05-24T07:53:39Z</time>
      </trkpt>
      <trkpt lat="42.88812" lon="0.14802">
        <ele>2354</ele>
        <time>2015-05-24T07:53:56Z</time>
      </trkpt>
      <trkpt lat="42.88806" lon="0.14804">
        <ele>2356</ele>
        <time>2015-05-24T07:54:11Z</time>
      </trkpt>
      <trkpt lat="42.88797" lon="0.14802">
        <ele>2358</ele>
        <time>2015-05-24T07:54:27Z</time>
      </trkpt>
      <trkpt lat="42.88789" lon="0.14798">
        <ele>2360</ele>
        <time>2015-05-24T07:54:41Z</time>
      </trkpt>
      <trkpt lat="42.88794" lon="0.14789">
        <ele>2361</ele>
        <time>2015-05-24T07:54:52Z</time>
      </trkpt>
      <trkpt lat="42.88803" lon="0.14781">
        <ele>2363</ele>
        <time>2015-05-24T07:55:06Z</time>
      </trkpt>
      <trkpt lat="42.88801" lon="0.14769">
        <ele>2364</ele>
        <time>2015-05-24T07:55:23Z</time>
      </trkpt>
      <trkpt lat="42.88805" lon="0.14759">
        <ele>2367</ele>
        <time>2015-05-24T07:55:36Z</time>
      </trkpt>
      <trkpt lat="42.88805" lon="0.14751">
        <ele>2369</ele>
        <time>2015-05-24T07:55:52Z</time>
      </trkpt>
      <trkpt lat="42.88804" lon="0.14742">
        <ele>2371</ele>
        <time>2015-05-24T07:56:08Z</time>
      </trkpt>
      <trkpt lat="42.88792" lon="0.14751">
        <ele>2374</ele>
        <time>2015-05-24T07:56:25Z</time>
      </trkpt>
      <trkpt lat="42.88788" lon="0.14756">
        <ele>2376</ele>
        <time>2015-05-24T07:56:42Z</time>
      </trkpt>
      <trkpt lat="42.88788" lon="0.14751">
        <ele>2377</ele>
        <time>2015-05-24T07:56:59Z</time>
      </trkpt>
      <trkpt lat="42.88792" lon="0.14735">
        <ele>2378</ele>
        <time>2015-05-24T07:57:16Z</time>
      </trkpt>
      <trkpt lat="42.88788" lon="0.14736">
        <ele>2380</ele>
        <time>2015-05-24T07:57:28Z</time>
      </trkpt>
      <trkpt lat="42.88776" lon="0.14742">
        <ele>2383</ele>
        <time>2015-05-24T07:57:42Z</time>
      </trkpt>
      <trkpt lat="42.88772" lon="0.14747">
        <ele>2384</ele>
        <time>2015-05-24T07:57:58Z</time>
      </trkpt>
      <trkpt lat="42.88774" lon="0.14734">
        <ele>2385</ele>
        <time>2015-05-24T07:58:13Z</time>
      </trkpt>
      <trkpt lat="42.88778" lon="0.14724">
        <ele>2388</ele>
        <time>2015-05-24T07:58:28Z</time>
      </trkpt>
      <trkpt lat="42.88782" lon="0.14714">
        <ele>2389</ele>
        <time>2015-05-24T07:58:47Z</time>
      </trkpt>
      <trkpt lat="42.88788" lon="0.14706">
        <ele>2390</ele>
        <time>2015-05-24T07:58:59Z</time>
      </trkpt>
      <trkpt lat="42.88788" lon="0.14698">
        <ele>2393</ele>
        <time>2015-05-24T07:59:11Z</time>
      </trkpt>
      <trkpt lat="42.88788" lon="0.14692">
        <ele>2394</ele>
        <time>2015-05-24T07:59:19Z</time>
      </trkpt>
      <trkpt lat="42.88786" lon="0.14692">
        <ele>2394</ele>
        <time>2015-05-24T07:59:34Z</time>
      </trkpt>
      <trkpt lat="42.88788" lon="0.14683">
        <ele>2394</ele>
        <time>2015-05-24T07:59:50Z</time>
      </trkpt>
      <trkpt lat="42.88787" lon="0.14678">
        <ele>2396</ele>
        <time>2015-05-24T08:00:01Z</time>
      </trkpt>
      <trkpt lat="42.88788" lon="0.14674">
        <ele>2397</ele>
        <time>2015-05-24T08:00:14Z</time>
      </trkpt>
      <trkpt lat="42.88782" lon="0.14685">
        <ele>2399</ele>
        <time>2015-05-24T08:00:35Z</time>
      </trkpt>
      <trkpt lat="42.88778" lon="0.14688">
        <ele>2401</ele>
        <time>2015-05-24T08:00:50Z</time>
      </trkpt>
      <trkpt lat="42.88773" lon="0.14682">
        <ele>2401</ele>
        <time>2015-05-24T08:01:08Z</time>
      </trkpt>
      <trkpt lat="42.88776" lon="0.14683">
        <ele>2401</ele>
        <time>2015-05-24T08:01:29Z</time>
      </trkpt>
      <trkpt lat="42.88771" lon="0.14688">
        <ele>2402</ele>
        <time>2015-05-24T08:01:48Z</time>
      </trkpt>
      <trkpt lat="42.88778" lon="0.14681">
        <ele>2401</ele>
        <time>2015-05-24T08:02:16Z</time>
      </trkpt>
      <trkpt lat="42.88778" lon="0.1468">
        <ele>2401</ele>
        <time>2015-05-24T08:02:28Z</time>
      </trkpt>
      <trkpt lat="42.88777" lon="0.14681">
        <ele>2402</ele>
        <time>2015-05-24T08:02:51Z</time>
      </trkpt>
      <trkpt lat="42.88768" lon="0.14688">
        <ele>2403</ele>
        <time>2015-05-24T08:03:06Z</time>
      </trkpt>
      <trkpt lat="42.88758" lon="0.14688">
        <ele>2406</ele>
        <time>2015-05-24T08:03:24Z</time>
      </trkpt>
      <trkpt lat="42.88759" lon="0.14689">
        <ele>2406</ele>
        <time>2015-05-24T08:03:40Z</time>
      </trkpt>
      <trkpt lat="42.88761" lon="0.1468">
        <ele>2406</ele>
        <time>2015-05-24T08:04:01Z</time>
      </trkpt>
      <trkpt lat="42.88761" lon="0.14669">
        <ele>2409</ele>
        <time>2015-05-24T08:04:18Z</time>
      </trkpt>
      <trkpt lat="42.88761" lon="0.14665">
        <ele>2410</ele>
        <time>2015-05-24T08:04:32Z</time>
      </trkpt>
      <trkpt lat="42.88764" lon="0.14661">
        <ele>2412</ele>
        <time>2015-05-24T08:04:52Z</time>
      </trkpt>
      <trkpt lat="42.88765" lon="0.14648">
        <ele>2414</ele>
        <time>2015-05-24T08:05:07Z</time>
      </trkpt>
      <trkpt lat="42.88765" lon="0.14638">
        <ele>2416</ele>
        <time>2015-05-24T08:05:19Z</time>
      </trkpt>
      <trkpt lat="42.88767" lon="0.14623">
        <ele>2418</ele>
        <time>2015-05-24T08:05:38Z</time>
      </trkpt>
      <trkpt lat="42.88766" lon="0.14614">
        <ele>2420</ele>
        <time>2015-05-24T08:05:55Z</time>
      </trkpt>
      <trkpt lat="42.88768" lon="0.14602">
        <ele>2422</ele>
        <time>2015-05-24T08:06:13Z</time>
      </trkpt>
      <trkpt lat="42.88765" lon="0.1459">
        <ele>2424</ele>
        <time>2015-05-24T08:06:32Z</time>
      </trkpt>
      <trkpt lat="42.88766" lon="0.14583">
        <ele>2425</ele>
        <time>2015-05-24T08:06:51Z</time>
      </trkpt>
      <trkpt lat="42.88767" lon="0.14588">
        <ele>2425</ele>
        <time>2015-05-24T08:07:11Z</time>
      </trkpt>
      <trkpt lat="42.88762" lon="0.14593">
        <ele>2426</ele>
        <time>2015-05-24T08:07:25Z</time>
      </trkpt>
      <trkpt lat="42.88751" lon="0.14609">
        <ele>2429</ele>
        <time>2015-05-24T08:07:43Z</time>
      </trkpt>
      <trkpt lat="42.88746" lon="0.14615">
        <ele>2431</ele>
        <time>2015-05-24T08:08:04Z</time>
      </trkpt>
      <trkpt lat="42.8875" lon="0.14603">
        <ele>2431</ele>
        <time>2015-05-24T08:08:21Z</time>
      </trkpt>
      <trkpt lat="42.88752" lon="0.14589">
        <ele>2434</ele>
        <time>2015-05-24T08:08:40Z</time>
      </trkpt>
      <trkpt lat="42.88754" lon="0.14571">
        <ele>2436</ele>
        <time>2015-05-24T08:08:56Z</time>
      </trkpt>
      <trkpt lat="42.88751" lon="0.14569">
        <ele>2436</ele>
        <time>2015-05-24T08:09:15Z</time>
      </trkpt>
      <trkpt lat="42.88755" lon="0.14556">
        <ele>2438</ele>
        <time>2015-05-24T08:09:30Z</time>
      </trkpt>
      <trkpt lat="42.88758" lon="0.14547">
        <ele>2441</ele>
        <time>2015-05-24T08:09:51Z</time>
      </trkpt>
      <trkpt lat="42.88753" lon="0.14553">
        <ele>2441</ele>
        <time>2015-05-24T08:10:10Z</time>
      </trkpt>
      <trkpt lat="42.88755" lon="0.14557">
        <ele>2442</ele>
        <time>2015-05-24T08:10:40Z</time>
      </trkpt>
      <trkpt lat="42.88748" lon="0.14566">
        <ele>2446</ele>
        <time>2015-05-24T08:11:01Z</time>
      </trkpt>
      <trkpt lat="42.88747" lon="0.14567">
        <ele>2446</ele>
        <time>2015-05-24T08:11:19Z</time>
      </trkpt>
      <trkpt lat="42.88739" lon="0.14565">
        <ele>2448</ele>
        <time>2015-05-24T08:11:39Z</time>
      </trkpt>
      <trkpt lat="42.88742" lon="0.14555">
        <ele>2449</ele>
        <time>2015-05-24T08:12:03Z</time>
      </trkpt>
      <trkpt lat="42.88745" lon="0.14539">
        <ele>2451</ele>
        <time>2015-05-24T08:12:22Z</time>
      </trkpt>
      <trkpt lat="42.88745" lon="0.14528">
        <ele>2453</ele>
        <time>2015-05-24T08:12:42Z</time>
      </trkpt>
      <trkpt lat="42.88735" lon="0.14541">
        <ele>2454</ele>
        <time>2015-05-24T08:13:08Z</time>
      </trkpt>
      <trkpt lat="42.8873" lon="0.14552">
        <ele>2457</ele>
        <time>2015-05-24T08:13:26Z</time>
      </trkpt>
      <trkpt lat="42.88722" lon="0.14558">
        <ele>2460</ele>
        <time>2015-05-24T08:13:44Z</time>
      </trkpt>
      <trkpt lat="42.88712" lon="0.1456">
        <ele>2461</ele>
        <time>2015-05-24T08:14:02Z</time>
      </trkpt>
      <trkpt lat="42.88722" lon="0.1455">
        <ele>2462</ele>
        <time>2015-05-24T08:14:25Z</time>
      </trkpt>
      <trkpt lat="42.88724" lon="0.1454">
        <ele>2464</ele>
        <time>2015-05-24T08:14:41Z</time>
      </trkpt>
      <trkpt lat="42.8872" lon="0.14539">
        <ele>2464</ele>
        <time>2015-05-24T08:15:00Z</time>
      </trkpt>
      <trkpt lat="42.88717" lon="0.14539">
        <ele>2465</ele>
        <time>2015-05-24T08:15:22Z</time>
      </trkpt>
      <trkpt lat="42.88724" lon="0.14543">
        <ele>2465</ele>
        <time>2015-05-24T08:15:45Z</time>
      </trkpt>
      <trkpt lat="42.88726" lon="0.14543">
        <ele>2465</ele>
        <time>2015-05-24T08:16:06Z</time>
      </trkpt>
      <trkpt lat="42.88734" lon="0.14546">
        <ele>2465</ele>
        <time>2015-05-24T08:16:34Z</time>
      </trkpt>
      <trkpt lat="42.88738" lon="0.14545">
        <ele>2465</ele>
        <time>2015-05-24T08:17:01Z</time>
      </trkpt>
      <trkpt lat="42.88742" lon="0.14546">
        <ele>2465</ele>
        <time>2015-05-24T08:17:23Z</time>
      </trkpt>
      <trkpt lat="42.88744" lon="0.14545">
        <ele>2464</ele>
        <time>2015-05-24T08:17:39Z</time>
      </trkpt>
      <trkpt lat="42.88744" lon="0.1455">
        <ele>2464</ele>
        <time>2015-05-24T08:17:59Z</time>
      </trkpt>
      <trkpt lat="42.88737" lon="0.14546">
        <ele>2465</ele>
        <time>2015-05-24T08:18:18Z</time>
      </trkpt>
      <trkpt lat="42.88735" lon="0.14546">
        <ele>2466</ele>
        <time>2015-05-24T08:18:36Z</time>
      </trkpt>
      <trkpt lat="42.88735" lon="0.14543">
        <ele>2466</ele>
        <time>2015-05-24T08:19:00Z</time>
      </trkpt>
      <trkpt lat="42.88733" lon="0.14549">
        <ele>2465</ele>
        <time>2015-05-24T08:19:26Z</time>
      </trkpt>
      <trkpt lat="42.88738" lon="0.14548">
        <ele>2465</ele>
        <time>2015-05-24T08:19:50Z</time>
      </trkpt>
      <trkpt lat="42.88739" lon="0.14546">
        <ele>2465</ele>
        <time>2015-05-24T08:20:18Z</time>
      </trkpt>
      <trkpt lat="42.88737" lon="0.14546">
        <ele>2465</ele>
        <time>2015-05-24T08:20:41Z</time>
      </trkpt>
      <trkpt lat="42.88736" lon="0.14544">
        <ele>2465</ele>
        <time>2015-05-24T08:21:05Z</time>
      </trkpt>
      <trkpt lat="42.88737" lon="0.14548">
        <ele>2466</ele>
        <time>2015-05-24T08:21:32Z</time>
      </trkpt>
      <trkpt lat="42.88743" lon="0.14551">
        <ele>2466</ele>
        <time>2015-05-24T08:22:00Z</time>
      </trkpt>
      <trkpt lat="42.88742" lon="0.14549">
        <ele>2465</ele>
        <time>2015-05-24T08:22:27Z</time>
      </trkpt>
      <trkpt lat="42.8874" lon="0.14546">
        <ele>2465</ele>
        <time>2015-05-24T08:22:50Z</time>
      </trkpt>
      <trkpt lat="42.88741" lon="0.14548">
        <ele>2466</ele>
        <time>2015-05-24T08:23:16Z</time>
      </trkpt>
      <trkpt lat="42.88742" lon="0.14547">
        <ele>2466</ele>
        <time>2015-05-24T08:23:40Z</time>
      </trkpt>
      <trkpt lat="42.88737" lon="0.14546">
        <ele>2466</ele>
        <time>2015-05-24T08:24:06Z</time>
      </trkpt>
      <trkpt lat="42.88737" lon="0.14548">
        <ele>2467</ele>
        <time>2015-05-24T08:24:28Z</time>
      </trkpt>
      <trkpt lat="42.88744" lon="0.1455">
        <ele>2467</ele>
        <time>2015-05-24T08:24:49Z</time>
      </trkpt>
      <trkpt lat="42.88749" lon="0.14546">
        <ele>2466</ele>
        <time>2015-05-24T08:25:09Z</time>
      </trkpt>
      <trkpt lat="42.88753" lon="0.14548">
        <ele>2467</ele>
        <time>2015-05-24T08:25:36Z</time>
      </trkpt>
      <trkpt lat="42.88758" lon="0.14548">
        <ele>2467</ele>
        <time>2015-05-24T08:26:05Z</time>
      </trkpt>
      <trkpt lat="42.88757" lon="0.14549">
        <ele>2467</ele>
        <time>2015-05-24T08:26:32Z</time>
      </trkpt>
      <trkpt lat="42.88755" lon="0.14551">
        <ele>2467</ele>
        <time>2015-05-24T08:27:01Z</time>
      </trkpt>
      <trkpt lat="42.88748" lon="0.14549">
        <ele>2468</ele>
        <time>2015-05-24T08:27:23Z</time>
      </trkpt>
      <trkpt lat="42.88761" lon="0.14548">
        <ele>2467</ele>
        <time>2015-05-24T08:27:54Z</time>
      </trkpt>
      <trkpt lat="42.88754" lon="0.14556">
        <ele>2467</ele>
        <time>2015-05-24T08:28:25Z</time>
      </trkpt>
      <trkpt lat="42.88759" lon="0.14549">
        <ele>2468</ele>
        <time>2015-05-24T08:28:47Z</time>
      </trkpt>
      <trkpt lat="42.88758" lon="0.14551">
        <ele>2466</ele>
        <time>2015-05-24T08:28:50Z</time>
      </trkpt>
      <trkpt lat="42.88758" lon="0.14551">
        <ele>2467</ele>
        <time>2015-05-24T08:28:52Z</time>
      </trkpt>
      <trkpt lat="42.88763" lon="0.14551">
        <ele>2468</ele>
        <time>2015-05-24T08:29:13Z</time>
      </trkpt>
      <trkpt lat="42.88757" lon="0.1455">
        <ele>2469</ele>
        <time>2015-05-24T08:29:22Z</time>
      </trkpt>
      <trkpt lat="42.8876" lon="0.14552">
        <ele>2469</ele>
        <time>2015-05-24T08:29:46Z</time>
      </trkpt>
      <trkpt lat="42.88761" lon="0.14552">
        <ele>2468</ele>
        <time>2015-05-24T08:29:48Z</time>
      </trkpt>
      <trkpt lat="42.88762" lon="0.14551">
        <ele>2468</ele>
        <time>2015-05-24T08:30:12Z</time>
      </trkpt>
      <trkpt lat="42.8876" lon="0.14552">
        <ele>2469</ele>
        <time>2015-05-24T08:30:32Z</time>
      </trkpt>
      <trkpt lat="42.88755" lon="0.14552">
        <ele>2469</ele>
        <time>2015-05-24T08:31:01Z</time>
      </trkpt>
      <trkpt lat="42.88756" lon="0.14553">
        <ele>2470</ele>
        <time>2015-05-24T08:31:29Z</time>
      </trkpt>
      <trkpt lat="42.88754" lon="0.14552">
        <ele>2471</ele>
        <time>2015-05-24T08:31:38Z</time>
      </trkpt>
      <trkpt lat="42.88757" lon="0.14552">
        <ele>2469</ele>
        <time>2015-05-24T08:31:58Z</time>
      </trkpt>
      <trkpt lat="42.88756" lon="0.14553">
        <ele>2469</ele>
        <time>2015-05-24T08:32:23Z</time>
      </trkpt>
      <trkpt lat="42.88755" lon="0.14551">
        <ele>2470</ele>
        <time>2015-05-24T08:32:54Z</time>
      </trkpt>
      <trkpt lat="42.88758" lon="0.14552">
        <ele>2470</ele>
        <time>2015-05-24T08:33:21Z</time>
      </trkpt>
      <trkpt lat="42.88758" lon="0.14552">
        <ele>2469</ele>
        <time>2015-05-24T08:33:23Z</time>
      </trkpt>
      <trkpt lat="42.88756" lon="0.1455">
        <ele>2470</ele>
        <time>2015-05-24T08:33:44Z</time>
      </trkpt>
      <trkpt lat="42.88761" lon="0.1455">
        <ele>2472</ele>
        <time>2015-05-24T08:33:56Z</time>
      </trkpt>
      <trkpt lat="42.88764" lon="0.14553">
        <ele>2471</ele>
        <time>2015-05-24T08:34:18Z</time>
      </trkpt>
      <trkpt lat="42.88763" lon="0.14553">
        <ele>2470</ele>
        <time>2015-05-24T08:34:48Z</time>
      </trkpt>
      <trkpt lat="42.88767" lon="0.14553">
        <ele>2470</ele>
        <time>2015-05-24T08:35:09Z</time>
      </trkpt>
      <trkpt lat="42.88771" lon="0.14551">
        <ele>2469</ele>
        <time>2015-05-24T08:35:14Z</time>
      </trkpt>
      <trkpt lat="42.88778" lon="0.14543">
        <ele>2465</ele>
        <time>2015-05-24T08:35:20Z</time>
      </trkpt>
      <trkpt lat="42.88776" lon="0.14551">
        <ele>2464</ele>
        <time>2015-05-24T08:35:24Z</time>
      </trkpt>
      <trkpt lat="42.8877" lon="0.14553">
        <ele>2464</ele>
        <time>2015-05-24T08:35:51Z</time>
      </trkpt>
      <trkpt lat="42.88765" lon="0.14554">
        <ele>2464</ele>
        <time>2015-05-24T08:36:13Z</time>
      </trkpt>
      <trkpt lat="42.88766" lon="0.14555">
        <ele>2464</ele>
        <time>2015-05-24T08:36:26Z</time>
      </trkpt>
      <trkpt lat="42.88772" lon="0.1456">
        <ele>2459</ele>
        <time>2015-05-24T08:36:31Z</time>
      </trkpt>
      <trkpt lat="42.88777" lon="0.14556">
        <ele>2456</ele>
        <time>2015-05-24T08:36:33Z</time>
      </trkpt>
      <trkpt lat="42.88784" lon="0.14562">
        <ele>2452</ele>
        <time>2015-05-24T08:36:36Z</time>
      </trkpt>
      <trkpt lat="42.88785" lon="0.14565">
        <ele>2453</ele>
        <time>2015-05-24T08:36:37Z</time>
      </trkpt>
      <trkpt lat="42.88786" lon="0.14566">
        <ele>2451</ele>
        <time>2015-05-24T08:36:38Z</time>
      </trkpt>
      <trkpt lat="42.88796" lon="0.14568">
        <ele>2448</ele>
        <time>2015-05-24T08:36:42Z</time>
      </trkpt>
      <trkpt lat="42.88802" lon="0.14563">
        <ele>2444</ele>
        <time>2015-05-24T08:36:46Z</time>
      </trkpt>
      <trkpt lat="42.88803" lon="0.14562">
        <ele>2444</ele>
        <time>2015-05-24T08:36:47Z</time>
      </trkpt>
      <trkpt lat="42.88811" lon="0.14557">
        <ele>2440</ele>
        <time>2015-05-24T08:36:51Z</time>
      </trkpt>
      <trkpt lat="42.88813" lon="0.14555">
        <ele>2439</ele>
        <time>2015-05-24T08:36:52Z</time>
      </trkpt>
      <trkpt lat="42.8882" lon="0.14546">
        <ele>2437</ele>
        <time>2015-05-24T08:36:55Z</time>
      </trkpt>
      <trkpt lat="42.88822" lon="0.14548">
        <ele>2438</ele>
        <time>2015-05-24T08:37:13Z</time>
      </trkpt>
      <trkpt lat="42.88823" lon="0.14549">
        <ele>2437</ele>
        <time>2015-05-24T08:37:16Z</time>
      </trkpt>
      <trkpt lat="42.88827" lon="0.14552">
        <ele>2436</ele>
        <time>2015-05-24T08:37:19Z</time>
      </trkpt>
      <trkpt lat="42.8883" lon="0.14561">
        <ele>2432</ele>
        <time>2015-05-24T08:37:22Z</time>
      </trkpt>
      <trkpt lat="42.88834" lon="0.14562">
        <ele>2428</ele>
        <time>2015-05-24T08:37:24Z</time>
      </trkpt>
      <trkpt lat="42.88836" lon="0.14564">
        <ele>2428</ele>
        <time>2015-05-24T08:37:25Z</time>
      </trkpt>
      <trkpt lat="42.88839" lon="0.14568">
        <ele>2425</ele>
        <time>2015-05-24T08:37:26Z</time>
      </trkpt>
      <trkpt lat="42.88836" lon="0.14574">
        <ele>2424</ele>
        <time>2015-05-24T08:37:28Z</time>
      </trkpt>
      <trkpt lat="42.88834" lon="0.14575">
        <ele>2421</ele>
        <time>2015-05-24T08:37:29Z</time>
      </trkpt>
      <trkpt lat="42.88833" lon="0.14586">
        <ele>2414</ele>
        <time>2015-05-24T08:37:33Z</time>
      </trkpt>
      <trkpt lat="42.88832" lon="0.14587">
        <ele>2415</ele>
        <time>2015-05-24T08:37:34Z</time>
      </trkpt>
      <trkpt lat="42.88826" lon="0.14587">
        <ele>2414</ele>
        <time>2015-05-24T08:37:35Z</time>
      </trkpt>
      <trkpt lat="42.88829" lon="0.14584">
        <ele>2412</ele>
        <time>2015-05-24T08:37:36Z</time>
      </trkpt>
      <trkpt lat="42.88818" lon="0.14575">
        <ele>2412</ele>
        <time>2015-05-24T08:37:46Z</time>
      </trkpt>
      <trkpt lat="42.88822" lon="0.14579">
        <ele>2410</ele>
        <time>2015-05-24T08:37:50Z</time>
      </trkpt>
      <trkpt lat="42.88827" lon="0.14579">
        <ele>2407</ele>
        <time>2015-05-24T08:37:52Z</time>
      </trkpt>
      <trkpt lat="42.88837" lon="0.14574">
        <ele>2403</ele>
        <time>2015-05-24T08:37:55Z</time>
      </trkpt>
      <trkpt lat="42.88838" lon="0.14573">
        <ele>2403</ele>
        <time>2015-05-24T08:37:56Z</time>
      </trkpt>
      <trkpt lat="42.88839" lon="0.14572">
        <ele>2403</ele>
        <time>2015-05-24T08:38:12Z</time>
      </trkpt>
      <trkpt lat="42.88837" lon="0.14564">
        <ele>2403</ele>
        <time>2015-05-24T08:38:45Z</time>
      </trkpt>
      <trkpt lat="42.88839" lon="0.14563">
        <ele>2402</ele>
        <time>2015-05-24T08:39:13Z</time>
      </trkpt>
      <trkpt lat="42.88838" lon="0.14571">
        <ele>2401</ele>
        <time>2015-05-24T08:39:24Z</time>
      </trkpt>
      <trkpt lat="42.88836" lon="0.14576">
        <ele>2400</ele>
        <time>2015-05-24T08:39:42Z</time>
      </trkpt>
      <trkpt lat="42.88842" lon="0.14576">
        <ele>2398</ele>
        <time>2015-05-24T08:39:45Z</time>
      </trkpt>
      <trkpt lat="42.88846" lon="0.14586">
        <ele>2395</ele>
        <time>2015-05-24T08:39:49Z</time>
      </trkpt>
      <trkpt lat="42.88844" lon="0.14592">
        <ele>2392</ele>
        <time>2015-05-24T08:39:51Z</time>
      </trkpt>
      <trkpt lat="42.88848" lon="0.14599">
        <ele>2389</ele>
        <time>2015-05-24T08:39:54Z</time>
      </trkpt>
      <trkpt lat="42.88849" lon="0.146">
        <ele>2387</ele>
        <time>2015-05-24T08:39:55Z</time>
      </trkpt>
      <trkpt lat="42.88853" lon="0.14598">
        <ele>2387</ele>
        <time>2015-05-24T08:39:56Z</time>
      </trkpt>
      <trkpt lat="42.88857" lon="0.14608">
        <ele>2383</ele>
        <time>2015-05-24T08:39:58Z</time>
      </trkpt>
      <trkpt lat="42.88859" lon="0.14613">
        <ele>2384</ele>
        <time>2015-05-24T08:39:59Z</time>
      </trkpt>
      <trkpt lat="42.88863" lon="0.14619">
        <ele>2379</ele>
        <time>2015-05-24T08:40:01Z</time>
      </trkpt>
      <trkpt lat="42.88866" lon="0.1462">
        <ele>2377</ele>
        <time>2015-05-24T08:40:02Z</time>
      </trkpt>
      <trkpt lat="42.8887" lon="0.14621">
        <ele>2377</ele>
        <time>2015-05-24T08:40:03Z</time>
      </trkpt>
      <trkpt lat="42.88874" lon="0.14626">
        <ele>2375</ele>
        <time>2015-05-24T08:40:05Z</time>
      </trkpt>
      <trkpt lat="42.8889" lon="0.14639">
        <ele>2370</ele>
        <time>2015-05-24T08:40:09Z</time>
      </trkpt>
      <trkpt lat="42.88897" lon="0.14632">
        <ele>2369</ele>
        <time>2015-05-24T08:40:10Z</time>
      </trkpt>
      <trkpt lat="42.88906" lon="0.14631">
        <ele>2369</ele>
        <time>2015-05-24T08:40:19Z</time>
      </trkpt>
      <trkpt lat="42.88905" lon="0.14625">
        <ele>2368</ele>
        <time>2015-05-24T08:40:38Z</time>
      </trkpt>
      <trkpt lat="42.88909" lon="0.14623">
        <ele>2369</ele>
        <time>2015-05-24T08:41:01Z</time>
      </trkpt>
      <trkpt lat="42.88909" lon="0.14624">
        <ele>2369</ele>
        <time>2015-05-24T08:41:13Z</time>
      </trkpt>
      <trkpt lat="42.88907" lon="0.14631">
        <ele>2367</ele>
        <time>2015-05-24T08:41:16Z</time>
      </trkpt>
      <trkpt lat="42.88902" lon="0.14646">
        <ele>2364</ele>
        <time>2015-05-24T08:41:19Z</time>
      </trkpt>
      <trkpt lat="42.88898" lon="0.14672">
        <ele>2364</ele>
        <time>2015-05-24T08:41:24Z</time>
      </trkpt>
      <trkpt lat="42.88896" lon="0.14682">
        <ele>2364</ele>
        <time>2015-05-24T08:41:38Z</time>
      </trkpt>
      <trkpt lat="42.88889" lon="0.14686">
        <ele>2364</ele>
        <time>2015-05-24T08:41:53Z</time>
      </trkpt>
      <trkpt lat="42.88883" lon="0.14703">
        <ele>2361</ele>
        <time>2015-05-24T08:42:07Z</time>
      </trkpt>
      <trkpt lat="42.88885" lon="0.14698">
        <ele>2360</ele>
        <time>2015-05-24T08:42:15Z</time>
      </trkpt>
      <trkpt lat="42.88891" lon="0.14702">
        <ele>2356</ele>
        <time>2015-05-24T08:42:20Z</time>
      </trkpt>
      <trkpt lat="42.88892" lon="0.14704">
        <ele>2357</ele>
        <time>2015-05-24T08:42:21Z</time>
      </trkpt>
      <trkpt lat="42.8889" lon="0.14715">
        <ele>2353</ele>
        <time>2015-05-24T08:42:32Z</time>
      </trkpt>
      <trkpt lat="42.88885" lon="0.1472">
        <ele>2351</ele>
        <time>2015-05-24T08:42:39Z</time>
      </trkpt>
      <trkpt lat="42.88878" lon="0.14728">
        <ele>2347</ele>
        <time>2015-05-24T08:42:43Z</time>
      </trkpt>
      <trkpt lat="42.88871" lon="0.14737">
        <ele>2345</ele>
        <time>2015-05-24T08:42:46Z</time>
      </trkpt>
      <trkpt lat="42.88853" lon="0.14761">
        <ele>2340</ele>
        <time>2015-05-24T08:42:55Z</time>
      </trkpt>
      <trkpt lat="42.88848" lon="0.14772">
        <ele>2340</ele>
        <time>2015-05-24T08:43:02Z</time>
      </trkpt>
      <trkpt lat="42.88852" lon="0.14767">
        <ele>2341</ele>
        <time>2015-05-24T08:43:27Z</time>
      </trkpt>
      <trkpt lat="42.88851" lon="0.14771">
        <ele>2340</ele>
        <time>2015-05-24T08:43:40Z</time>
      </trkpt>
      <trkpt lat="42.88858" lon="0.14775">
        <ele>2335</ele>
        <time>2015-05-24T08:43:45Z</time>
      </trkpt>
      <trkpt lat="42.88861" lon="0.14776">
        <ele>2335</ele>
        <time>2015-05-24T08:43:46Z</time>
      </trkpt>
      <trkpt lat="42.88864" lon="0.14787">
        <ele>2331</ele>
        <time>2015-05-24T08:43:48Z</time>
      </trkpt>
      <trkpt lat="42.88865" lon="0.14798">
        <ele>2330</ele>
        <time>2015-05-24T08:43:50Z</time>
      </trkpt>
      <trkpt lat="42.88866" lon="0.14801">
        <ele>2327</ele>
        <time>2015-05-24T08:43:51Z</time>
      </trkpt>
      <trkpt lat="42.88873" lon="0.148">
        <ele>2324</ele>
        <time>2015-05-24T08:43:54Z</time>
      </trkpt>
      <trkpt lat="42.88875" lon="0.14802">
        <ele>2321</ele>
        <time>2015-05-24T08:43:55Z</time>
      </trkpt>
      <trkpt lat="42.88876" lon="0.1481">
        <ele>2318</ele>
        <time>2015-05-24T08:43:56Z</time>
      </trkpt>
      <trkpt lat="42.88876" lon="0.14815">
        <ele>2318</ele>
        <time>2015-05-24T08:43:57Z</time>
      </trkpt>
      <trkpt lat="42.88876" lon="0.1482">
        <ele>2318</ele>
        <time>2015-05-24T08:43:58Z</time>
      </trkpt>
      <trkpt lat="42.88879" lon="0.14831">
        <ele>2312</ele>
        <time>2015-05-24T08:44:01Z</time>
      </trkpt>
      <trkpt lat="42.88875" lon="0.14846">
        <ele>2307</ele>
        <time>2015-05-24T08:44:05Z</time>
      </trkpt>
      <trkpt lat="42.88874" lon="0.14846">
        <ele>2309</ele>
        <time>2015-05-24T08:44:15Z</time>
      </trkpt>
      <trkpt lat="42.88874" lon="0.14846">
        <ele>2308</ele>
        <time>2015-05-24T08:44:16Z</time>
      </trkpt>
      <trkpt lat="42.88878" lon="0.14846">
        <ele>2306</ele>
        <time>2015-05-24T08:44:18Z</time>
      </trkpt>
      <trkpt lat="42.88883" lon="0.14845">
        <ele>2304</ele>
        <time>2015-05-24T08:44:20Z</time>
      </trkpt>
      <trkpt lat="42.88886" lon="0.14843">
        <ele>2302</ele>
        <time>2015-05-24T08:44:21Z</time>
      </trkpt>
      <trkpt lat="42.88901" lon="0.14821">
        <ele>2301</ele>
        <time>2015-05-24T08:44:23Z</time>
      </trkpt>
      <trkpt lat="42.88908" lon="0.14808">
        <ele>2300</ele>
        <time>2015-05-24T08:44:25Z</time>
      </trkpt>
      <trkpt lat="42.88915" lon="0.14795">
        <ele>2298</ele>
        <time>2015-05-24T08:44:27Z</time>
      </trkpt>
      <trkpt lat="42.88921" lon="0.14776">
        <ele>2297</ele>
        <time>2015-05-24T08:44:31Z</time>
      </trkpt>
      <trkpt lat="42.88926" lon="0.14772">
        <ele>2295</ele>
        <time>2015-05-24T08:44:32Z</time>
      </trkpt>
      <trkpt lat="42.88933" lon="0.14767">
        <ele>2294</ele>
        <time>2015-05-24T08:44:34Z</time>
      </trkpt>
      <trkpt lat="42.88941" lon="0.1476">
        <ele>2291</ele>
        <time>2015-05-24T08:44:36Z</time>
      </trkpt>
      <trkpt lat="42.88949" lon="0.14752">
        <ele>2290</ele>
        <time>2015-05-24T08:44:39Z</time>
      </trkpt>
      <trkpt lat="42.88956" lon="0.14742">
        <ele>2286</ele>
        <time>2015-05-24T08:44:43Z</time>
      </trkpt>
      <trkpt lat="42.88959" lon="0.14741">
        <ele>2283</ele>
        <time>2015-05-24T08:44:45Z</time>
      </trkpt>
      <trkpt lat="42.88959" lon="0.1474">
        <ele>2284</ele>
        <time>2015-05-24T08:44:46Z</time>
      </trkpt>
      <trkpt lat="42.8897" lon="0.14738">
        <ele>2277</ele>
        <time>2015-05-24T08:44:50Z</time>
      </trkpt>
      <trkpt lat="42.88978" lon="0.14738">
        <ele>2275</ele>
        <time>2015-05-24T08:44:52Z</time>
      </trkpt>
      <trkpt lat="42.88995" lon="0.14737">
        <ele>2272</ele>
        <time>2015-05-24T08:44:56Z</time>
      </trkpt>
      <trkpt lat="42.89006" lon="0.14734">
        <ele>2271</ele>
        <time>2015-05-24T08:45:04Z</time>
      </trkpt>
      <trkpt lat="42.89008" lon="0.14738">
        <ele>2272</ele>
        <time>2015-05-24T08:45:21Z</time>
      </trkpt>
      <trkpt lat="42.89007" lon="0.14736">
        <ele>2273</ele>
        <time>2015-05-24T08:45:40Z</time>
      </trkpt>
      <trkpt lat="42.89015" lon="0.14739">
        <ele>2273</ele>
        <time>2015-05-24T08:46:05Z</time>
      </trkpt>
      <trkpt lat="42.89029" lon="0.14736">
        <ele>2270</ele>
        <time>2015-05-24T08:46:10Z</time>
      </trkpt>
      <trkpt lat="42.89058" lon="0.1471">
        <ele>2266</ele>
        <time>2015-05-24T08:46:24Z</time>
      </trkpt>
      <trkpt lat="42.89071" lon="0.14698">
        <ele>2262</ele>
        <time>2015-05-24T08:46:30Z</time>
      </trkpt>
      <trkpt lat="42.89075" lon="0.14702">
        <ele>2260</ele>
        <time>2015-05-24T08:46:33Z</time>
      </trkpt>
      <trkpt lat="42.89076" lon="0.14704">
        <ele>2260</ele>
        <time>2015-05-24T08:46:34Z</time>
      </trkpt>
      <trkpt lat="42.89081" lon="0.14701">
        <ele>2256</ele>
        <time>2015-05-24T08:46:36Z</time>
      </trkpt>
      <trkpt lat="42.89085" lon="0.14694">
        <ele>2255</ele>
        <time>2015-05-24T08:46:38Z</time>
      </trkpt>
      <trkpt lat="42.89094" lon="0.14678">
        <ele>2254</ele>
        <time>2015-05-24T08:46:46Z</time>
      </trkpt>
      <trkpt lat="42.89111" lon="0.14651">
        <ele>2252</ele>
        <time>2015-05-24T08:46:56Z</time>
      </trkpt>
      <trkpt lat="42.89114" lon="0.14647">
        <ele>2251</ele>
        <time>2015-05-24T08:46:57Z</time>
      </trkpt>
      <trkpt lat="42.89125" lon="0.14636">
        <ele>2249</ele>
        <time>2015-05-24T08:46:59Z</time>
      </trkpt>
      <trkpt lat="42.89151" lon="0.14635">
        <ele>2248</ele>
        <time>2015-05-24T08:47:05Z</time>
      </trkpt>
      <trkpt lat="42.89173" lon="0.14635">
        <ele>2244</ele>
        <time>2015-05-24T08:47:09Z</time>
      </trkpt>
      <trkpt lat="42.8919" lon="0.14628">
        <ele>2241</ele>
        <time>2015-05-24T08:47:12Z</time>
      </trkpt>
      <trkpt lat="42.89197" lon="0.14605">
        <ele>2238</ele>
        <time>2015-05-24T08:47:19Z</time>
      </trkpt>
      <trkpt lat="42.89199" lon="0.14605">
        <ele>2238</ele>
        <time>2015-05-24T08:47:20Z</time>
      </trkpt>
      <trkpt lat="42.89205" lon="0.14603">
        <ele>2236</ele>
        <time>2015-05-24T08:47:25Z</time>
      </trkpt>
      <trkpt lat="42.89209" lon="0.14597">
        <ele>2235</ele>
        <time>2015-05-24T08:47:26Z</time>
      </trkpt>
      <trkpt lat="42.8921" lon="0.14581">
        <ele>2233</ele>
        <time>2015-05-24T08:47:29Z</time>
      </trkpt>
      <trkpt lat="42.89217" lon="0.14564">
        <ele>2233</ele>
        <time>2015-05-24T08:47:32Z</time>
      </trkpt>
      <trkpt lat="42.89226" lon="0.14546">
        <ele>2231</ele>
        <time>2015-05-24T08:47:41Z</time>
      </trkpt>
      <trkpt lat="42.89226" lon="0.14545">
        <ele>2231</ele>
        <time>2015-05-24T08:48:03Z</time>
      </trkpt>
      <trkpt lat="42.89227" lon="0.1455">
        <ele>2231</ele>
        <time>2015-05-24T08:48:30Z</time>
      </trkpt>
      <trkpt lat="42.89227" lon="0.14549">
        <ele>2231</ele>
        <time>2015-05-24T08:48:31Z</time>
      </trkpt>
      <trkpt lat="42.89233" lon="0.14548">
        <ele>2230</ele>
        <time>2015-05-24T08:48:33Z</time>
      </trkpt>
      <trkpt lat="42.89245" lon="0.14538">
        <ele>2227</ele>
        <time>2015-05-24T08:48:36Z</time>
      </trkpt>
      <trkpt lat="42.89256" lon="0.14535">
        <ele>2222</ele>
        <time>2015-05-24T08:48:40Z</time>
      </trkpt>
      <trkpt lat="42.89257" lon="0.14532">
        <ele>2222</ele>
        <time>2015-05-24T08:48:42Z</time>
      </trkpt>
      <trkpt lat="42.89261" lon="0.14527">
        <ele>2221</ele>
        <time>2015-05-24T08:48:44Z</time>
      </trkpt>
      <trkpt lat="42.89272" lon="0.14514">
        <ele>2216</ele>
        <time>2015-05-24T08:48:48Z</time>
      </trkpt>
      <trkpt lat="42.8928" lon="0.14506">
        <ele>2213</ele>
        <time>2015-05-24T08:48:52Z</time>
      </trkpt>
      <trkpt lat="42.89284" lon="0.14505">
        <ele>2211</ele>
        <time>2015-05-24T08:48:54Z</time>
      </trkpt>
      <trkpt lat="42.8929" lon="0.14506">
        <ele>2206</ele>
        <time>2015-05-24T08:48:56Z</time>
      </trkpt>
      <trkpt lat="42.893" lon="0.14502">
        <ele>2200</ele>
        <time>2015-05-24T08:49:00Z</time>
      </trkpt>
      <trkpt lat="42.893" lon="0.145">
        <ele>2200</ele>
        <time>2015-05-24T08:49:01Z</time>
      </trkpt>
      <trkpt lat="42.89298" lon="0.14503">
        <ele>2200</ele>
        <time>2015-05-24T08:49:18Z</time>
      </trkpt>
      <trkpt lat="42.89297" lon="0.14503">
        <ele>2200</ele>
        <time>2015-05-24T08:49:33Z</time>
      </trkpt>
      <trkpt lat="42.89298" lon="0.14496">
        <ele>2199</ele>
        <time>2015-05-24T08:49:46Z</time>
      </trkpt>
      <trkpt lat="42.89301" lon="0.14487">
        <ele>2198</ele>
        <time>2015-05-24T08:49:49Z</time>
      </trkpt>
      <trkpt lat="42.89316" lon="0.14478">
        <ele>2194</ele>
        <time>2015-05-24T08:49:52Z</time>
      </trkpt>
      <trkpt lat="42.89336" lon="0.14479">
        <ele>2188</ele>
        <time>2015-05-24T08:49:55Z</time>
      </trkpt>
      <trkpt lat="42.89342" lon="0.1448">
        <ele>2187</ele>
        <time>2015-05-24T08:49:56Z</time>
      </trkpt>
      <trkpt lat="42.8936" lon="0.14478">
        <ele>2183</ele>
        <time>2015-05-24T08:49:59Z</time>
      </trkpt>
      <trkpt lat="42.89378" lon="0.1447">
        <ele>2178</ele>
        <time>2015-05-24T08:50:03Z</time>
      </trkpt>
      <trkpt lat="42.89387" lon="0.14451">
        <ele>2173</ele>
        <time>2015-05-24T08:50:07Z</time>
      </trkpt>
      <trkpt lat="42.89389" lon="0.14445">
        <ele>2172</ele>
        <time>2015-05-24T08:50:08Z</time>
      </trkpt>
      <trkpt lat="42.89405" lon="0.14421">
        <ele>2165</ele>
        <time>2015-05-24T08:50:12Z</time>
      </trkpt>
      <trkpt lat="42.89417" lon="0.14409">
        <ele>2163</ele>
        <time>2015-05-24T08:50:15Z</time>
      </trkpt>
      <trkpt lat="42.89435" lon="0.14397">
        <ele>2159</ele>
        <time>2015-05-24T08:50:20Z</time>
      </trkpt>
      <trkpt lat="42.89437" lon="0.14397">
        <ele>2159</ele>
        <time>2015-05-24T08:50:21Z</time>
      </trkpt>
      <trkpt lat="42.89439" lon="0.14398">
        <ele>2159</ele>
        <time>2015-05-24T08:50:27Z</time>
      </trkpt>
      <trkpt lat="42.89442" lon="0.14394">
        <ele>2158</ele>
        <time>2015-05-24T08:50:48Z</time>
      </trkpt>
      <trkpt lat="42.89451" lon="0.14403">
        <ele>2153</ele>
        <time>2015-05-24T08:50:51Z</time>
      </trkpt>
      <trkpt lat="42.8946" lon="0.14417">
        <ele>2148</ele>
        <time>2015-05-24T08:50:54Z</time>
      </trkpt>
      <trkpt lat="42.89468" lon="0.14425">
        <ele>2144</ele>
        <time>2015-05-24T08:50:56Z</time>
      </trkpt>
      <trkpt lat="42.89471" lon="0.14431">
        <ele>2141</ele>
        <time>2015-05-24T08:50:57Z</time>
      </trkpt>
      <trkpt lat="42.89481" lon="0.14435">
        <ele>2135</ele>
        <time>2015-05-24T08:50:59Z</time>
      </trkpt>
      <trkpt lat="42.89495" lon="0.14431">
        <ele>2131</ele>
        <time>2015-05-24T08:51:01Z</time>
      </trkpt>
      <trkpt lat="42.89512" lon="0.14424">
        <ele>2127</ele>
        <time>2015-05-24T08:51:04Z</time>
      </trkpt>
      <trkpt lat="42.89518" lon="0.14422">
        <ele>2125</ele>
        <time>2015-05-24T08:51:05Z</time>
      </trkpt>
      <trkpt lat="42.89522" lon="0.1442">
        <ele>2125</ele>
        <time>2015-05-24T08:51:06Z</time>
      </trkpt>
      <trkpt lat="42.89529" lon="0.14421">
        <ele>2125</ele>
        <time>2015-05-24T08:51:13Z</time>
      </trkpt>
      <trkpt lat="42.8953" lon="0.14418">
        <ele>2124</ele>
        <time>2015-05-24T08:51:15Z</time>
      </trkpt>
      <trkpt lat="42.89531" lon="0.14423">
        <ele>2122</ele>
        <time>2015-05-24T08:51:19Z</time>
      </trkpt>
      <trkpt lat="42.89521" lon="0.14427">
        <ele>2122</ele>
        <time>2015-05-24T08:51:37Z</time>
      </trkpt>
      <trkpt lat="42.89522" lon="0.14428">
        <ele>2122</ele>
        <time>2015-05-24T08:51:48Z</time>
      </trkpt>
      <trkpt lat="42.89533" lon="0.14425">
        <ele>2116</ele>
        <time>2015-05-24T08:51:51Z</time>
      </trkpt>
      <trkpt lat="42.89537" lon="0.14423">
        <ele>2116</ele>
        <time>2015-05-24T08:51:52Z</time>
      </trkpt>
      <trkpt lat="42.89542" lon="0.14425">
        <ele>2114</ele>
        <time>2015-05-24T08:51:53Z</time>
      </trkpt>
      <trkpt lat="42.89547" lon="0.14427">
        <ele>2114</ele>
        <time>2015-05-24T08:51:54Z</time>
      </trkpt>
      <trkpt lat="42.89557" lon="0.14427">
        <ele>2110</ele>
        <time>2015-05-24T08:51:56Z</time>
      </trkpt>
      <trkpt lat="42.89572" lon="0.14418">
        <ele>2101</ele>
        <time>2015-05-24T08:52:00Z</time>
      </trkpt>
      <trkpt lat="42.89576" lon="0.14415">
        <ele>2101</ele>
        <time>2015-05-24T08:52:01Z</time>
      </trkpt>
      <trkpt lat="42.8958" lon="0.14414">
        <ele>2097</ele>
        <time>2015-05-24T08:52:02Z</time>
      </trkpt>
      <trkpt lat="42.89584" lon="0.14413">
        <ele>2098</ele>
        <time>2015-05-24T08:52:03Z</time>
      </trkpt>
      <trkpt lat="42.89589" lon="0.14412">
        <ele>2094</ele>
        <time>2015-05-24T08:52:04Z</time>
      </trkpt>
      <trkpt lat="42.89611" lon="0.144">
        <ele>2087</ele>
        <time>2015-05-24T08:52:08Z</time>
      </trkpt>
      <trkpt lat="42.89617" lon="0.14395">
        <ele>2084</ele>
        <time>2015-05-24T08:52:09Z</time>
      </trkpt>
      <trkpt lat="42.89632" lon="0.14382">
        <ele>2081</ele>
        <time>2015-05-24T08:52:11Z</time>
      </trkpt>
      <trkpt lat="42.89638" lon="0.1437">
        <ele>2078</ele>
        <time>2015-05-24T08:52:13Z</time>
      </trkpt>
      <trkpt lat="42.89641" lon="0.14363">
        <ele>2076</ele>
        <time>2015-05-24T08:52:14Z</time>
      </trkpt>
      <trkpt lat="42.89658" lon="0.14349">
        <ele>2071</ele>
        <time>2015-05-24T08:52:18Z</time>
      </trkpt>
      <trkpt lat="42.89671" lon="0.14342">
        <ele>2070</ele>
        <time>2015-05-24T08:52:21Z</time>
      </trkpt>
      <trkpt lat="42.89679" lon="0.14329">
        <ele>2066</ele>
        <time>2015-05-24T08:52:24Z</time>
      </trkpt>
      <trkpt lat="42.8969" lon="0.14314">
        <ele>2062</ele>
        <time>2015-05-24T08:52:27Z</time>
      </trkpt>
      <trkpt lat="42.89701" lon="0.14302">
        <ele>2059</ele>
        <time>2015-05-24T08:52:29Z</time>
      </trkpt>
      <trkpt lat="42.89719" lon="0.14293">
        <ele>2055</ele>
        <time>2015-05-24T08:52:33Z</time>
      </trkpt>
      <trkpt lat="42.89734" lon="0.14293">
        <ele>2053</ele>
        <time>2015-05-24T08:52:37Z</time>
      </trkpt>
      <trkpt lat="42.89741" lon="0.14291">
        <ele>2053</ele>
        <time>2015-05-24T08:52:39Z</time>
      </trkpt>
      <trkpt lat="42.89755" lon="0.14279">
        <ele>2047</ele>
        <time>2015-05-24T08:52:43Z</time>
      </trkpt>
      <trkpt lat="42.89764" lon="0.1427">
        <ele>2044</ele>
        <time>2015-05-24T08:52:45Z</time>
      </trkpt>
      <trkpt lat="42.89783" lon="0.14259">
        <ele>2039</ele>
        <time>2015-05-24T08:52:49Z</time>
      </trkpt>
      <trkpt lat="42.89786" lon="0.14257">
        <ele>2039</ele>
        <time>2015-05-24T08:52:50Z</time>
      </trkpt>
      <trkpt lat="42.89805" lon="0.14262">
        <ele>2036</ele>
        <time>2015-05-24T08:52:54Z</time>
      </trkpt>
      <trkpt lat="42.89823" lon="0.14265">
        <ele>2034</ele>
        <time>2015-05-24T08:52:58Z</time>
      </trkpt>
      <trkpt lat="42.89829" lon="0.14267">
        <ele>2032</ele>
        <time>2015-05-24T08:53:00Z</time>
      </trkpt>
      <trkpt lat="42.89838" lon="0.14269">
        <ele>2032</ele>
        <time>2015-05-24T08:53:03Z</time>
      </trkpt>
      <trkpt lat="42.89855" lon="0.14275">
        <ele>2029</ele>
        <time>2015-05-24T08:53:07Z</time>
      </trkpt>
      <trkpt lat="42.89871" lon="0.14285">
        <ele>2025</ele>
        <time>2015-05-24T08:53:10Z</time>
      </trkpt>
      <trkpt lat="42.89884" lon="0.14286">
        <ele>2023</ele>
        <time>2015-05-24T08:53:12Z</time>
      </trkpt>
      <trkpt lat="42.89896" lon="0.14281">
        <ele>2021</ele>
        <time>2015-05-24T08:53:14Z</time>
      </trkpt>
      <trkpt lat="42.89901" lon="0.14277">
        <ele>2020</ele>
        <time>2015-05-24T08:53:15Z</time>
      </trkpt>
      <trkpt lat="42.89908" lon="0.1427">
        <ele>2019</ele>
        <time>2015-05-24T08:53:17Z</time>
      </trkpt>
      <trkpt lat="42.89928" lon="0.14256">
        <ele>2017</ele>
        <time>2015-05-24T08:53:25Z</time>
      </trkpt>
      <trkpt lat="42.89952" lon="0.1425">
        <ele>2013</ele>
        <time>2015-05-24T08:53:31Z</time>
      </trkpt>
      <trkpt lat="42.89957" lon="0.1425">
        <ele>2013</ele>
        <time>2015-05-24T08:53:32Z</time>
      </trkpt>
      <trkpt lat="42.89966" lon="0.14247">
        <ele>2011</ele>
        <time>2015-05-24T08:53:34Z</time>
      </trkpt>
      <trkpt lat="42.8998" lon="0.14244">
        <ele>2009</ele>
        <time>2015-05-24T08:53:37Z</time>
      </trkpt>
      <trkpt lat="42.89988" lon="0.14242">
        <ele>2008</ele>
        <time>2015-05-24T08:53:39Z</time>
      </trkpt>
      <trkpt lat="42.90015" lon="0.14238">
        <ele>2004</ele>
        <time>2015-05-24T08:53:46Z</time>
      </trkpt>
      <trkpt lat="42.90028" lon="0.14235">
        <ele>2001</ele>
        <time>2015-05-24T08:53:49Z</time>
      </trkpt>
      <trkpt lat="42.90047" lon="0.14237">
        <ele>1997</ele>
        <time>2015-05-24T08:53:56Z</time>
      </trkpt>
      <trkpt lat="42.90045" lon="0.14238">
        <ele>1996</ele>
        <time>2015-05-24T08:54:12Z</time>
      </trkpt>
      <trkpt lat="42.9006" lon="0.1423">
        <ele>1993</ele>
        <time>2015-05-24T08:54:17Z</time>
      </trkpt>
      <trkpt lat="42.90071" lon="0.14229">
        <ele>1989</ele>
        <time>2015-05-24T08:54:19Z</time>
      </trkpt>
      <trkpt lat="42.90076" lon="0.14229">
        <ele>1987</ele>
        <time>2015-05-24T08:54:20Z</time>
      </trkpt>
      <trkpt lat="42.90091" lon="0.14229">
        <ele>1980</ele>
        <time>2015-05-24T08:54:23Z</time>
      </trkpt>
      <trkpt lat="42.90101" lon="0.14229">
        <ele>1975</ele>
        <time>2015-05-24T08:54:25Z</time>
      </trkpt>
      <trkpt lat="42.90109" lon="0.14228">
        <ele>1972</ele>
        <time>2015-05-24T08:54:27Z</time>
      </trkpt>
      <trkpt lat="42.90115" lon="0.14224">
        <ele>1967</ele>
        <time>2015-05-24T08:54:29Z</time>
      </trkpt>
      <trkpt lat="42.90118" lon="0.14224">
        <ele>1966</ele>
        <time>2015-05-24T08:54:30Z</time>
      </trkpt>
      <trkpt lat="42.90136" lon="0.14218">
        <ele>1956</ele>
        <time>2015-05-24T08:54:34Z</time>
      </trkpt>
      <trkpt lat="42.90143" lon="0.14213">
        <ele>1949</ele>
        <time>2015-05-24T08:54:36Z</time>
      </trkpt>
      <trkpt lat="42.90153" lon="0.14202">
        <ele>1944</ele>
        <time>2015-05-24T08:54:39Z</time>
      </trkpt>
      <trkpt lat="42.90152" lon="0.14193">
        <ele>1942</ele>
        <time>2015-05-24T08:54:42Z</time>
      </trkpt>
      <trkpt lat="42.9016" lon="0.14191">
        <ele>1940</ele>
        <time>2015-05-24T08:54:45Z</time>
      </trkpt>
      <trkpt lat="42.90161" lon="0.14187">
        <ele>1939</ele>
        <time>2015-05-24T08:54:46Z</time>
      </trkpt>
      <trkpt lat="42.90161" lon="0.14168">
        <ele>1932</ele>
        <time>2015-05-24T08:54:49Z</time>
      </trkpt>
      <trkpt lat="42.90168" lon="0.14138">
        <ele>1927</ele>
        <time>2015-05-24T08:54:53Z</time>
      </trkpt>
      <trkpt lat="42.90177" lon="0.14114">
        <ele>1923</ele>
        <time>2015-05-24T08:54:57Z</time>
      </trkpt>
      <trkpt lat="42.90183" lon="0.14103">
        <ele>1922</ele>
        <time>2015-05-24T08:54:59Z</time>
      </trkpt>
      <trkpt lat="42.90192" lon="0.14081">
        <ele>1919</ele>
        <time>2015-05-24T08:55:04Z</time>
      </trkpt>
      <trkpt lat="42.902" lon="0.14054">
        <ele>1916</ele>
        <time>2015-05-24T08:55:10Z</time>
      </trkpt>
      <trkpt lat="42.90205" lon="0.14037">
        <ele>1913</ele>
        <time>2015-05-24T08:55:13Z</time>
      </trkpt>
      <trkpt lat="42.90208" lon="0.14032">
        <ele>1913</ele>
        <time>2015-05-24T08:55:14Z</time>
      </trkpt>
      <trkpt lat="42.90212" lon="0.14022">
        <ele>1911</ele>
        <time>2015-05-24T08:55:16Z</time>
      </trkpt>
      <trkpt lat="42.90215" lon="0.14013">
        <ele>1910</ele>
        <time>2015-05-24T08:55:18Z</time>
      </trkpt>
      <trkpt lat="42.90226" lon="0.13991">
        <ele>1908</ele>
        <time>2015-05-24T08:55:24Z</time>
      </trkpt>
      <trkpt lat="42.9023" lon="0.13983">
        <ele>1907</ele>
        <time>2015-05-24T08:55:26Z</time>
      </trkpt>
      <trkpt lat="42.90248" lon="0.13964">
        <ele>1905</ele>
        <time>2015-05-24T08:55:37Z</time>
      </trkpt>
      <trkpt lat="42.90258" lon="0.13951">
        <ele>1904</ele>
        <time>2015-05-24T08:55:50Z</time>
      </trkpt>
      <trkpt lat="42.90276" lon="0.13926">
        <ele>1902</ele>
        <time>2015-05-24T08:56:03Z</time>
      </trkpt>
      <trkpt lat="42.90291" lon="0.13922">
        <ele>1904</ele>
        <time>2015-05-24T08:56:17Z</time>
      </trkpt>
      <trkpt lat="42.90297" lon="0.13915">
        <ele>1904</ele>
        <time>2015-05-24T08:56:27Z</time>
      </trkpt>
      <trkpt lat="42.903" lon="0.13904">
        <ele>1904</ele>
        <time>2015-05-24T08:56:43Z</time>
      </trkpt>
      <trkpt lat="42.90301" lon="0.13903">
        <ele>1902</ele>
        <time>2015-05-24T08:56:53Z</time>
      </trkpt>
      <trkpt lat="42.903" lon="0.13903">
        <ele>1904</ele>
        <time>2015-05-24T08:56:57Z</time>
      </trkpt>
      <trkpt lat="42.903" lon="0.13904">
        <ele>1903</ele>
        <time>2015-05-24T08:57:18Z</time>
      </trkpt>
      <trkpt lat="42.903" lon="0.13905">
        <ele>1903</ele>
        <time>2015-05-24T08:57:33Z</time>
      </trkpt>
      <trkpt lat="42.90301" lon="0.13905">
        <ele>1901</ele>
        <time>2015-05-24T08:57:38Z</time>
      </trkpt>
      <trkpt lat="42.90301" lon="0.13905">
        <ele>1902</ele>
        <time>2015-05-24T08:57:40Z</time>
      </trkpt>
      <trkpt lat="42.90304" lon="0.13904">
        <ele>1902</ele>
        <time>2015-05-24T08:58:05Z</time>
      </trkpt>
      <trkpt lat="42.90299" lon="0.13903">
        <ele>1902</ele>
        <time>2015-05-24T08:58:27Z</time>
      </trkpt>
      <trkpt lat="42.90304" lon="0.13897">
        <ele>1903</ele>
        <time>2015-05-24T08:58:33Z</time>
      </trkpt>
      <trkpt lat="42.90304" lon="0.13895">
        <ele>1903</ele>
        <time>2015-05-24T08:58:34Z</time>
      </trkpt>
      <trkpt lat="42.90307" lon="0.13886">
        <ele>1900</ele>
        <time>2015-05-24T08:58:41Z</time>
      </trkpt>
      <trkpt lat="42.90308" lon="0.13881">
        <ele>1899</ele>
        <time>2015-05-24T08:58:45Z</time>
      </trkpt>
      <trkpt lat="42.90308" lon="0.13876">
        <ele>1898</ele>
        <time>2015-05-24T08:58:49Z</time>
      </trkpt>
      <trkpt lat="42.9031" lon="0.13871">
        <ele>1897</ele>
        <time>2015-05-24T08:58:54Z</time>
      </trkpt>
      <trkpt lat="42.90316" lon="0.13862">
        <ele>1897</ele>
        <time>2015-05-24T08:59:02Z</time>
      </trkpt>
      <trkpt lat="42.90313" lon="0.13859">
        <ele>1897</ele>
        <time>2015-05-24T08:59:05Z</time>
      </trkpt>
      <trkpt lat="42.90312" lon="0.13852">
        <ele>1896</ele>
        <time>2015-05-24T08:59:09Z</time>
      </trkpt>
      <trkpt lat="42.90311" lon="0.1385">
        <ele>1895</ele>
        <time>2015-05-24T08:59:11Z</time>
      </trkpt>
      <trkpt lat="42.9031" lon="0.13845">
        <ele>1894</ele>
        <time>2015-05-24T08:59:14Z</time>
      </trkpt>
      <trkpt lat="42.90312" lon="0.13838">
        <ele>1893</ele>
        <time>2015-05-24T08:59:20Z</time>
      </trkpt>
      <trkpt lat="42.90313" lon="0.13836">
        <ele>1892</ele>
        <time>2015-05-24T08:59:24Z</time>
      </trkpt>
      <trkpt lat="42.90317" lon="0.13828">
        <ele>1889</ele>
        <time>2015-05-24T08:59:32Z</time>
      </trkpt>
      <trkpt lat="42.90318" lon="0.13826">
        <ele>1889</ele>
        <time>2015-05-24T08:59:34Z</time>
      </trkpt>
      <trkpt lat="42.90325" lon="0.13819">
        <ele>1889</ele>
        <time>2015-05-24T08:59:43Z</time>
      </trkpt>
      <trkpt lat="42.90328" lon="0.13812">
        <ele>1887</ele>
        <time>2015-05-24T08:59:50Z</time>
      </trkpt>
      <trkpt lat="42.90331" lon="0.13807">
        <ele>1888</ele>
        <time>2015-05-24T08:59:54Z</time>
      </trkpt>
      <trkpt lat="42.90342" lon="0.13798">
        <ele>1888</ele>
        <time>2015-05-24T09:00:07Z</time>
      </trkpt>
      <trkpt lat="42.90347" lon="0.13789">
        <ele>1887</ele>
        <time>2015-05-24T09:00:13Z</time>
      </trkpt>
      <trkpt lat="42.90344" lon="0.13765">
        <ele>1884</ele>
        <time>2015-05-24T09:00:26Z</time>
      </trkpt>
      <trkpt lat="42.90345" lon="0.13764">
        <ele>1883</ele>
        <time>2015-05-24T09:00:27Z</time>
      </trkpt>
      <trkpt lat="42.90353" lon="0.13738">
        <ele>1881</ele>
        <time>2015-05-24T09:00:43Z</time>
      </trkpt>
      <trkpt lat="42.90362" lon="0.13723">
        <ele>1881</ele>
        <time>2015-05-24T09:00:57Z</time>
      </trkpt>
      <trkpt lat="42.90366" lon="0.13719">
        <ele>1880</ele>
        <time>2015-05-24T09:01:02Z</time>
      </trkpt>
      <trkpt lat="42.90378" lon="0.1372">
        <ele>1879</ele>
        <time>2015-05-24T09:01:15Z</time>
      </trkpt>
      <trkpt lat="42.9038" lon="0.13722">
        <ele>1879</ele>
        <time>2015-05-24T09:01:17Z</time>
      </trkpt>
      <trkpt lat="42.90383" lon="0.13724">
        <ele>1879</ele>
        <time>2015-05-24T09:01:20Z</time>
      </trkpt>
      <trkpt lat="42.90391" lon="0.13716">
        <ele>1878</ele>
        <time>2015-05-24T09:01:30Z</time>
      </trkpt>
      <trkpt lat="42.90392" lon="0.13708">
        <ele>1876</ele>
        <time>2015-05-24T09:01:37Z</time>
      </trkpt>
      <trkpt lat="42.90395" lon="0.13706">
        <ele>1876</ele>
        <time>2015-05-24T09:01:40Z</time>
      </trkpt>
      <trkpt lat="42.904" lon="0.13697">
        <ele>1873</ele>
        <time>2015-05-24T09:01:54Z</time>
      </trkpt>
      <trkpt lat="42.90399" lon="0.13696">
        <ele>1877</ele>
        <time>2015-05-24T09:01:59Z</time>
      </trkpt>
      <trkpt lat="42.90395" lon="0.13697">
        <ele>1874</ele>
        <time>2015-05-24T09:02:07Z</time>
      </trkpt>
      <trkpt lat="42.90391" lon="0.13695">
        <ele>1874</ele>
        <time>2015-05-24T09:02:22Z</time>
      </trkpt>
      <trkpt lat="42.90398" lon="0.13695">
        <ele>1874</ele>
        <time>2015-05-24T09:02:42Z</time>
      </trkpt>
      <trkpt lat="42.90397" lon="0.13696">
        <ele>1873</ele>
        <time>2015-05-24T09:02:56Z</time>
      </trkpt>
      <trkpt lat="42.90401" lon="0.13695">
        <ele>1874</ele>
        <time>2015-05-24T09:03:12Z</time>
      </trkpt>
      <trkpt lat="42.90396" lon="0.13695">
        <ele>1874</ele>
        <time>2015-05-24T09:03:28Z</time>
      </trkpt>
      <trkpt lat="42.90397" lon="0.13693">
        <ele>1874</ele>
        <time>2015-05-24T09:03:44Z</time>
      </trkpt>
      <trkpt lat="42.90395" lon="0.13692">
        <ele>1874</ele>
        <time>2015-05-24T09:03:58Z</time>
      </trkpt>
      <trkpt lat="42.90397" lon="0.13695">
        <ele>1873</ele>
        <time>2015-05-24T09:04:12Z</time>
      </trkpt>
      <trkpt lat="42.90396" lon="0.13695">
        <ele>1874</ele>
        <time>2015-05-24T09:04:16Z</time>
      </trkpt>
      <trkpt lat="42.90396" lon="0.13694">
        <ele>1873</ele>
        <time>2015-05-24T09:04:26Z</time>
      </trkpt>
      <trkpt lat="42.9039" lon="0.13695">
        <ele>1872</ele>
        <time>2015-05-24T09:04:37Z</time>
      </trkpt>
      <trkpt lat="42.90388" lon="0.13694">
        <ele>1872</ele>
        <time>2015-05-24T09:04:39Z</time>
      </trkpt>
      <trkpt lat="42.90386" lon="0.13692">
        <ele>1873</ele>
        <time>2015-05-24T09:04:55Z</time>
      </trkpt>
      <trkpt lat="42.90388" lon="0.1369">
        <ele>1872</ele>
        <time>2015-05-24T09:05:10Z</time>
      </trkpt>
      <trkpt lat="42.90392" lon="0.1369">
        <ele>1872</ele>
        <time>2015-05-24T09:05:25Z</time>
      </trkpt>
      <trkpt lat="42.90393" lon="0.13689">
        <ele>1873</ele>
        <time>2015-05-24T09:05:33Z</time>
      </trkpt>
      <trkpt lat="42.90396" lon="0.13692">
        <ele>1873</ele>
        <time>2015-05-24T09:05:47Z</time>
      </trkpt>
      <trkpt lat="42.90392" lon="0.1369">
        <ele>1873</ele>
        <time>2015-05-24T09:06:05Z</time>
      </trkpt>
      <trkpt lat="42.90389" lon="0.13683">
        <ele>1873</ele>
        <time>2015-05-24T09:06:38Z</time>
      </trkpt>
      <trkpt lat="42.90394" lon="0.13687">
        <ele>1873</ele>
        <time>2015-05-24T09:06:55Z</time>
      </trkpt>
      <trkpt lat="42.90392" lon="0.1369">
        <ele>1872</ele>
        <time>2015-05-24T09:07:28Z</time>
      </trkpt>
      <trkpt lat="42.90389" lon="0.13691">
        <ele>1873</ele>
        <time>2015-05-24T09:07:46Z</time>
      </trkpt>
      <trkpt lat="42.90389" lon="0.13692">
        <ele>1872</ele>
        <time>2015-05-24T09:07:48Z</time>
      </trkpt>
      <trkpt lat="42.90386" lon="0.13689">
        <ele>1872</ele>
        <time>2015-05-24T09:08:01Z</time>
      </trkpt>
      <trkpt lat="42.90383" lon="0.13689">
        <ele>1872</ele>
        <time>2015-05-24T09:08:20Z</time>
      </trkpt>
      <trkpt lat="42.90372" lon="0.13688">
        <ele>1871</ele>
        <time>2015-05-24T09:08:26Z</time>
      </trkpt>
      <trkpt lat="42.90361" lon="0.13667">
        <ele>1870</ele>
        <time>2015-05-24T09:08:30Z</time>
      </trkpt>
      <trkpt lat="42.90329" lon="0.13617">
        <ele>1866</ele>
        <time>2015-05-24T09:08:37Z</time>
      </trkpt>
      <trkpt lat="42.90297" lon="0.13601">
        <ele>1862</ele>
        <time>2015-05-24T09:08:41Z</time>
      </trkpt>
      <trkpt lat="42.9028" lon="0.13554">
        <ele>1858</ele>
        <time>2015-05-24T09:08:47Z</time>
      </trkpt>
      <trkpt lat="42.90271" lon="0.13513">
        <ele>1855</ele>
        <time>2015-05-24T09:08:51Z</time>
      </trkpt>
      <trkpt lat="42.90278" lon="0.13462">
        <ele>1851</ele>
        <time>2015-05-24T09:08:56Z</time>
      </trkpt>
      <trkpt lat="42.90263" lon="0.13407">
        <ele>1847</ele>
        <time>2015-05-24T09:09:02Z</time>
      </trkpt>
      <trkpt lat="42.90248" lon="0.13395">
        <ele>1846</ele>
        <time>2015-05-24T09:09:04Z</time>
      </trkpt>
      <trkpt lat="42.90222" lon="0.13371">
        <ele>1842</ele>
        <time>2015-05-24T09:09:08Z</time>
      </trkpt>
      <trkpt lat="42.90221" lon="0.1336">
        <ele>1841</ele>
        <time>2015-05-24T09:09:09Z</time>
      </trkpt>
      <trkpt lat="42.90214" lon="0.13313">
        <ele>1838</ele>
        <time>2015-05-24T09:09:13Z</time>
      </trkpt>
      <trkpt lat="42.90206" lon="0.13294">
        <ele>1837</ele>
        <time>2015-05-24T09:09:15Z</time>
      </trkpt>
      <trkpt lat="42.90195" lon="0.13265">
        <ele>1834</ele>
        <time>2015-05-24T09:09:19Z</time>
      </trkpt>
      <trkpt lat="42.90205" lon="0.13234">
        <ele>1831</ele>
        <time>2015-05-24T09:09:27Z</time>
      </trkpt>
      <trkpt lat="42.90211" lon="0.13234">
        <ele>1830</ele>
        <time>2015-05-24T09:09:29Z</time>
      </trkpt>
      <trkpt lat="42.90226" lon="0.13239">
        <ele>1828</ele>
        <time>2015-05-24T09:09:43Z</time>
      </trkpt>
      <trkpt lat="42.90218" lon="0.13241">
        <ele>1829</ele>
        <time>2015-05-24T09:10:02Z</time>
      </trkpt>
      <trkpt lat="42.90219" lon="0.13242">
        <ele>1829</ele>
        <time>2015-05-24T09:10:18Z</time>
      </trkpt>
      <trkpt lat="42.90219" lon="0.13242">
        <ele>1828</ele>
        <time>2015-05-24T09:10:39Z</time>
      </trkpt>
      <trkpt lat="42.90219" lon="0.13242">
        <ele>1827</ele>
        <time>2015-05-24T09:10:54Z</time>
      </trkpt>
      <trkpt lat="42.9022" lon="0.1324">
        <ele>1828</ele>
        <time>2015-05-24T09:11:11Z</time>
      </trkpt>
      <trkpt lat="42.9022" lon="0.13239">
        <ele>1828</ele>
        <time>2015-05-24T09:11:19Z</time>
      </trkpt>
      <trkpt lat="42.90229" lon="0.13228">
        <ele>1827</ele>
        <time>2015-05-24T09:11:29Z</time>
      </trkpt>
      <trkpt lat="42.90234" lon="0.1322">
        <ele>1829</ele>
        <time>2015-05-24T09:11:40Z</time>
      </trkpt>
      <trkpt lat="42.90235" lon="0.13218">
        <ele>1829</ele>
        <time>2015-05-24T09:12:08Z</time>
      </trkpt>
      <trkpt lat="42.90233" lon="0.13218">
        <ele>1829</ele>
        <time>2015-05-24T09:12:36Z</time>
      </trkpt>
      <trkpt lat="42.90234" lon="0.13223">
        <ele>1829</ele>
        <time>2015-05-24T09:12:44Z</time>
      </trkpt>
      <trkpt lat="42.90232" lon="0.13226">
        <ele>1828</ele>
        <time>2015-05-24T09:12:47Z</time>
      </trkpt>
      <trkpt lat="42.90219" lon="0.13239">
        <ele>1828</ele>
        <time>2015-05-24T09:13:01Z</time>
      </trkpt>
      <trkpt lat="42.90218" lon="0.13241">
        <ele>1827</ele>
        <time>2015-05-24T09:13:14Z</time>
      </trkpt>
      <trkpt lat="42.90218" lon="0.13241">
        <ele>1828</ele>
        <time>2015-05-24T09:13:34Z</time>
      </trkpt>
      <trkpt lat="42.90217" lon="0.13243">
        <ele>1827</ele>
        <time>2015-05-24T09:14:02Z</time>
      </trkpt>
      <trkpt lat="42.90218" lon="0.1324">
        <ele>1827</ele>
        <time>2015-05-24T09:14:17Z</time>
      </trkpt>
      <trkpt lat="42.90218" lon="0.13239">
        <ele>1827</ele>
        <time>2015-05-24T09:14:41Z</time>
      </trkpt>
      <trkpt lat="42.90218" lon="0.1324">
        <ele>1827</ele>
        <time>2015-05-24T09:15:03Z</time>
      </trkpt>
      <trkpt lat="42.90219" lon="0.13236">
        <ele>1827</ele>
        <time>2015-05-24T09:15:22Z</time>
      </trkpt>
      <trkpt lat="42.90218" lon="0.13237">
        <ele>1827</ele>
        <time>2015-05-24T09:15:40Z</time>
      </trkpt>
      <trkpt lat="42.90219" lon="0.13237">
        <ele>1827</ele>
        <time>2015-05-24T09:16:02Z</time>
      </trkpt>
      <trkpt lat="42.90218" lon="0.13238">
        <ele>1827</ele>
        <time>2015-05-24T09:16:26Z</time>
      </trkpt>
      <trkpt lat="42.90218" lon="0.13241">
        <ele>1827</ele>
        <time>2015-05-24T09:16:46Z</time>
      </trkpt>
      <trkpt lat="42.90219" lon="0.1324">
        <ele>1827</ele>
        <time>2015-05-24T09:17:16Z</time>
      </trkpt>
      <trkpt lat="42.90217" lon="0.13239">
        <ele>1826</ele>
        <time>2015-05-24T09:17:29Z</time>
      </trkpt>
      <trkpt lat="42.90218" lon="0.13241">
        <ele>1828</ele>
        <time>2015-05-24T09:17:45Z</time>
      </trkpt>
      <trkpt lat="42.90219" lon="0.13242">
        <ele>1828</ele>
        <time>2015-05-24T09:18:08Z</time>
      </trkpt>
      <trkpt lat="42.90217" lon="0.1324">
        <ele>1824</ele>
        <time>2015-05-24T09:18:24Z</time>
      </trkpt>
      <trkpt lat="42.90217" lon="0.13239">
        <ele>1830</ele>
        <time>2015-05-24T09:18:25Z</time>
      </trkpt>
      <trkpt lat="42.90217" lon="0.13239">
        <ele>1827</ele>
        <time>2015-05-24T09:18:28Z</time>
      </trkpt>
      <trkpt lat="42.90217" lon="0.13239">
        <ele>1827</ele>
        <time>2015-05-24T09:18:51Z</time>
      </trkpt>
      <trkpt lat="42.90218" lon="0.1324">
        <ele>1827</ele>
        <time>2015-05-24T09:19:14Z</time>
      </trkpt>
      <trkpt lat="42.90218" lon="0.13238">
        <ele>1827</ele>
        <time>2015-05-24T09:19:31Z</time>
      </trkpt>
      <trkpt lat="42.90215" lon="0.13238">
        <ele>1826</ele>
        <time>2015-05-24T09:19:55Z</time>
      </trkpt>
      <trkpt lat="42.90216" lon="0.13236">
        <ele>1826</ele>
        <time>2015-05-24T09:20:16Z</time>
      </trkpt>
      <trkpt lat="42.90214" lon="0.13239">
        <ele>1826</ele>
        <time>2015-05-24T09:20:32Z</time>
      </trkpt>
      <trkpt lat="42.90217" lon="0.13241">
        <ele>1825</ele>
        <time>2015-05-24T09:20:51Z</time>
      </trkpt>
      <trkpt lat="42.90217" lon="0.13237">
        <ele>1825</ele>
        <time>2015-05-24T09:21:20Z</time>
      </trkpt>
      <trkpt lat="42.90219" lon="0.13238">
        <ele>1825</ele>
        <time>2015-05-24T09:21:43Z</time>
      </trkpt>
      <trkpt lat="42.90217" lon="0.13237">
        <ele>1825</ele>
        <time>2015-05-24T09:22:00Z</time>
      </trkpt>
      <trkpt lat="42.90218" lon="0.13237">
        <ele>1825</ele>
        <time>2015-05-24T09:22:22Z</time>
      </trkpt>
      <trkpt lat="42.90218" lon="0.13236">
        <ele>1825</ele>
        <time>2015-05-24T09:22:37Z</time>
      </trkpt>
      <trkpt lat="42.90216" lon="0.13235">
        <ele>1825</ele>
        <time>2015-05-24T09:22:56Z</time>
      </trkpt>
      <trkpt lat="42.90218" lon="0.13234">
        <ele>1825</ele>
        <time>2015-05-24T09:23:11Z</time>
      </trkpt>
      <trkpt lat="42.90217" lon="0.13238">
        <ele>1825</ele>
        <time>2015-05-24T09:23:30Z</time>
      </trkpt>
      <trkpt lat="42.90222" lon="0.1324">
        <ele>1825</ele>
        <time>2015-05-24T09:23:45Z</time>
      </trkpt>
      <trkpt lat="42.90219" lon="0.13236">
        <ele>1826</ele>
        <time>2015-05-24T09:23:59Z</time>
      </trkpt>
      <trkpt lat="42.90213" lon="0.13227">
        <ele>1827</ele>
        <time>2015-05-24T09:24:11Z</time>
      </trkpt>
      <trkpt lat="42.90213" lon="0.13222">
        <ele>1827</ele>
        <time>2015-05-24T09:24:24Z</time>
      </trkpt>
      <trkpt lat="42.9021" lon="0.13221">
        <ele>1828</ele>
        <time>2015-05-24T09:24:38Z</time>
      </trkpt>
      <trkpt lat="42.90208" lon="0.13221">
        <ele>1828</ele>
        <time>2015-05-24T09:24:57Z</time>
      </trkpt>
      <trkpt lat="42.90212" lon="0.13217">
        <ele>1827</ele>
        <time>2015-05-24T09:25:22Z</time>
      </trkpt>
      <trkpt lat="42.90216" lon="0.1322">
        <ele>1828</ele>
        <time>2015-05-24T09:25:41Z</time>
      </trkpt>
      <trkpt lat="42.90216" lon="0.1322">
        <ele>1828</ele>
        <time>2015-05-24T09:25:57Z</time>
      </trkpt>
      <trkpt lat="42.90203" lon="0.13219">
        <ele>1829</ele>
        <time>2015-05-24T09:26:05Z</time>
      </trkpt>
      <trkpt lat="42.90185" lon="0.13219">
        <ele>1830</ele>
        <time>2015-05-24T09:26:20Z</time>
      </trkpt>
      <trkpt lat="42.90176" lon="0.13215">
        <ele>1831</ele>
        <time>2015-05-24T09:26:34Z</time>
      </trkpt>
      <trkpt lat="42.90175" lon="0.13207">
        <ele>1832</ele>
        <time>2015-05-24T09:26:45Z</time>
      </trkpt>
      <trkpt lat="42.90173" lon="0.13204">
        <ele>1833</ele>
        <time>2015-05-24T09:26:48Z</time>
      </trkpt>
      <trkpt lat="42.90166" lon="0.13193">
        <ele>1834</ele>
        <time>2015-05-24T09:27:03Z</time>
      </trkpt>
      <trkpt lat="42.90164" lon="0.13185">
        <ele>1835</ele>
        <time>2015-05-24T09:27:18Z</time>
      </trkpt>
      <trkpt lat="42.90163" lon="0.13177">
        <ele>1836</ele>
        <time>2015-05-24T09:27:32Z</time>
      </trkpt>
      <trkpt lat="42.90159" lon="0.13167">
        <ele>1837</ele>
        <time>2015-05-24T09:27:43Z</time>
      </trkpt>
      <trkpt lat="42.90159" lon="0.13154">
        <ele>1838</ele>
        <time>2015-05-24T09:27:56Z</time>
      </trkpt>
      <trkpt lat="42.90158" lon="0.13137">
        <ele>1839</ele>
        <time>2015-05-24T09:28:10Z</time>
      </trkpt>
      <trkpt lat="42.90156" lon="0.13122">
        <ele>1840</ele>
        <time>2015-05-24T09:28:24Z</time>
      </trkpt>
      <trkpt lat="42.90156" lon="0.13104">
        <ele>1840</ele>
        <time>2015-05-24T09:28:37Z</time>
      </trkpt>
      <trkpt lat="42.90149" lon="0.13092">
        <ele>1840</ele>
        <time>2015-05-24T09:28:50Z</time>
      </trkpt>
      <trkpt lat="42.90147" lon="0.13088">
        <ele>1841</ele>
        <time>2015-05-24T09:28:53Z</time>
      </trkpt>
      <trkpt lat="42.90143" lon="0.1308">
        <ele>1842</ele>
        <time>2015-05-24T09:29:06Z</time>
      </trkpt>
      <trkpt lat="42.9014" lon="0.13073">
        <ele>1842</ele>
        <time>2015-05-24T09:29:15Z</time>
      </trkpt>
      <trkpt lat="42.90138" lon="0.13065">
        <ele>1844</ele>
        <time>2015-05-24T09:29:29Z</time>
      </trkpt>
      <trkpt lat="42.90136" lon="0.13056">
        <ele>1846</ele>
        <time>2015-05-24T09:29:42Z</time>
      </trkpt>
      <trkpt lat="42.90132" lon="0.13048">
        <ele>1848</ele>
        <time>2015-05-24T09:29:55Z</time>
      </trkpt>
      <trkpt lat="42.90129" lon="0.13047">
        <ele>1849</ele>
        <time>2015-05-24T09:30:14Z</time>
      </trkpt>
      <trkpt lat="42.90131" lon="0.13038">
        <ele>1849</ele>
        <time>2015-05-24T09:30:38Z</time>
      </trkpt>
      <trkpt lat="42.90128" lon="0.13033">
        <ele>1852</ele>
        <time>2015-05-24T09:30:50Z</time>
      </trkpt>
      <trkpt lat="42.90124" lon="0.1303">
        <ele>1853</ele>
        <time>2015-05-24T09:31:03Z</time>
      </trkpt>
      <trkpt lat="42.9012" lon="0.13026">
        <ele>1855</ele>
        <time>2015-05-24T09:31:15Z</time>
      </trkpt>
      <trkpt lat="42.90115" lon="0.13014">
        <ele>1857</ele>
        <time>2015-05-24T09:31:29Z</time>
      </trkpt>
      <trkpt lat="42.90113" lon="0.13005">
        <ele>1858</ele>
        <time>2015-05-24T09:31:40Z</time>
      </trkpt>
      <trkpt lat="42.90114" lon="0.12996">
        <ele>1860</ele>
        <time>2015-05-24T09:31:51Z</time>
      </trkpt>
      <trkpt lat="42.90114" lon="0.12987">
        <ele>1861</ele>
        <time>2015-05-24T09:32:00Z</time>
      </trkpt>
      <trkpt lat="42.90114" lon="0.12977">
        <ele>1863</ele>
        <time>2015-05-24T09:32:12Z</time>
      </trkpt>
      <trkpt lat="42.90111" lon="0.12973">
        <ele>1864</ele>
        <time>2015-05-24T09:32:24Z</time>
      </trkpt>
      <trkpt lat="42.90109" lon="0.12968">
        <ele>1866</ele>
        <time>2015-05-24T09:32:43Z</time>
      </trkpt>
      <trkpt lat="42.90105" lon="0.12956">
        <ele>1868</ele>
        <time>2015-05-24T09:32:56Z</time>
      </trkpt>
      <trkpt lat="42.90102" lon="0.12946">
        <ele>1871</ele>
        <time>2015-05-24T09:33:09Z</time>
      </trkpt>
      <trkpt lat="42.90097" lon="0.12947">
        <ele>1874</ele>
        <time>2015-05-24T09:33:21Z</time>
      </trkpt>
      <trkpt lat="42.90094" lon="0.12953">
        <ele>1875</ele>
        <time>2015-05-24T09:33:30Z</time>
      </trkpt>
      <trkpt lat="42.90087" lon="0.12959">
        <ele>1877</ele>
        <time>2015-05-24T09:33:43Z</time>
      </trkpt>
      <trkpt lat="42.90081" lon="0.12964">
        <ele>1880</ele>
        <time>2015-05-24T09:33:58Z</time>
      </trkpt>
      <trkpt lat="42.90083" lon="0.12964">
        <ele>1880</ele>
        <time>2015-05-24T09:34:05Z</time>
      </trkpt>
      <trkpt lat="42.90081" lon="0.12967">
        <ele>1880</ele>
        <time>2015-05-24T09:34:09Z</time>
      </trkpt>
      <trkpt lat="42.90078" lon="0.12961">
        <ele>1882</ele>
        <time>2015-05-24T09:34:22Z</time>
      </trkpt>
      <trkpt lat="42.90077" lon="0.12956">
        <ele>1885</ele>
        <time>2015-05-24T09:34:37Z</time>
      </trkpt>
      <trkpt lat="42.90073" lon="0.12946">
        <ele>1887</ele>
        <time>2015-05-24T09:34:51Z</time>
      </trkpt>
      <trkpt lat="42.90072" lon="0.12935">
        <ele>1889</ele>
        <time>2015-05-24T09:35:03Z</time>
      </trkpt>
      <trkpt lat="42.90071" lon="0.12922">
        <ele>1890</ele>
        <time>2015-05-24T09:35:15Z</time>
      </trkpt>
      <trkpt lat="42.90068" lon="0.12912">
        <ele>1892</ele>
        <time>2015-05-24T09:35:28Z</time>
      </trkpt>
      <trkpt lat="42.90066" lon="0.129">
        <ele>1894</ele>
        <time>2015-05-24T09:35:43Z</time>
      </trkpt>
      <trkpt lat="42.90065" lon="0.1289">
        <ele>1895</ele>
        <time>2015-05-24T09:35:55Z</time>
      </trkpt>
      <trkpt lat="42.90064" lon="0.12877">
        <ele>1897</ele>
        <time>2015-05-24T09:36:08Z</time>
      </trkpt>
      <trkpt lat="42.90063" lon="0.12865">
        <ele>1900</ele>
        <time>2015-05-24T09:36:24Z</time>
      </trkpt>
      <trkpt lat="42.90058" lon="0.12868">
        <ele>1901</ele>
        <time>2015-05-24T09:36:36Z</time>
      </trkpt>
      <trkpt lat="42.90047" lon="0.12874">
        <ele>1903</ele>
        <time>2015-05-24T09:36:50Z</time>
      </trkpt>
      <trkpt lat="42.90042" lon="0.12882">
        <ele>1906</ele>
        <time>2015-05-24T09:37:06Z</time>
      </trkpt>
      <trkpt lat="42.90041" lon="0.12878">
        <ele>1907</ele>
        <time>2015-05-24T09:37:22Z</time>
      </trkpt>
      <trkpt lat="42.90042" lon="0.1287">
        <ele>1909</ele>
        <time>2015-05-24T09:37:35Z</time>
      </trkpt>
      <trkpt lat="42.90041" lon="0.12867">
        <ele>1909</ele>
        <time>2015-05-24T09:37:39Z</time>
      </trkpt>
      <trkpt lat="42.90044" lon="0.12861">
        <ele>1911</ele>
        <time>2015-05-24T09:37:49Z</time>
      </trkpt>
      <trkpt lat="42.90041" lon="0.12859">
        <ele>1913</ele>
        <time>2015-05-24T09:38:00Z</time>
      </trkpt>
      <trkpt lat="42.9004" lon="0.1286">
        <ele>1912</ele>
        <time>2015-05-24T09:38:02Z</time>
      </trkpt>
      <trkpt lat="42.90028" lon="0.1287">
        <ele>1915</ele>
        <time>2015-05-24T09:38:17Z</time>
      </trkpt>
      <trkpt lat="42.90025" lon="0.12875">
        <ele>1917</ele>
        <time>2015-05-24T09:38:33Z</time>
      </trkpt>
      <trkpt lat="42.90027" lon="0.12872">
        <ele>1917</ele>
        <time>2015-05-24T09:38:35Z</time>
      </trkpt>
      <trkpt lat="42.90026" lon="0.12864">
        <ele>1918</ele>
        <time>2015-05-24T09:38:46Z</time>
      </trkpt>
      <trkpt lat="42.90027" lon="0.12854">
        <ele>1919</ele>
        <time>2015-05-24T09:38:57Z</time>
      </trkpt>
      <trkpt lat="42.90029" lon="0.12845">
        <ele>1921</ele>
        <time>2015-05-24T09:39:11Z</time>
      </trkpt>
      <trkpt lat="42.90026" lon="0.12843">
        <ele>1922</ele>
        <time>2015-05-24T09:39:24Z</time>
      </trkpt>
      <trkpt lat="42.90013" lon="0.12848">
        <ele>1925</ele>
        <time>2015-05-24T09:39:42Z</time>
      </trkpt>
      <trkpt lat="42.90009" lon="0.12848">
        <ele>1927</ele>
        <time>2015-05-24T09:39:59Z</time>
      </trkpt>
      <trkpt lat="42.90015" lon="0.12842">
        <ele>1928</ele>
        <time>2015-05-24T09:40:10Z</time>
      </trkpt>
      <trkpt lat="42.90015" lon="0.12841">
        <ele>1929</ele>
        <time>2015-05-24T09:40:19Z</time>
      </trkpt>
      <trkpt lat="42.90005" lon="0.12844">
        <ele>1931</ele>
        <time>2015-05-24T09:40:33Z</time>
      </trkpt>
      <trkpt lat="42.90002" lon="0.12846">
        <ele>1933</ele>
        <time>2015-05-24T09:40:48Z</time>
      </trkpt>
      <trkpt lat="42.90005" lon="0.12836">
        <ele>1936</ele>
        <time>2015-05-24T09:40:59Z</time>
      </trkpt>
      <trkpt lat="42.90008" lon="0.12828">
        <ele>1937</ele>
        <time>2015-05-24T09:41:11Z</time>
      </trkpt>
      <trkpt lat="42.90005" lon="0.12831">
        <ele>1938</ele>
        <time>2015-05-24T09:41:24Z</time>
      </trkpt>
      <trkpt lat="42.90002" lon="0.12832">
        <ele>1938</ele>
        <time>2015-05-24T09:41:27Z</time>
      </trkpt>
      <trkpt lat="42.89988" lon="0.12835">
        <ele>1940</ele>
        <time>2015-05-24T09:41:46Z</time>
      </trkpt>
      <trkpt lat="42.8998" lon="0.12836">
        <ele>1942</ele>
        <time>2015-05-24T09:41:57Z</time>
      </trkpt>
      <trkpt lat="42.89981" lon="0.12838">
        <ele>1943</ele>
        <time>2015-05-24T09:42:10Z</time>
      </trkpt>
      <trkpt lat="42.89983" lon="0.12837">
        <ele>1944</ele>
        <time>2015-05-24T09:42:12Z</time>
      </trkpt>
      <trkpt lat="42.89987" lon="0.12826">
        <ele>1946</ele>
        <time>2015-05-24T09:42:26Z</time>
      </trkpt>
      <trkpt lat="42.89982" lon="0.12831">
        <ele>1946</ele>
        <time>2015-05-24T09:42:42Z</time>
      </trkpt>
      <trkpt lat="42.89975" lon="0.12834">
        <ele>1950</ele>
        <time>2015-05-24T09:42:58Z</time>
      </trkpt>
      <trkpt lat="42.89966" lon="0.12841">
        <ele>1952</ele>
        <time>2015-05-24T09:43:12Z</time>
      </trkpt>
      <trkpt lat="42.8997" lon="0.12827">
        <ele>1954</ele>
        <time>2015-05-24T09:43:26Z</time>
      </trkpt>
      <trkpt lat="42.89975" lon="0.1282">
        <ele>1955</ele>
        <time>2015-05-24T09:43:40Z</time>
      </trkpt>
      <trkpt lat="42.89978" lon="0.12811">
        <ele>1957</ele>
        <time>2015-05-24T09:43:52Z</time>
      </trkpt>
      <trkpt lat="42.89973" lon="0.12811">
        <ele>1960</ele>
        <time>2015-05-24T09:44:08Z</time>
      </trkpt>
      <trkpt lat="42.89962" lon="0.12814">
        <ele>1963</ele>
        <time>2015-05-24T09:44:24Z</time>
      </trkpt>
      <trkpt lat="42.89961" lon="0.12815">
        <ele>1963</ele>
        <time>2015-05-24T09:44:25Z</time>
      </trkpt>
      <trkpt lat="42.89952" lon="0.12821">
        <ele>1966</ele>
        <time>2015-05-24T09:44:42Z</time>
      </trkpt>
      <trkpt lat="42.8995" lon="0.12825">
        <ele>1966</ele>
        <time>2015-05-24T09:44:47Z</time>
      </trkpt>
      <trkpt lat="42.89941" lon="0.12831">
        <ele>1967</ele>
        <time>2015-05-24T09:45:03Z</time>
      </trkpt>
      <trkpt lat="42.89942" lon="0.12831">
        <ele>1970</ele>
        <time>2015-05-24T09:45:17Z</time>
      </trkpt>
      <trkpt lat="42.89941" lon="0.12824">
        <ele>1972</ele>
        <time>2015-05-24T09:45:28Z</time>
      </trkpt>
      <trkpt lat="42.89941" lon="0.12812">
        <ele>1975</ele>
        <time>2015-05-24T09:45:41Z</time>
      </trkpt>
      <trkpt lat="42.89939" lon="0.12806">
        <ele>1976</ele>
        <time>2015-05-24T09:45:55Z</time>
      </trkpt>
      <trkpt lat="42.8993" lon="0.12815">
        <ele>1978</ele>
        <time>2015-05-24T09:46:10Z</time>
      </trkpt>
      <trkpt lat="42.8993" lon="0.12816">
        <ele>1978</ele>
        <time>2015-05-24T09:46:11Z</time>
      </trkpt>
      <trkpt lat="42.89923" lon="0.12824">
        <ele>1980</ele>
        <time>2015-05-24T09:46:27Z</time>
      </trkpt>
      <trkpt lat="42.89923" lon="0.12826">
        <ele>1982</ele>
        <time>2015-05-24T09:46:41Z</time>
      </trkpt>
      <trkpt lat="42.89924" lon="0.12816">
        <ele>1984</ele>
        <time>2015-05-24T09:46:52Z</time>
      </trkpt>
      <trkpt lat="42.89922" lon="0.12807">
        <ele>1985</ele>
        <time>2015-05-24T09:47:04Z</time>
      </trkpt>
      <trkpt lat="42.89921" lon="0.12809">
        <ele>1986</ele>
        <time>2015-05-24T09:47:16Z</time>
      </trkpt>
      <trkpt lat="42.89915" lon="0.12816">
        <ele>1989</ele>
        <time>2015-05-24T09:47:29Z</time>
      </trkpt>
      <trkpt lat="42.89907" lon="0.12821">
        <ele>1991</ele>
        <time>2015-05-24T09:47:43Z</time>
      </trkpt>
      <trkpt lat="42.89909" lon="0.12822">
        <ele>1992</ele>
        <time>2015-05-24T09:47:54Z</time>
      </trkpt>
      <trkpt lat="42.89911" lon="0.12813">
        <ele>1994</ele>
        <time>2015-05-24T09:48:08Z</time>
      </trkpt>
      <trkpt lat="42.89911" lon="0.12808">
        <ele>1995</ele>
        <time>2015-05-24T09:48:13Z</time>
      </trkpt>
      <trkpt lat="42.89906" lon="0.12807">
        <ele>1996</ele>
        <time>2015-05-24T09:48:26Z</time>
      </trkpt>
      <trkpt lat="42.89904" lon="0.12811">
        <ele>1997</ele>
        <time>2015-05-24T09:48:31Z</time>
      </trkpt>
      <trkpt lat="42.89901" lon="0.1282">
        <ele>1998</ele>
        <time>2015-05-24T09:48:44Z</time>
      </trkpt>
      <trkpt lat="42.899" lon="0.1283">
        <ele>2000</ele>
        <time>2015-05-24T09:48:56Z</time>
      </trkpt>
      <trkpt lat="42.89899" lon="0.12829">
        <ele>2002</ele>
        <time>2015-05-24T09:49:10Z</time>
      </trkpt>
      <trkpt lat="42.89897" lon="0.12819">
        <ele>2003</ele>
        <time>2015-05-24T09:49:22Z</time>
      </trkpt>
      <trkpt lat="42.89896" lon="0.12808">
        <ele>2005</ele>
        <time>2015-05-24T09:49:34Z</time>
      </trkpt>
      <trkpt lat="42.89897" lon="0.12806">
        <ele>2007</ele>
        <time>2015-05-24T09:49:47Z</time>
      </trkpt>
      <trkpt lat="42.8989" lon="0.12813">
        <ele>2008</ele>
        <time>2015-05-24T09:50:01Z</time>
      </trkpt>
      <trkpt lat="42.89884" lon="0.12816">
        <ele>2011</ele>
        <time>2015-05-24T09:50:15Z</time>
      </trkpt>
      <trkpt lat="42.89884" lon="0.12814">
        <ele>2010</ele>
        <time>2015-05-24T09:50:18Z</time>
      </trkpt>
      <trkpt lat="42.89881" lon="0.12803">
        <ele>2013</ele>
        <time>2015-05-24T09:50:31Z</time>
      </trkpt>
      <trkpt lat="42.89876" lon="0.12804">
        <ele>2014</ele>
        <time>2015-05-24T09:50:42Z</time>
      </trkpt>
      <trkpt lat="42.89875" lon="0.12817">
        <ele>2016</ele>
        <time>2015-05-24T09:50:58Z</time>
      </trkpt>
      <trkpt lat="42.89872" lon="0.12811">
        <ele>2017</ele>
        <time>2015-05-24T09:51:11Z</time>
      </trkpt>
      <trkpt lat="42.89871" lon="0.12805">
        <ele>2019</ele>
        <time>2015-05-24T09:51:23Z</time>
      </trkpt>
      <trkpt lat="42.89871" lon="0.12802">
        <ele>2020</ele>
        <time>2015-05-24T09:51:28Z</time>
      </trkpt>
      <trkpt lat="42.89867" lon="0.12802">
        <ele>2021</ele>
        <time>2015-05-24T09:51:40Z</time>
      </trkpt>
      <trkpt lat="42.89863" lon="0.12814">
        <ele>2024</ele>
        <time>2015-05-24T09:51:55Z</time>
      </trkpt>
      <trkpt lat="42.89863" lon="0.12808">
        <ele>2025</ele>
        <time>2015-05-24T09:52:12Z</time>
      </trkpt>
      <trkpt lat="42.89859" lon="0.12802">
        <ele>2027</ele>
        <time>2015-05-24T09:52:23Z</time>
      </trkpt>
      <trkpt lat="42.8986" lon="0.12804">
        <ele>2028</ele>
        <time>2015-05-24T09:52:36Z</time>
      </trkpt>
      <trkpt lat="42.89858" lon="0.12811">
        <ele>2029</ele>
        <time>2015-05-24T09:52:51Z</time>
      </trkpt>
      <trkpt lat="42.89853" lon="0.12806">
        <ele>2030</ele>
        <time>2015-05-24T09:53:05Z</time>
      </trkpt>
      <trkpt lat="42.89847" lon="0.12802">
        <ele>2032</ele>
        <time>2015-05-24T09:53:17Z</time>
      </trkpt>
      <trkpt lat="42.89848" lon="0.12804">
        <ele>2032</ele>
        <time>2015-05-24T09:53:33Z</time>
      </trkpt>
      <trkpt lat="42.89845" lon="0.12801">
        <ele>2032</ele>
        <time>2015-05-24T09:53:52Z</time>
      </trkpt>
      <trkpt lat="42.89847" lon="0.12805">
        <ele>2031</ele>
        <time>2015-05-24T09:54:13Z</time>
      </trkpt>
      <trkpt lat="42.8985" lon="0.1281">
        <ele>2032</ele>
        <time>2015-05-24T09:54:36Z</time>
      </trkpt>
      <trkpt lat="42.89847" lon="0.12808">
        <ele>2032</ele>
        <time>2015-05-24T09:55:08Z</time>
      </trkpt>
      <trkpt lat="42.89847" lon="0.12804">
        <ele>2032</ele>
        <time>2015-05-24T09:55:35Z</time>
      </trkpt>
      <trkpt lat="42.89851" lon="0.12803">
        <ele>2032</ele>
        <time>2015-05-24T09:55:59Z</time>
      </trkpt>
      <trkpt lat="42.89849" lon="0.12803">
        <ele>2033</ele>
        <time>2015-05-24T09:56:17Z</time>
      </trkpt>
      <trkpt lat="42.89847" lon="0.12805">
        <ele>2032</ele>
        <time>2015-05-24T09:56:38Z</time>
      </trkpt>
      <trkpt lat="42.89849" lon="0.1281">
        <ele>2033</ele>
        <time>2015-05-24T09:57:00Z</time>
      </trkpt>
      <trkpt lat="42.89849" lon="0.12815">
        <ele>2032</ele>
        <time>2015-05-24T09:57:26Z</time>
      </trkpt>
      <trkpt lat="42.89845" lon="0.12805">
        <ele>2032</ele>
        <time>2015-05-24T09:57:57Z</time>
      </trkpt>
      <trkpt lat="42.89845" lon="0.12805">
        <ele>2033</ele>
        <time>2015-05-24T09:58:19Z</time>
      </trkpt>
      <trkpt lat="42.89849" lon="0.128">
        <ele>2032</ele>
        <time>2015-05-24T09:58:42Z</time>
      </trkpt>
      <trkpt lat="42.8985" lon="0.128">
        <ele>2032</ele>
        <time>2015-05-24T09:59:03Z</time>
      </trkpt>
      <trkpt lat="42.89858" lon="0.1281">
        <ele>2032</ele>
        <time>2015-05-24T09:59:30Z</time>
      </trkpt>
      <trkpt lat="42.89854" lon="0.12803">
        <ele>2032</ele>
        <time>2015-05-24T09:59:54Z</time>
      </trkpt>
      <trkpt lat="42.89848" lon="0.12795">
        <ele>2031</ele>
        <time>2015-05-24T10:00:23Z</time>
      </trkpt>
      <trkpt lat="42.89845" lon="0.12802">
        <ele>2032</ele>
        <time>2015-05-24T10:00:51Z</time>
      </trkpt>
      <trkpt lat="42.89847" lon="0.12804">
        <ele>2032</ele>
        <time>2015-05-24T10:01:16Z</time>
      </trkpt>
      <trkpt lat="42.89854" lon="0.12806">
        <ele>2032</ele>
        <time>2015-05-24T10:01:40Z</time>
      </trkpt>
      <trkpt lat="42.8985" lon="0.12801">
        <ele>2032</ele>
        <time>2015-05-24T10:02:03Z</time>
      </trkpt>
      <trkpt lat="42.89848" lon="0.12802">
        <ele>2032</ele>
        <time>2015-05-24T10:02:28Z</time>
      </trkpt>
      <trkpt lat="42.89841" lon="0.12796">
        <ele>2032</ele>
        <time>2015-05-24T10:02:55Z</time>
      </trkpt>
      <trkpt lat="42.89851" lon="0.12805">
        <ele>2031</ele>
        <time>2015-05-24T10:03:28Z</time>
      </trkpt>
      <trkpt lat="42.89857" lon="0.12809">
        <ele>2031</ele>
        <time>2015-05-24T10:04:01Z</time>
      </trkpt>
      <trkpt lat="42.89837" lon="0.12804">
        <ele>2032</ele>
        <time>2015-05-24T10:04:23Z</time>
      </trkpt>
      <trkpt lat="42.89841" lon="0.12807">
        <ele>2032</ele>
        <time>2015-05-24T10:04:48Z</time>
      </trkpt>
      <trkpt lat="42.89837" lon="0.128">
        <ele>2032</ele>
        <time>2015-05-24T10:05:02Z</time>
      </trkpt>
      <trkpt lat="42.89835" lon="0.12794">
        <ele>2034</ele>
        <time>2015-05-24T10:05:16Z</time>
      </trkpt>
      <trkpt lat="42.89831" lon="0.12792">
        <ele>2034</ele>
        <time>2015-05-24T10:05:30Z</time>
      </trkpt>
      <trkpt lat="42.89827" lon="0.12783">
        <ele>2036</ele>
        <time>2015-05-24T10:05:46Z</time>
      </trkpt>
      <trkpt lat="42.89825" lon="0.12772">
        <ele>2038</ele>
        <time>2015-05-24T10:05:59Z</time>
      </trkpt>
      <trkpt lat="42.89823" lon="0.12766">
        <ele>2040</ele>
        <time>2015-05-24T10:06:11Z</time>
      </trkpt>
      <trkpt lat="42.89818" lon="0.1276">
        <ele>2041</ele>
        <time>2015-05-24T10:06:24Z</time>
      </trkpt>
      <trkpt lat="42.89817" lon="0.12754">
        <ele>2043</ele>
        <time>2015-05-24T10:06:39Z</time>
      </trkpt>
      <trkpt lat="42.89813" lon="0.12746">
        <ele>2045</ele>
        <time>2015-05-24T10:06:54Z</time>
      </trkpt>
      <trkpt lat="42.89811" lon="0.1274">
        <ele>2048</ele>
        <time>2015-05-24T10:07:08Z</time>
      </trkpt>
      <trkpt lat="42.89805" lon="0.1273">
        <ele>2050</ele>
        <time>2015-05-24T10:07:22Z</time>
      </trkpt>
      <trkpt lat="42.89805" lon="0.1272">
        <ele>2052</ele>
        <time>2015-05-24T10:07:37Z</time>
      </trkpt>
      <trkpt lat="42.898" lon="0.1271">
        <ele>2054</ele>
        <time>2015-05-24T10:07:50Z</time>
      </trkpt>
      <trkpt lat="42.89796" lon="0.12702">
        <ele>2057</ele>
        <time>2015-05-24T10:08:02Z</time>
      </trkpt>
      <trkpt lat="42.89793" lon="0.12703">
        <ele>2058</ele>
        <time>2015-05-24T10:08:15Z</time>
      </trkpt>
      <trkpt lat="42.89791" lon="0.12692">
        <ele>2059</ele>
        <time>2015-05-24T10:08:32Z</time>
      </trkpt>
      <trkpt lat="42.8979" lon="0.12688">
        <ele>2061</ele>
        <time>2015-05-24T10:08:47Z</time>
      </trkpt>
      <trkpt lat="42.89786" lon="0.12678">
        <ele>2063</ele>
        <time>2015-05-24T10:09:02Z</time>
      </trkpt>
      <trkpt lat="42.89785" lon="0.12671">
        <ele>2065</ele>
        <time>2015-05-24T10:09:13Z</time>
      </trkpt>
      <trkpt lat="42.89786" lon="0.12664">
        <ele>2067</ele>
        <time>2015-05-24T10:09:26Z</time>
      </trkpt>
      <trkpt lat="42.89787" lon="0.12659">
        <ele>2068</ele>
        <time>2015-05-24T10:09:38Z</time>
      </trkpt>
      <trkpt lat="42.89781" lon="0.12646">
        <ele>2070</ele>
        <time>2015-05-24T10:09:52Z</time>
      </trkpt>
      <trkpt lat="42.89784" lon="0.12634">
        <ele>2073</ele>
        <time>2015-05-24T10:10:07Z</time>
      </trkpt>
      <trkpt lat="42.89785" lon="0.12624">
        <ele>2075</ele>
        <time>2015-05-24T10:10:21Z</time>
      </trkpt>
      <trkpt lat="42.89783" lon="0.12617">
        <ele>2077</ele>
        <time>2015-05-24T10:10:35Z</time>
      </trkpt>
      <trkpt lat="42.89783" lon="0.12609">
        <ele>2078</ele>
        <time>2015-05-24T10:10:50Z</time>
      </trkpt>
      <trkpt lat="42.8978" lon="0.12614">
        <ele>2078</ele>
        <time>2015-05-24T10:11:04Z</time>
      </trkpt>
      <trkpt lat="42.89776" lon="0.1262">
        <ele>2079</ele>
        <time>2015-05-24T10:11:17Z</time>
      </trkpt>
      <trkpt lat="42.89768" lon="0.12624">
        <ele>2080</ele>
        <time>2015-05-24T10:11:29Z</time>
      </trkpt>
      <trkpt lat="42.89767" lon="0.12624">
        <ele>2081</ele>
        <time>2015-05-24T10:11:31Z</time>
      </trkpt>
      <trkpt lat="42.89764" lon="0.12624">
        <ele>2081</ele>
        <time>2015-05-24T10:11:34Z</time>
      </trkpt>
      <trkpt lat="42.89761" lon="0.12634">
        <ele>2083</ele>
        <time>2015-05-24T10:11:49Z</time>
      </trkpt>
      <trkpt lat="42.89758" lon="0.1264">
        <ele>2086</ele>
        <time>2015-05-24T10:12:03Z</time>
      </trkpt>
      <trkpt lat="42.89755" lon="0.12644">
        <ele>2088</ele>
        <time>2015-05-24T10:12:15Z</time>
      </trkpt>
      <trkpt lat="42.89751" lon="0.12649">
        <ele>2089</ele>
        <time>2015-05-24T10:12:22Z</time>
      </trkpt>
      <trkpt lat="42.89751" lon="0.12645">
        <ele>2091</ele>
        <time>2015-05-24T10:12:34Z</time>
      </trkpt>
      <trkpt lat="42.89746" lon="0.12635">
        <ele>2092</ele>
        <time>2015-05-24T10:12:50Z</time>
      </trkpt>
      <trkpt lat="42.89742" lon="0.12629">
        <ele>2094</ele>
        <time>2015-05-24T10:13:05Z</time>
      </trkpt>
      <trkpt lat="42.89739" lon="0.12616">
        <ele>2096</ele>
        <time>2015-05-24T10:13:18Z</time>
      </trkpt>
      <trkpt lat="42.8974" lon="0.12603">
        <ele>2099</ele>
        <time>2015-05-24T10:13:36Z</time>
      </trkpt>
      <trkpt lat="42.89737" lon="0.12591">
        <ele>2101</ele>
        <time>2015-05-24T10:13:52Z</time>
      </trkpt>
      <trkpt lat="42.89734" lon="0.12579">
        <ele>2104</ele>
        <time>2015-05-24T10:14:07Z</time>
      </trkpt>
      <trkpt lat="42.89733" lon="0.12573">
        <ele>2105</ele>
        <time>2015-05-24T10:14:20Z</time>
      </trkpt>
      <trkpt lat="42.89737" lon="0.12586">
        <ele>2106</ele>
        <time>2015-05-24T10:14:38Z</time>
      </trkpt>
      <trkpt lat="42.89731" lon="0.12598">
        <ele>2107</ele>
        <time>2015-05-24T10:15:00Z</time>
      </trkpt>
      <trkpt lat="42.89728" lon="0.12598">
        <ele>2109</ele>
        <time>2015-05-24T10:15:12Z</time>
      </trkpt>
      <trkpt lat="42.89725" lon="0.12598">
        <ele>2109</ele>
        <time>2015-05-24T10:15:15Z</time>
      </trkpt>
      <trkpt lat="42.89717" lon="0.12606">
        <ele>2111</ele>
        <time>2015-05-24T10:15:29Z</time>
      </trkpt>
      <trkpt lat="42.8971" lon="0.12605">
        <ele>2113</ele>
        <time>2015-05-24T10:15:43Z</time>
      </trkpt>
      <trkpt lat="42.89705" lon="0.12607">
        <ele>2115</ele>
        <time>2015-05-24T10:15:58Z</time>
      </trkpt>
      <trkpt lat="42.89701" lon="0.12613">
        <ele>2117</ele>
        <time>2015-05-24T10:16:10Z</time>
      </trkpt>
      <trkpt lat="42.89699" lon="0.1262">
        <ele>2119</ele>
        <time>2015-05-24T10:16:23Z</time>
      </trkpt>
      <trkpt lat="42.89697" lon="0.12628">
        <ele>2122</ele>
        <time>2015-05-24T10:16:34Z</time>
      </trkpt>
      <trkpt lat="42.89697" lon="0.12619">
        <ele>2123</ele>
        <time>2015-05-24T10:16:48Z</time>
      </trkpt>
      <trkpt lat="42.89694" lon="0.12607">
        <ele>2125</ele>
        <time>2015-05-24T10:17:06Z</time>
      </trkpt>
      <trkpt lat="42.89692" lon="0.12597">
        <ele>2127</ele>
        <time>2015-05-24T10:17:19Z</time>
      </trkpt>
      <trkpt lat="42.89687" lon="0.12586">
        <ele>2129</ele>
        <time>2015-05-24T10:17:34Z</time>
      </trkpt>
      <trkpt lat="42.89691" lon="0.12575">
        <ele>2131</ele>
        <time>2015-05-24T10:17:52Z</time>
      </trkpt>
      <trkpt lat="42.89688" lon="0.12564">
        <ele>2133</ele>
        <time>2015-05-24T10:18:06Z</time>
      </trkpt>
      <trkpt lat="42.89689" lon="0.12563">
        <ele>2134</ele>
        <time>2015-05-24T10:18:08Z</time>
      </trkpt>
      <trkpt lat="42.89689" lon="0.12552">
        <ele>2136</ele>
        <time>2015-05-24T10:18:22Z</time>
      </trkpt>
      <trkpt lat="42.89685" lon="0.12563">
        <ele>2138</ele>
        <time>2015-05-24T10:18:34Z</time>
      </trkpt>
      <trkpt lat="42.89684" lon="0.12566">
        <ele>2139</ele>
        <time>2015-05-24T10:18:40Z</time>
      </trkpt>
      <trkpt lat="42.89679" lon="0.12572">
        <ele>2141</ele>
        <time>2015-05-24T10:18:51Z</time>
      </trkpt>
      <trkpt lat="42.89676" lon="0.12574">
        <ele>2142</ele>
        <time>2015-05-24T10:18:57Z</time>
      </trkpt>
      <trkpt lat="42.89666" lon="0.12582">
        <ele>2144</ele>
        <time>2015-05-24T10:19:11Z</time>
      </trkpt>
      <trkpt lat="42.89659" lon="0.12585">
        <ele>2145</ele>
        <time>2015-05-24T10:19:22Z</time>
      </trkpt>
      <trkpt lat="42.89656" lon="0.12592">
        <ele>2148</ele>
        <time>2015-05-24T10:19:38Z</time>
      </trkpt>
      <trkpt lat="42.89655" lon="0.12596">
        <ele>2150</ele>
        <time>2015-05-24T10:19:56Z</time>
      </trkpt>
      <trkpt lat="42.89654" lon="0.12588">
        <ele>2151</ele>
        <time>2015-05-24T10:20:05Z</time>
      </trkpt>
      <trkpt lat="42.89651" lon="0.12577">
        <ele>2153</ele>
        <time>2015-05-24T10:20:18Z</time>
      </trkpt>
      <trkpt lat="42.89651" lon="0.12575">
        <ele>2153</ele>
        <time>2015-05-24T10:20:21Z</time>
      </trkpt>
      <trkpt lat="42.89651" lon="0.12567">
        <ele>2155</ele>
        <time>2015-05-24T10:20:33Z</time>
      </trkpt>
      <trkpt lat="42.89652" lon="0.12556">
        <ele>2157</ele>
        <time>2015-05-24T10:20:47Z</time>
      </trkpt>
      <trkpt lat="42.89654" lon="0.12546">
        <ele>2160</ele>
        <time>2015-05-24T10:21:02Z</time>
      </trkpt>
      <trkpt lat="42.8965" lon="0.12535">
        <ele>2161</ele>
        <time>2015-05-24T10:21:17Z</time>
      </trkpt>
      <trkpt lat="42.89652" lon="0.12526">
        <ele>2164</ele>
        <time>2015-05-24T10:21:31Z</time>
      </trkpt>
      <trkpt lat="42.89648" lon="0.12535">
        <ele>2165</ele>
        <time>2015-05-24T10:21:43Z</time>
      </trkpt>
      <trkpt lat="42.89642" lon="0.12539">
        <ele>2166</ele>
        <time>2015-05-24T10:21:54Z</time>
      </trkpt>
      <trkpt lat="42.89635" lon="0.12547">
        <ele>2167</ele>
        <time>2015-05-24T10:22:04Z</time>
      </trkpt>
      <trkpt lat="42.89629" lon="0.12555">
        <ele>2170</ele>
        <time>2015-05-24T10:22:18Z</time>
      </trkpt>
      <trkpt lat="42.89624" lon="0.12561">
        <ele>2172</ele>
        <time>2015-05-24T10:22:32Z</time>
      </trkpt>
      <trkpt lat="42.89618" lon="0.12568">
        <ele>2174</ele>
        <time>2015-05-24T10:22:46Z</time>
      </trkpt>
      <trkpt lat="42.89617" lon="0.12568">
        <ele>2176</ele>
        <time>2015-05-24T10:22:58Z</time>
      </trkpt>
      <trkpt lat="42.89617" lon="0.12568">
        <ele>2177</ele>
        <time>2015-05-24T10:23:12Z</time>
      </trkpt>
      <trkpt lat="42.89616" lon="0.12562">
        <ele>2177</ele>
        <time>2015-05-24T10:23:19Z</time>
      </trkpt>
      <trkpt lat="42.89616" lon="0.1255">
        <ele>2179</ele>
        <time>2015-05-24T10:23:31Z</time>
      </trkpt>
      <trkpt lat="42.89615" lon="0.12539">
        <ele>2182</ele>
        <time>2015-05-24T10:23:45Z</time>
      </trkpt>
      <trkpt lat="42.89612" lon="0.1253">
        <ele>2183</ele>
        <time>2015-05-24T10:23:59Z</time>
      </trkpt>
      <trkpt lat="42.89611" lon="0.12526">
        <ele>2185</ele>
        <time>2015-05-24T10:24:12Z</time>
      </trkpt>
      <trkpt lat="42.89614" lon="0.12521">
        <ele>2186</ele>
        <time>2015-05-24T10:24:23Z</time>
      </trkpt>
      <trkpt lat="42.89618" lon="0.12512">
        <ele>2189</ele>
        <time>2015-05-24T10:24:37Z</time>
      </trkpt>
      <trkpt lat="42.89616" lon="0.12506">
        <ele>2191</ele>
        <time>2015-05-24T10:24:53Z</time>
      </trkpt>
      <trkpt lat="42.89616" lon="0.125">
        <ele>2193</ele>
        <time>2015-05-24T10:25:08Z</time>
      </trkpt>
      <trkpt lat="42.89614" lon="0.12502">
        <ele>2194</ele>
        <time>2015-05-24T10:25:24Z</time>
      </trkpt>
      <trkpt lat="42.89612" lon="0.12504">
        <ele>2194</ele>
        <time>2015-05-24T10:25:33Z</time>
      </trkpt>
      <trkpt lat="42.89607" lon="0.1251">
        <ele>2195</ele>
        <time>2015-05-24T10:25:46Z</time>
      </trkpt>
      <trkpt lat="42.89602" lon="0.12517">
        <ele>2197</ele>
        <time>2015-05-24T10:25:59Z</time>
      </trkpt>
      <trkpt lat="42.89604" lon="0.12506">
        <ele>2198</ele>
        <time>2015-05-24T10:26:14Z</time>
      </trkpt>
      <trkpt lat="42.89603" lon="0.12494">
        <ele>2199</ele>
        <time>2015-05-24T10:26:30Z</time>
      </trkpt>
      <trkpt lat="42.89608" lon="0.12491">
        <ele>2200</ele>
        <time>2015-05-24T10:26:46Z</time>
      </trkpt>
      <trkpt lat="42.89608" lon="0.12487">
        <ele>2201</ele>
        <time>2015-05-24T10:26:59Z</time>
      </trkpt>
      <trkpt lat="42.89602" lon="0.12492">
        <ele>2202</ele>
        <time>2015-05-24T10:27:15Z</time>
      </trkpt>
      <trkpt lat="42.896" lon="0.12498">
        <ele>2204</ele>
        <time>2015-05-24T10:27:27Z</time>
      </trkpt>
      <trkpt lat="42.89595" lon="0.12503">
        <ele>2206</ele>
        <time>2015-05-24T10:27:42Z</time>
      </trkpt>
      <trkpt lat="42.89594" lon="0.12505">
        <ele>2207</ele>
        <time>2015-05-24T10:27:47Z</time>
      </trkpt>
      <trkpt lat="42.89591" lon="0.12512">
        <ele>2208</ele>
        <time>2015-05-24T10:27:58Z</time>
      </trkpt>
      <trkpt lat="42.89592" lon="0.12504">
        <ele>2209</ele>
        <time>2015-05-24T10:28:12Z</time>
      </trkpt>
      <trkpt lat="42.8959" lon="0.12496">
        <ele>2210</ele>
        <time>2015-05-24T10:28:24Z</time>
      </trkpt>
      <trkpt lat="42.8959" lon="0.12488">
        <ele>2212</ele>
        <time>2015-05-24T10:28:36Z</time>
      </trkpt>
      <trkpt lat="42.89596" lon="0.12482">
        <ele>2214</ele>
        <time>2015-05-24T10:28:51Z</time>
      </trkpt>
      <trkpt lat="42.89591" lon="0.12494">
        <ele>2214</ele>
        <time>2015-05-24T10:29:07Z</time>
      </trkpt>
      <trkpt lat="42.89585" lon="0.12497">
        <ele>2216</ele>
        <time>2015-05-24T10:29:21Z</time>
      </trkpt>
      <trkpt lat="42.89581" lon="0.12504">
        <ele>2219</ele>
        <time>2015-05-24T10:29:36Z</time>
      </trkpt>
      <trkpt lat="42.89579" lon="0.12509">
        <ele>2221</ele>
        <time>2015-05-24T10:29:50Z</time>
      </trkpt>
      <trkpt lat="42.89577" lon="0.12499">
        <ele>2222</ele>
        <time>2015-05-24T10:30:06Z</time>
      </trkpt>
      <trkpt lat="42.89575" lon="0.12487">
        <ele>2223</ele>
        <time>2015-05-24T10:30:19Z</time>
      </trkpt>
      <trkpt lat="42.89574" lon="0.12481">
        <ele>2225</ele>
        <time>2015-05-24T10:30:32Z</time>
      </trkpt>
      <trkpt lat="42.89576" lon="0.12474">
        <ele>2227</ele>
        <time>2015-05-24T10:30:43Z</time>
      </trkpt>
      <trkpt lat="42.8958" lon="0.12469">
        <ele>2228</ele>
        <time>2015-05-24T10:30:55Z</time>
      </trkpt>
      <trkpt lat="42.89579" lon="0.12474">
        <ele>2229</ele>
        <time>2015-05-24T10:31:08Z</time>
      </trkpt>
      <trkpt lat="42.89576" lon="0.12478">
        <ele>2230</ele>
        <time>2015-05-24T10:31:26Z</time>
      </trkpt>
      <trkpt lat="42.8957" lon="0.12481">
        <ele>2231</ele>
        <time>2015-05-24T10:31:37Z</time>
      </trkpt>
      <trkpt lat="42.89568" lon="0.12482">
        <ele>2234</ele>
        <time>2015-05-24T10:31:49Z</time>
      </trkpt>
      <trkpt lat="42.89563" lon="0.12487">
        <ele>2236</ele>
        <time>2015-05-24T10:32:01Z</time>
      </trkpt>
      <trkpt lat="42.8956" lon="0.1249">
        <ele>2237</ele>
        <time>2015-05-24T10:32:08Z</time>
      </trkpt>
      <trkpt lat="42.89558" lon="0.12494">
        <ele>2240</ele>
        <time>2015-05-24T10:32:21Z</time>
      </trkpt>
      <trkpt lat="42.89555" lon="0.12481">
        <ele>2240</ele>
        <time>2015-05-24T10:32:35Z</time>
      </trkpt>
      <trkpt lat="42.89556" lon="0.12468">
        <ele>2243</ele>
        <time>2015-05-24T10:32:51Z</time>
      </trkpt>
      <trkpt lat="42.89554" lon="0.12461">
        <ele>2245</ele>
        <time>2015-05-24T10:33:03Z</time>
      </trkpt>
      <trkpt lat="42.89556" lon="0.12452">
        <ele>2247</ele>
        <time>2015-05-24T10:33:17Z</time>
      </trkpt>
      <trkpt lat="42.89558" lon="0.12448">
        <ele>2249</ele>
        <time>2015-05-24T10:33:30Z</time>
      </trkpt>
      <trkpt lat="42.89555" lon="0.12456">
        <ele>2249</ele>
        <time>2015-05-24T10:33:50Z</time>
      </trkpt>
      <trkpt lat="42.89551" lon="0.12462">
        <ele>2251</ele>
        <time>2015-05-24T10:34:03Z</time>
      </trkpt>
      <trkpt lat="42.89546" lon="0.12464">
        <ele>2252</ele>
        <time>2015-05-24T10:34:14Z</time>
      </trkpt>
      <trkpt lat="42.89544" lon="0.12469">
        <ele>2253</ele>
        <time>2015-05-24T10:34:24Z</time>
      </trkpt>
      <trkpt lat="42.8954" lon="0.12479">
        <ele>2255</ele>
        <time>2015-05-24T10:34:39Z</time>
      </trkpt>
      <trkpt lat="42.89541" lon="0.12477">
        <ele>2256</ele>
        <time>2015-05-24T10:34:59Z</time>
      </trkpt>
      <trkpt lat="42.89536" lon="0.12466">
        <ele>2257</ele>
        <time>2015-05-24T10:35:17Z</time>
      </trkpt>
      <trkpt lat="42.89535" lon="0.12464">
        <ele>2257</ele>
        <time>2015-05-24T10:35:37Z</time>
      </trkpt>
      <trkpt lat="42.89537" lon="0.12454">
        <ele>2260</ele>
        <time>2015-05-24T10:35:51Z</time>
      </trkpt>
      <trkpt lat="42.89542" lon="0.12448">
        <ele>2262</ele>
        <time>2015-05-24T10:36:02Z</time>
      </trkpt>
      <trkpt lat="42.89546" lon="0.1244">
        <ele>2264</ele>
        <time>2015-05-24T10:36:14Z</time>
      </trkpt>
      <trkpt lat="42.89542" lon="0.12446">
        <ele>2264</ele>
        <time>2015-05-24T10:36:28Z</time>
      </trkpt>
      <trkpt lat="42.89542" lon="0.1245">
        <ele>2264</ele>
        <time>2015-05-24T10:36:32Z</time>
      </trkpt>
      <trkpt lat="42.89536" lon="0.12453">
        <ele>2265</ele>
        <time>2015-05-24T10:36:44Z</time>
      </trkpt>
      <trkpt lat="42.89531" lon="0.12458">
        <ele>2267</ele>
        <time>2015-05-24T10:36:55Z</time>
      </trkpt>
      <trkpt lat="42.89527" lon="0.12462">
        <ele>2269</ele>
        <time>2015-05-24T10:37:11Z</time>
      </trkpt>
      <trkpt lat="42.89529" lon="0.12453">
        <ele>2269</ele>
        <time>2015-05-24T10:37:27Z</time>
      </trkpt>
      <trkpt lat="42.8953" lon="0.12444">
        <ele>2270</ele>
        <time>2015-05-24T10:37:42Z</time>
      </trkpt>
      <trkpt lat="42.8953" lon="0.12436">
        <ele>2274</ele>
        <time>2015-05-24T10:37:56Z</time>
      </trkpt>
      <trkpt lat="42.8953" lon="0.12437">
        <ele>2274</ele>
        <time>2015-05-24T10:38:10Z</time>
      </trkpt>
      <trkpt lat="42.89525" lon="0.12442">
        <ele>2277</ele>
        <time>2015-05-24T10:38:22Z</time>
      </trkpt>
      <trkpt lat="42.89525" lon="0.12442">
        <ele>2277</ele>
        <time>2015-05-24T10:38:23Z</time>
      </trkpt>
      <trkpt lat="42.89523" lon="0.12442">
        <ele>2277</ele>
        <time>2015-05-24T10:38:33Z</time>
      </trkpt>
      <trkpt lat="42.89519" lon="0.12444">
        <ele>2278</ele>
        <time>2015-05-24T10:38:45Z</time>
      </trkpt>
      <trkpt lat="42.8952" lon="0.12435">
        <ele>2279</ele>
        <time>2015-05-24T10:39:00Z</time>
      </trkpt>
      <trkpt lat="42.8952" lon="0.12429">
        <ele>2282</ele>
        <time>2015-05-24T10:39:13Z</time>
      </trkpt>
      <trkpt lat="42.89521" lon="0.12427">
        <ele>2283</ele>
        <time>2015-05-24T10:39:24Z</time>
      </trkpt>
      <trkpt lat="42.89518" lon="0.12433">
        <ele>2283</ele>
        <time>2015-05-24T10:39:41Z</time>
      </trkpt>
      <trkpt lat="42.89513" lon="0.12434">
        <ele>2285</ele>
        <time>2015-05-24T10:39:52Z</time>
      </trkpt>
      <trkpt lat="42.8951" lon="0.12436">
        <ele>2287</ele>
        <time>2015-05-24T10:40:06Z</time>
      </trkpt>
      <trkpt lat="42.89511" lon="0.12429">
        <ele>2287</ele>
        <time>2015-05-24T10:40:24Z</time>
      </trkpt>
      <trkpt lat="42.89514" lon="0.12422">
        <ele>2289</ele>
        <time>2015-05-24T10:40:40Z</time>
      </trkpt>
      <trkpt lat="42.89518" lon="0.12418">
        <ele>2290</ele>
        <time>2015-05-24T10:40:52Z</time>
      </trkpt>
      <trkpt lat="42.89516" lon="0.12422">
        <ele>2291</ele>
        <time>2015-05-24T10:41:09Z</time>
      </trkpt>
      <trkpt lat="42.89513" lon="0.12427">
        <ele>2292</ele>
        <time>2015-05-24T10:41:24Z</time>
      </trkpt>
      <trkpt lat="42.89508" lon="0.12428">
        <ele>2293</ele>
        <time>2015-05-24T10:41:34Z</time>
      </trkpt>
      <trkpt lat="42.89503" lon="0.12428">
        <ele>2296</ele>
        <time>2015-05-24T10:41:47Z</time>
      </trkpt>
      <trkpt lat="42.89499" lon="0.12434">
        <ele>2298</ele>
        <time>2015-05-24T10:42:02Z</time>
      </trkpt>
      <trkpt lat="42.89495" lon="0.12436">
        <ele>2298</ele>
        <time>2015-05-24T10:42:20Z</time>
      </trkpt>
      <trkpt lat="42.89496" lon="0.12428">
        <ele>2298</ele>
        <time>2015-05-24T10:42:42Z</time>
      </trkpt>
      <trkpt lat="42.89495" lon="0.12422">
        <ele>2300</ele>
        <time>2015-05-24T10:42:56Z</time>
      </trkpt>
      <trkpt lat="42.89495" lon="0.12428">
        <ele>2301</ele>
        <time>2015-05-24T10:43:09Z</time>
      </trkpt>
      <trkpt lat="42.89494" lon="0.12432">
        <ele>2302</ele>
        <time>2015-05-24T10:43:24Z</time>
      </trkpt>
      <trkpt lat="42.89494" lon="0.12433">
        <ele>2302</ele>
        <time>2015-05-24T10:43:40Z</time>
      </trkpt>
      <trkpt lat="42.8949" lon="0.12436">
        <ele>2303</ele>
        <time>2015-05-24T10:43:54Z</time>
      </trkpt>
      <trkpt lat="42.89488" lon="0.12438">
        <ele>2304</ele>
        <time>2015-05-24T10:44:05Z</time>
      </trkpt>
      <trkpt lat="42.89489" lon="0.12434">
        <ele>2304</ele>
        <time>2015-05-24T10:44:18Z</time>
      </trkpt>
      <trkpt lat="42.89487" lon="0.12422">
        <ele>2306</ele>
        <time>2015-05-24T10:44:32Z</time>
      </trkpt>
      <trkpt lat="42.89487" lon="0.12419">
        <ele>2308</ele>
        <time>2015-05-24T10:44:37Z</time>
      </trkpt>
      <trkpt lat="42.89487" lon="0.12421">
        <ele>2308</ele>
        <time>2015-05-24T10:44:51Z</time>
      </trkpt>
      <trkpt lat="42.89484" lon="0.12427">
        <ele>2310</ele>
        <time>2015-05-24T10:45:02Z</time>
      </trkpt>
      <trkpt lat="42.89481" lon="0.12432">
        <ele>2311</ele>
        <time>2015-05-24T10:45:15Z</time>
      </trkpt>
      <trkpt lat="42.89479" lon="0.12435">
        <ele>2313</ele>
        <time>2015-05-24T10:45:25Z</time>
      </trkpt>
      <trkpt lat="42.89478" lon="0.12428">
        <ele>2314</ele>
        <time>2015-05-24T10:45:40Z</time>
      </trkpt>
      <trkpt lat="42.89477" lon="0.12416">
        <ele>2315</ele>
        <time>2015-05-24T10:45:54Z</time>
      </trkpt>
      <trkpt lat="42.89476" lon="0.1242">
        <ele>2316</ele>
        <time>2015-05-24T10:46:08Z</time>
      </trkpt>
      <trkpt lat="42.89473" lon="0.12426">
        <ele>2318</ele>
        <time>2015-05-24T10:46:19Z</time>
      </trkpt>
      <trkpt lat="42.89469" lon="0.12432">
        <ele>2321</ele>
        <time>2015-05-24T10:46:32Z</time>
      </trkpt>
      <trkpt lat="42.89467" lon="0.1242">
        <ele>2324</ele>
        <time>2015-05-24T10:46:50Z</time>
      </trkpt>
      <trkpt lat="42.89463" lon="0.12428">
        <ele>2325</ele>
        <time>2015-05-24T10:47:05Z</time>
      </trkpt>
      <trkpt lat="42.8946" lon="0.12431">
        <ele>2327</ele>
        <time>2015-05-24T10:47:19Z</time>
      </trkpt>
      <trkpt lat="42.89458" lon="0.12424">
        <ele>2327</ele>
        <time>2015-05-24T10:47:34Z</time>
      </trkpt>
      <trkpt lat="42.89459" lon="0.12423">
        <ele>2327</ele>
        <time>2015-05-24T10:48:00Z</time>
      </trkpt>
      <trkpt lat="42.89456" lon="0.12427">
        <ele>2329</ele>
        <time>2015-05-24T10:48:14Z</time>
      </trkpt>
      <trkpt lat="42.89455" lon="0.12433">
        <ele>2329</ele>
        <time>2015-05-24T10:48:33Z</time>
      </trkpt>
      <trkpt lat="42.89456" lon="0.12434">
        <ele>2329</ele>
        <time>2015-05-24T10:48:49Z</time>
      </trkpt>
      <trkpt lat="42.89457" lon="0.12431">
        <ele>2329</ele>
        <time>2015-05-24T10:49:08Z</time>
      </trkpt>
      <trkpt lat="42.89456" lon="0.1244">
        <ele>2330</ele>
        <time>2015-05-24T10:49:19Z</time>
      </trkpt>
      <trkpt lat="42.89458" lon="0.12439">
        <ele>2331</ele>
        <time>2015-05-24T10:49:39Z</time>
      </trkpt>
      <trkpt lat="42.89459" lon="0.12428">
        <ele>2329</ele>
        <time>2015-05-24T10:49:50Z</time>
      </trkpt>
      <trkpt lat="42.8946" lon="0.12417">
        <ele>2331</ele>
        <time>2015-05-24T10:50:01Z</time>
      </trkpt>
      <trkpt lat="42.89459" lon="0.12421">
        <ele>2331</ele>
        <time>2015-05-24T10:50:16Z</time>
      </trkpt>
      <trkpt lat="42.89459" lon="0.12422">
        <ele>2331</ele>
        <time>2015-05-24T10:50:17Z</time>
      </trkpt>
      <trkpt lat="42.89458" lon="0.12424">
        <ele>2330</ele>
        <time>2015-05-24T10:50:20Z</time>
      </trkpt>
      <trkpt lat="42.89459" lon="0.1243">
        <ele>2328</ele>
        <time>2015-05-24T10:50:33Z</time>
      </trkpt>
      <trkpt lat="42.89459" lon="0.1243">
        <ele>2329</ele>
        <time>2015-05-24T10:50:47Z</time>
      </trkpt>
      <trkpt lat="42.89458" lon="0.12431">
        <ele>2329</ele>
        <time>2015-05-24T10:51:05Z</time>
      </trkpt>
      <trkpt lat="42.89459" lon="0.12431">
        <ele>2329</ele>
        <time>2015-05-24T10:51:23Z</time>
      </trkpt>
      <trkpt lat="42.8946" lon="0.12432">
        <ele>2328</ele>
        <time>2015-05-24T10:51:42Z</time>
      </trkpt>
      <trkpt lat="42.89458" lon="0.12431">
        <ele>2328</ele>
        <time>2015-05-24T10:52:09Z</time>
      </trkpt>
      <trkpt lat="42.89458" lon="0.1243">
        <ele>2328</ele>
        <time>2015-05-24T10:52:32Z</time>
      </trkpt>
      <trkpt lat="42.89462" lon="0.12431">
        <ele>2328</ele>
        <time>2015-05-24T10:52:49Z</time>
      </trkpt>
      <trkpt lat="42.89464" lon="0.12431">
        <ele>2329</ele>
        <time>2015-05-24T10:53:04Z</time>
      </trkpt>
      <trkpt lat="42.89461" lon="0.12431">
        <ele>2328</ele>
        <time>2015-05-24T10:53:22Z</time>
      </trkpt>
      <trkpt lat="42.8946" lon="0.12428">
        <ele>2328</ele>
        <time>2015-05-24T10:53:40Z</time>
      </trkpt>
      <trkpt lat="42.89458" lon="0.12428">
        <ele>2328</ele>
        <time>2015-05-24T10:53:57Z</time>
      </trkpt>
      <trkpt lat="42.89458" lon="0.1243">
        <ele>2329</ele>
        <time>2015-05-24T10:54:22Z</time>
      </trkpt>
      <trkpt lat="42.89458" lon="0.12428">
        <ele>2328</ele>
        <time>2015-05-24T10:54:49Z</time>
      </trkpt>
      <trkpt lat="42.89459" lon="0.12427">
        <ele>2328</ele>
        <time>2015-05-24T10:55:06Z</time>
      </trkpt>
      <trkpt lat="42.89459" lon="0.12429">
        <ele>2328</ele>
        <time>2015-05-24T10:55:28Z</time>
      </trkpt>
      <trkpt lat="42.89461" lon="0.12426">
        <ele>2328</ele>
        <time>2015-05-24T10:55:53Z</time>
      </trkpt>
      <trkpt lat="42.89463" lon="0.12427">
        <ele>2328</ele>
        <time>2015-05-24T10:56:13Z</time>
      </trkpt>
      <trkpt lat="42.89459" lon="0.12431">
        <ele>2328</ele>
        <time>2015-05-24T10:56:39Z</time>
      </trkpt>
      <trkpt lat="42.89459" lon="0.12429">
        <ele>2328</ele>
        <time>2015-05-24T10:57:02Z</time>
      </trkpt>
      <trkpt lat="42.89459" lon="0.12429">
        <ele>2328</ele>
        <time>2015-05-24T10:57:20Z</time>
      </trkpt>
      <trkpt lat="42.89459" lon="0.1243">
        <ele>2328</ele>
        <time>2015-05-24T10:57:41Z</time>
      </trkpt>
      <trkpt lat="42.89459" lon="0.12428">
        <ele>2328</ele>
        <time>2015-05-24T10:58:01Z</time>
      </trkpt>
      <trkpt lat="42.89458" lon="0.12429">
        <ele>2328</ele>
        <time>2015-05-24T10:58:19Z</time>
      </trkpt>
      <trkpt lat="42.8946" lon="0.1243">
        <ele>2328</ele>
        <time>2015-05-24T10:58:36Z</time>
      </trkpt>
      <trkpt lat="42.89458" lon="0.1243">
        <ele>2328</ele>
        <time>2015-05-24T10:58:54Z</time>
      </trkpt>
      <trkpt lat="42.89459" lon="0.12427">
        <ele>2328</ele>
        <time>2015-05-24T10:59:11Z</time>
      </trkpt>
      <trkpt lat="42.89458" lon="0.1243">
        <ele>2327</ele>
        <time>2015-05-24T10:59:38Z</time>
      </trkpt>
      <trkpt lat="42.89458" lon="0.12429">
        <ele>2328</ele>
        <time>2015-05-24T10:59:58Z</time>
      </trkpt>
      <trkpt lat="42.89457" lon="0.12428">
        <ele>2328</ele>
        <time>2015-05-24T11:00:27Z</time>
      </trkpt>
      <trkpt lat="42.89457" lon="0.12426">
        <ele>2328</ele>
        <time>2015-05-24T11:00:46Z</time>
      </trkpt>
      <trkpt lat="42.89457" lon="0.12427">
        <ele>2328</ele>
        <time>2015-05-24T11:01:08Z</time>
      </trkpt>
      <trkpt lat="42.89459" lon="0.12428">
        <ele>2328</ele>
        <time>2015-05-24T11:01:24Z</time>
      </trkpt>
      <trkpt lat="42.89462" lon="0.1243">
        <ele>2327</ele>
        <time>2015-05-24T11:01:39Z</time>
      </trkpt>
      <trkpt lat="42.8946" lon="0.12428">
        <ele>2326</ele>
        <time>2015-05-24T11:02:00Z</time>
      </trkpt>
      <trkpt lat="42.89461" lon="0.1243">
        <ele>2327</ele>
        <time>2015-05-24T11:02:16Z</time>
      </trkpt>
      <trkpt lat="42.89461" lon="0.12427">
        <ele>2325</ele>
        <time>2015-05-24T11:02:35Z</time>
      </trkpt>
      <trkpt lat="42.89461" lon="0.12425">
        <ele>2327</ele>
        <time>2015-05-24T11:02:39Z</time>
      </trkpt>
      <trkpt lat="42.89468" lon="0.12424">
        <ele>2323</ele>
        <time>2015-05-24T11:02:44Z</time>
      </trkpt>
      <trkpt lat="42.89475" lon="0.12427">
        <ele>2317</ele>
        <time>2015-05-24T11:02:47Z</time>
      </trkpt>
      <trkpt lat="42.89483" lon="0.1243">
        <ele>2313</ele>
        <time>2015-05-24T11:02:51Z</time>
      </trkpt>
      <trkpt lat="42.89487" lon="0.12435">
        <ele>2309</ele>
        <time>2015-05-24T11:02:53Z</time>
      </trkpt>
      <trkpt lat="42.89491" lon="0.12432">
        <ele>2305</ele>
        <time>2015-05-24T11:02:55Z</time>
      </trkpt>
      <trkpt lat="42.89492" lon="0.12429">
        <ele>2304</ele>
        <time>2015-05-24T11:03:07Z</time>
      </trkpt>
      <trkpt lat="42.8949" lon="0.12428">
        <ele>2304</ele>
        <time>2015-05-24T11:03:25Z</time>
      </trkpt>
      <trkpt lat="42.89492" lon="0.12432">
        <ele>2303</ele>
        <time>2015-05-24T11:03:44Z</time>
      </trkpt>
      <trkpt lat="42.89493" lon="0.12439">
        <ele>2301</ele>
        <time>2015-05-24T11:04:03Z</time>
      </trkpt>
      <trkpt lat="42.89499" lon="0.12435">
        <ele>2299</ele>
        <time>2015-05-24T11:04:21Z</time>
      </trkpt>
      <trkpt lat="42.89501" lon="0.12431">
        <ele>2295</ele>
        <time>2015-05-24T11:04:36Z</time>
      </trkpt>
      <trkpt lat="42.89501" lon="0.1243">
        <ele>2295</ele>
        <time>2015-05-24T11:04:37Z</time>
      </trkpt>
      <trkpt lat="42.89501" lon="0.12442">
        <ele>2294</ele>
        <time>2015-05-24T11:04:51Z</time>
      </trkpt>
      <trkpt lat="42.89507" lon="0.12434">
        <ele>2292</ele>
        <time>2015-05-24T11:05:02Z</time>
      </trkpt>
      <trkpt lat="42.89511" lon="0.12433">
        <ele>2289</ele>
        <time>2015-05-24T11:05:11Z</time>
      </trkpt>
      <trkpt lat="42.89513" lon="0.1243">
        <ele>2287</ele>
        <time>2015-05-24T11:05:26Z</time>
      </trkpt>
      <trkpt lat="42.89513" lon="0.12431">
        <ele>2286</ele>
        <time>2015-05-24T11:05:43Z</time>
      </trkpt>
      <trkpt lat="42.89514" lon="0.12427">
        <ele>2286</ele>
        <time>2015-05-24T11:06:03Z</time>
      </trkpt>
      <trkpt lat="42.89513" lon="0.12427">
        <ele>2287</ele>
        <time>2015-05-24T11:06:17Z</time>
      </trkpt>
      <trkpt lat="42.89513" lon="0.12424">
        <ele>2285</ele>
        <time>2015-05-24T11:06:26Z</time>
      </trkpt>
      <trkpt lat="42.89517" lon="0.12425">
        <ele>2285</ele>
        <time>2015-05-24T11:06:31Z</time>
      </trkpt>
      <trkpt lat="42.8952" lon="0.12424">
        <ele>2283</ele>
        <time>2015-05-24T11:06:34Z</time>
      </trkpt>
      <trkpt lat="42.89522" lon="0.12424">
        <ele>2281</ele>
        <time>2015-05-24T11:06:37Z</time>
      </trkpt>
      <trkpt lat="42.89526" lon="0.12438">
        <ele>2277</ele>
        <time>2015-05-24T11:06:42Z</time>
      </trkpt>
      <trkpt lat="42.89527" lon="0.12444">
        <ele>2276</ele>
        <time>2015-05-24T11:06:44Z</time>
      </trkpt>
      <trkpt lat="42.89533" lon="0.12444">
        <ele>2271</ele>
        <time>2015-05-24T11:06:47Z</time>
      </trkpt>
      <trkpt lat="42.89539" lon="0.12442">
        <ele>2268</ele>
        <time>2015-05-24T11:06:49Z</time>
      </trkpt>
      <trkpt lat="42.89549" lon="0.12447">
        <ele>2264</ele>
        <time>2015-05-24T11:06:52Z</time>
      </trkpt>
      <trkpt lat="42.89552" lon="0.1245">
        <ele>2262</ele>
        <time>2015-05-24T11:06:53Z</time>
      </trkpt>
      <trkpt lat="42.89553" lon="0.12452">
        <ele>2262</ele>
        <time>2015-05-24T11:06:54Z</time>
      </trkpt>
      <trkpt lat="42.89558" lon="0.12453">
        <ele>2260</ele>
        <time>2015-05-24T11:06:55Z</time>
      </trkpt>
      <trkpt lat="42.89564" lon="0.12452">
        <ele>2256</ele>
        <time>2015-05-24T11:06:57Z</time>
      </trkpt>
      <trkpt lat="42.89567" lon="0.1245">
        <ele>2255</ele>
        <time>2015-05-24T11:06:58Z</time>
      </trkpt>
      <trkpt lat="42.89573" lon="0.12457">
        <ele>2252</ele>
        <time>2015-05-24T11:07:00Z</time>
      </trkpt>
      <trkpt lat="42.89578" lon="0.12462">
        <ele>2249</ele>
        <time>2015-05-24T11:07:02Z</time>
      </trkpt>
      <trkpt lat="42.89581" lon="0.12464">
        <ele>2245</ele>
        <time>2015-05-24T11:07:03Z</time>
      </trkpt>
      <trkpt lat="42.89583" lon="0.12469">
        <ele>2243</ele>
        <time>2015-05-24T11:07:04Z</time>
      </trkpt>
      <trkpt lat="42.89585" lon="0.1248">
        <ele>2239</ele>
        <time>2015-05-24T11:07:06Z</time>
      </trkpt>
      <trkpt lat="42.89586" lon="0.12489">
        <ele>2236</ele>
        <time>2015-05-24T11:07:08Z</time>
      </trkpt>
      <trkpt lat="42.89588" lon="0.12491">
        <ele>2232</ele>
        <time>2015-05-24T11:07:10Z</time>
      </trkpt>
      <trkpt lat="42.89597" lon="0.12505">
        <ele>2226</ele>
        <time>2015-05-24T11:07:14Z</time>
      </trkpt>
      <trkpt lat="42.896" lon="0.12514">
        <ele>2223</ele>
        <time>2015-05-24T11:07:16Z</time>
      </trkpt>
      <trkpt lat="42.89602" lon="0.12518">
        <ele>2220</ele>
        <time>2015-05-24T11:07:17Z</time>
      </trkpt>
      <trkpt lat="42.89604" lon="0.12523">
        <ele>2218</ele>
        <time>2015-05-24T11:07:18Z</time>
      </trkpt>
      <trkpt lat="42.89609" lon="0.12519">
        <ele>2216</ele>
        <time>2015-05-24T11:07:20Z</time>
      </trkpt>
      <trkpt lat="42.89616" lon="0.12519">
        <ele>2212</ele>
        <time>2015-05-24T11:07:22Z</time>
      </trkpt>
      <trkpt lat="42.89622" lon="0.1252">
        <ele>2208</ele>
        <time>2015-05-24T11:07:24Z</time>
      </trkpt>
      <trkpt lat="42.89626" lon="0.12519">
        <ele>2204</ele>
        <time>2015-05-24T11:07:26Z</time>
      </trkpt>
      <trkpt lat="42.89627" lon="0.12519">
        <ele>2203</ele>
        <time>2015-05-24T11:07:27Z</time>
      </trkpt>
      <trkpt lat="42.8963" lon="0.12515">
        <ele>2201</ele>
        <time>2015-05-24T11:07:28Z</time>
      </trkpt>
      <trkpt lat="42.89634" lon="0.12514">
        <ele>2200</ele>
        <time>2015-05-24T11:07:29Z</time>
      </trkpt>
      <trkpt lat="42.89637" lon="0.12516">
        <ele>2199</ele>
        <time>2015-05-24T11:07:30Z</time>
      </trkpt>
      <trkpt lat="42.8964" lon="0.1252">
        <ele>2196</ele>
        <time>2015-05-24T11:07:32Z</time>
      </trkpt>
      <trkpt lat="42.89641" lon="0.12522">
        <ele>2192</ele>
        <time>2015-05-24T11:07:34Z</time>
      </trkpt>
      <trkpt lat="42.8965" lon="0.1253">
        <ele>2187</ele>
        <time>2015-05-24T11:07:37Z</time>
      </trkpt>
      <trkpt lat="42.89654" lon="0.12533">
        <ele>2186</ele>
        <time>2015-05-24T11:07:38Z</time>
      </trkpt>
      <trkpt lat="42.89656" lon="0.12541">
        <ele>2184</ele>
        <time>2015-05-24T11:07:40Z</time>
      </trkpt>
      <trkpt lat="42.89644" lon="0.12575">
        <ele>2182</ele>
        <time>2015-05-24T11:07:52Z</time>
      </trkpt>
      <trkpt lat="42.89642" lon="0.12579">
        <ele>2182</ele>
        <time>2015-05-24T11:07:54Z</time>
      </trkpt>
      <trkpt lat="42.89645" lon="0.12604">
        <ele>2179</ele>
        <time>2015-05-24T11:08:01Z</time>
      </trkpt>
      <trkpt lat="42.89646" lon="0.12606">
        <ele>2178</ele>
        <time>2015-05-24T11:08:02Z</time>
      </trkpt>
      <trkpt lat="42.89661" lon="0.12593">
        <ele>2173</ele>
        <time>2015-05-24T11:08:05Z</time>
      </trkpt>
      <trkpt lat="42.89666" lon="0.12593">
        <ele>2169</ele>
        <time>2015-05-24T11:08:06Z</time>
      </trkpt>
      <trkpt lat="42.89672" lon="0.12591">
        <ele>2167</ele>
        <time>2015-05-24T11:08:07Z</time>
      </trkpt>
      <trkpt lat="42.89676" lon="0.1259">
        <ele>2165</ele>
        <time>2015-05-24T11:08:08Z</time>
      </trkpt>
      <trkpt lat="42.89683" lon="0.12585">
        <ele>2163</ele>
        <time>2015-05-24T11:08:09Z</time>
      </trkpt>
      <trkpt lat="42.89692" lon="0.12582">
        <ele>2158</ele>
        <time>2015-05-24T11:08:11Z</time>
      </trkpt>
      <trkpt lat="42.89695" lon="0.12583">
        <ele>2156</ele>
        <time>2015-05-24T11:08:12Z</time>
      </trkpt>
      <trkpt lat="42.89702" lon="0.12579">
        <ele>2154</ele>
        <time>2015-05-24T11:08:13Z</time>
      </trkpt>
      <trkpt lat="42.89709" lon="0.1258">
        <ele>2151</ele>
        <time>2015-05-24T11:08:14Z</time>
      </trkpt>
      <trkpt lat="42.89716" lon="0.12585">
        <ele>2147</ele>
        <time>2015-05-24T11:08:15Z</time>
      </trkpt>
      <trkpt lat="42.89729" lon="0.1259">
        <ele>2141</ele>
        <time>2015-05-24T11:08:18Z</time>
      </trkpt>
      <trkpt lat="42.89734" lon="0.12593">
        <ele>2138</ele>
        <time>2015-05-24T11:08:19Z</time>
      </trkpt>
      <trkpt lat="42.89745" lon="0.12593">
        <ele>2132</ele>
        <time>2015-05-24T11:08:21Z</time>
      </trkpt>
      <trkpt lat="42.89749" lon="0.12595">
        <ele>2130</ele>
        <time>2015-05-24T11:08:22Z</time>
      </trkpt>
      <trkpt lat="42.89756" lon="0.12599">
        <ele>2126</ele>
        <time>2015-05-24T11:08:24Z</time>
      </trkpt>
      <trkpt lat="42.89765" lon="0.12615">
        <ele>2123</ele>
        <time>2015-05-24T11:08:26Z</time>
      </trkpt>
      <trkpt lat="42.89775" lon="0.12637">
        <ele>2121</ele>
        <time>2015-05-24T11:08:30Z</time>
      </trkpt>
      <trkpt lat="42.89776" lon="0.12642">
        <ele>2120</ele>
        <time>2015-05-24T11:08:31Z</time>
      </trkpt>
      <trkpt lat="42.89772" lon="0.12658">
        <ele>2117</ele>
        <time>2015-05-24T11:08:39Z</time>
      </trkpt>
      <trkpt lat="42.8977" lon="0.12672">
        <ele>2117</ele>
        <time>2015-05-24T11:08:54Z</time>
      </trkpt>
      <trkpt lat="42.89775" lon="0.1267">
        <ele>2114</ele>
        <time>2015-05-24T11:08:56Z</time>
      </trkpt>
      <trkpt lat="42.89788" lon="0.1267">
        <ele>2107</ele>
        <time>2015-05-24T11:08:59Z</time>
      </trkpt>
      <trkpt lat="42.89796" lon="0.12673">
        <ele>2103</ele>
        <time>2015-05-24T11:09:01Z</time>
      </trkpt>
      <trkpt lat="42.898" lon="0.12672">
        <ele>2101</ele>
        <time>2015-05-24T11:09:02Z</time>
      </trkpt>
      <trkpt lat="42.89809" lon="0.12673">
        <ele>2096</ele>
        <time>2015-05-24T11:09:04Z</time>
      </trkpt>
      <trkpt lat="42.89813" lon="0.12673">
        <ele>2094</ele>
        <time>2015-05-24T11:09:05Z</time>
      </trkpt>
      <trkpt lat="42.89822" lon="0.1267">
        <ele>2090</ele>
        <time>2015-05-24T11:09:07Z</time>
      </trkpt>
      <trkpt lat="42.89831" lon="0.12668">
        <ele>2083</ele>
        <time>2015-05-24T11:09:09Z</time>
      </trkpt>
      <trkpt lat="42.89843" lon="0.12671">
        <ele>2077</ele>
        <time>2015-05-24T11:09:12Z</time>
      </trkpt>
      <trkpt lat="42.89848" lon="0.12673">
        <ele>2074</ele>
        <time>2015-05-24T11:09:13Z</time>
      </trkpt>
      <trkpt lat="42.89854" lon="0.12677">
        <ele>2071</ele>
        <time>2015-05-24T11:09:15Z</time>
      </trkpt>
      <trkpt lat="42.8986" lon="0.12682">
        <ele>2068</ele>
        <time>2015-05-24T11:09:17Z</time>
      </trkpt>
      <trkpt lat="42.89866" lon="0.12694">
        <ele>2065</ele>
        <time>2015-05-24T11:09:20Z</time>
      </trkpt>
      <trkpt lat="42.89869" lon="0.12695">
        <ele>2063</ele>
        <time>2015-05-24T11:09:22Z</time>
      </trkpt>
      <trkpt lat="42.89871" lon="0.12695">
        <ele>2062</ele>
        <time>2015-05-24T11:09:23Z</time>
      </trkpt>
      <trkpt lat="42.89867" lon="0.12722">
        <ele>2063</ele>
        <time>2015-05-24T11:09:37Z</time>
      </trkpt>
      <trkpt lat="42.89867" lon="0.12724">
        <ele>2062</ele>
        <time>2015-05-24T11:09:39Z</time>
      </trkpt>
      <trkpt lat="42.89867" lon="0.12714">
        <ele>2060</ele>
        <time>2015-05-24T11:09:42Z</time>
      </trkpt>
      <trkpt lat="42.89867" lon="0.1271">
        <ele>2059</ele>
        <time>2015-05-24T11:09:43Z</time>
      </trkpt>
      <trkpt lat="42.89876" lon="0.12704">
        <ele>2052</ele>
        <time>2015-05-24T11:09:46Z</time>
      </trkpt>
      <trkpt lat="42.89884" lon="0.12703">
        <ele>2048</ele>
        <time>2015-05-24T11:09:48Z</time>
      </trkpt>
      <trkpt lat="42.89899" lon="0.127">
        <ele>2039</ele>
        <time>2015-05-24T11:09:52Z</time>
      </trkpt>
      <trkpt lat="42.89905" lon="0.12702">
        <ele>2034</ele>
        <time>2015-05-24T11:09:54Z</time>
      </trkpt>
      <trkpt lat="42.89909" lon="0.12704">
        <ele>2033</ele>
        <time>2015-05-24T11:09:55Z</time>
      </trkpt>
      <trkpt lat="42.89915" lon="0.12707">
        <ele>2029</ele>
        <time>2015-05-24T11:09:57Z</time>
      </trkpt>
      <trkpt lat="42.89921" lon="0.12711">
        <ele>2026</ele>
        <time>2015-05-24T11:09:58Z</time>
      </trkpt>
      <trkpt lat="42.89926" lon="0.12737">
        <ele>2024</ele>
        <time>2015-05-24T11:10:01Z</time>
      </trkpt>
      <trkpt lat="42.89931" lon="0.12759">
        <ele>2024</ele>
        <time>2015-05-24T11:10:08Z</time>
      </trkpt>
      <trkpt lat="42.89912" lon="0.12759">
        <ele>2025</ele>
        <time>2015-05-24T11:10:35Z</time>
      </trkpt>
      <trkpt lat="42.899" lon="0.12773">
        <ele>2027</ele>
        <time>2015-05-24T11:11:02Z</time>
      </trkpt>
      <trkpt lat="42.89895" lon="0.12768">
        <ele>2027</ele>
        <time>2015-05-24T11:11:26Z</time>
      </trkpt>
      <trkpt lat="42.89886" lon="0.12778">
        <ele>2028</ele>
        <time>2015-05-24T11:11:50Z</time>
      </trkpt>
      <trkpt lat="42.89878" lon="0.12785">
        <ele>2029</ele>
        <time>2015-05-24T11:12:17Z</time>
      </trkpt>
      <trkpt lat="42.89876" lon="0.1278">
        <ele>2028</ele>
        <time>2015-05-24T11:12:39Z</time>
      </trkpt>
      <trkpt lat="42.89875" lon="0.12783">
        <ele>2029</ele>
        <time>2015-05-24T11:13:00Z</time>
      </trkpt>
      <trkpt lat="42.89875" lon="0.12788">
        <ele>2029</ele>
        <time>2015-05-24T11:13:20Z</time>
      </trkpt>
      <trkpt lat="42.89871" lon="0.12789">
        <ele>2031</ele>
        <time>2015-05-24T11:13:36Z</time>
      </trkpt>
      <trkpt lat="42.89869" lon="0.12797">
        <ele>2032</ele>
        <time>2015-05-24T11:13:52Z</time>
      </trkpt>
      <trkpt lat="42.89868" lon="0.12798">
        <ele>2031</ele>
        <time>2015-05-24T11:14:11Z</time>
      </trkpt>
      <trkpt lat="42.89873" lon="0.12795">
        <ele>2031</ele>
        <time>2015-05-24T11:14:32Z</time>
      </trkpt>
      <trkpt lat="42.89871" lon="0.12793">
        <ele>2031</ele>
        <time>2015-05-24T11:14:50Z</time>
      </trkpt>
      <trkpt lat="42.89869" lon="0.12788">
        <ele>2031</ele>
        <time>2015-05-24T11:15:24Z</time>
      </trkpt>
      <trkpt lat="42.89871" lon="0.12802">
        <ele>2031</ele>
        <time>2015-05-24T11:15:46Z</time>
      </trkpt>
      <trkpt lat="42.89875" lon="0.12811">
        <ele>2029</ele>
        <time>2015-05-24T11:15:51Z</time>
      </trkpt>
      <trkpt lat="42.89877" lon="0.12815">
        <ele>2029</ele>
        <time>2015-05-24T11:15:53Z</time>
      </trkpt>
      <trkpt lat="42.89882" lon="0.12812">
        <ele>2025</ele>
        <time>2015-05-24T11:16:00Z</time>
      </trkpt>
      <trkpt lat="42.89878" lon="0.12812">
        <ele>2025</ele>
        <time>2015-05-24T11:16:28Z</time>
      </trkpt>
      <trkpt lat="42.89879" lon="0.12812">
        <ele>2024</ele>
        <time>2015-05-24T11:16:56Z</time>
      </trkpt>
      <trkpt lat="42.89885" lon="0.12806">
        <ele>2022</ele>
        <time>2015-05-24T11:17:00Z</time>
      </trkpt>
      <trkpt lat="42.89894" lon="0.12806">
        <ele>2018</ele>
        <time>2015-05-24T11:17:03Z</time>
      </trkpt>
      <trkpt lat="42.899" lon="0.12804">
        <ele>2015</ele>
        <time>2015-05-24T11:17:05Z</time>
      </trkpt>
      <trkpt lat="42.8991" lon="0.12802">
        <ele>2011</ele>
        <time>2015-05-24T11:17:08Z</time>
      </trkpt>
      <trkpt lat="42.89915" lon="0.128">
        <ele>2007</ele>
        <time>2015-05-24T11:17:10Z</time>
      </trkpt>
      <trkpt lat="42.89917" lon="0.12801">
        <ele>2006</ele>
        <time>2015-05-24T11:17:11Z</time>
      </trkpt>
      <trkpt lat="42.89923" lon="0.12807">
        <ele>2003</ele>
        <time>2015-05-24T11:17:13Z</time>
      </trkpt>
      <trkpt lat="42.89929" lon="0.12803">
        <ele>1998</ele>
        <time>2015-05-24T11:17:15Z</time>
      </trkpt>
      <trkpt lat="42.89936" lon="0.12805">
        <ele>1995</ele>
        <time>2015-05-24T11:17:17Z</time>
      </trkpt>
      <trkpt lat="42.8994" lon="0.12806">
        <ele>1992</ele>
        <time>2015-05-24T11:17:18Z</time>
      </trkpt>
      <trkpt lat="42.89943" lon="0.12806">
        <ele>1990</ele>
        <time>2015-05-24T11:17:19Z</time>
      </trkpt>
      <trkpt lat="42.89951" lon="0.12801">
        <ele>1983</ele>
        <time>2015-05-24T11:17:23Z</time>
      </trkpt>
      <trkpt lat="42.89955" lon="0.12808">
        <ele>1978</ele>
        <time>2015-05-24T11:17:25Z</time>
      </trkpt>
      <trkpt lat="42.89962" lon="0.12809">
        <ele>1974</ele>
        <time>2015-05-24T11:17:27Z</time>
      </trkpt>
      <trkpt lat="42.89971" lon="0.12805">
        <ele>1972</ele>
        <time>2015-05-24T11:17:30Z</time>
      </trkpt>
      <trkpt lat="42.89977" lon="0.12812">
        <ele>1967</ele>
        <time>2015-05-24T11:17:32Z</time>
      </trkpt>
      <trkpt lat="42.89983" lon="0.12814">
        <ele>1962</ele>
        <time>2015-05-24T11:17:33Z</time>
      </trkpt>
      <trkpt lat="42.89999" lon="0.12814">
        <ele>1958</ele>
        <time>2015-05-24T11:17:37Z</time>
      </trkpt>
      <trkpt lat="42.90015" lon="0.12825">
        <ele>1947</ele>
        <time>2015-05-24T11:17:41Z</time>
      </trkpt>
      <trkpt lat="42.90024" lon="0.12827">
        <ele>1943</ele>
        <time>2015-05-24T11:17:43Z</time>
      </trkpt>
      <trkpt lat="42.90029" lon="0.12828">
        <ele>1941</ele>
        <time>2015-05-24T11:17:44Z</time>
      </trkpt>
      <trkpt lat="42.90033" lon="0.12829">
        <ele>1939</ele>
        <time>2015-05-24T11:17:45Z</time>
      </trkpt>
      <trkpt lat="42.90036" lon="0.1283">
        <ele>1935</ele>
        <time>2015-05-24T11:17:46Z</time>
      </trkpt>
      <trkpt lat="42.90043" lon="0.12833">
        <ele>1932</ele>
        <time>2015-05-24T11:17:48Z</time>
      </trkpt>
      <trkpt lat="42.90046" lon="0.12833">
        <ele>1931</ele>
        <time>2015-05-24T11:17:49Z</time>
      </trkpt>
      <trkpt lat="42.90052" lon="0.12836">
        <ele>1929</ele>
        <time>2015-05-24T11:17:50Z</time>
      </trkpt>
      <trkpt lat="42.90057" lon="0.12843">
        <ele>1924</ele>
        <time>2015-05-24T11:17:52Z</time>
      </trkpt>
      <trkpt lat="42.90062" lon="0.12847">
        <ele>1921</ele>
        <time>2015-05-24T11:17:54Z</time>
      </trkpt>
      <trkpt lat="42.90061" lon="0.12861">
        <ele>1917</ele>
        <time>2015-05-24T11:17:58Z</time>
      </trkpt>
      <trkpt lat="42.9007" lon="0.12871">
        <ele>1913</ele>
        <time>2015-05-24T11:18:03Z</time>
      </trkpt>
      <trkpt lat="42.90077" lon="0.12877">
        <ele>1907</ele>
        <time>2015-05-24T11:18:05Z</time>
      </trkpt>
      <trkpt lat="42.9008" lon="0.12886">
        <ele>1907</ele>
        <time>2015-05-24T11:18:07Z</time>
      </trkpt>
      <trkpt lat="42.90074" lon="0.12886">
        <ele>1906</ele>
        <time>2015-05-24T11:18:16Z</time>
      </trkpt>
      <trkpt lat="42.90067" lon="0.12876">
        <ele>1905</ele>
        <time>2015-05-24T11:18:31Z</time>
      </trkpt>
      <trkpt lat="42.90074" lon="0.12882">
        <ele>1903</ele>
        <time>2015-05-24T11:18:36Z</time>
      </trkpt>
      <trkpt lat="42.90077" lon="0.12892">
        <ele>1901</ele>
        <time>2015-05-24T11:18:38Z</time>
      </trkpt>
      <trkpt lat="42.9008" lon="0.12919">
        <ele>1897</ele>
        <time>2015-05-24T11:18:42Z</time>
      </trkpt>
      <trkpt lat="42.90081" lon="0.12924">
        <ele>1897</ele>
        <time>2015-05-24T11:18:43Z</time>
      </trkpt>
      <trkpt lat="42.90088" lon="0.12953">
        <ele>1892</ele>
        <time>2015-05-24T11:18:49Z</time>
      </trkpt>
      <trkpt lat="42.90097" lon="0.12954">
        <ele>1888</ele>
        <time>2015-05-24T11:18:51Z</time>
      </trkpt>
      <trkpt lat="42.90107" lon="0.12957">
        <ele>1886</ele>
        <time>2015-05-24T11:18:53Z</time>
      </trkpt>
      <trkpt lat="42.90123" lon="0.12962">
        <ele>1878</ele>
        <time>2015-05-24T11:18:57Z</time>
      </trkpt>
      <trkpt lat="42.90127" lon="0.12963">
        <ele>1876</ele>
        <time>2015-05-24T11:18:58Z</time>
      </trkpt>
      <trkpt lat="42.90136" lon="0.12979">
        <ele>1871</ele>
        <time>2015-05-24T11:19:01Z</time>
      </trkpt>
      <trkpt lat="42.90139" lon="0.12993">
        <ele>1869</ele>
        <time>2015-05-24T11:19:03Z</time>
      </trkpt>
      <trkpt lat="42.90132" lon="0.13011">
        <ele>1866</ele>
        <time>2015-05-24T11:19:09Z</time>
      </trkpt>
      <trkpt lat="42.90126" lon="0.13017">
        <ele>1866</ele>
        <time>2015-05-24T11:19:25Z</time>
      </trkpt>
      <trkpt lat="42.90125" lon="0.13024">
        <ele>1865</ele>
        <time>2015-05-24T11:19:37Z</time>
      </trkpt>
      <trkpt lat="42.90129" lon="0.13032">
        <ele>1863</ele>
        <time>2015-05-24T11:19:41Z</time>
      </trkpt>
      <trkpt lat="42.90136" lon="0.13037">
        <ele>1860</ele>
        <time>2015-05-24T11:19:43Z</time>
      </trkpt>
      <trkpt lat="42.90147" lon="0.13058">
        <ele>1854</ele>
        <time>2015-05-24T11:19:47Z</time>
      </trkpt>
      <trkpt lat="42.9015" lon="0.1307">
        <ele>1853</ele>
        <time>2015-05-24T11:19:49Z</time>
      </trkpt>
      <trkpt lat="42.90164" lon="0.13106">
        <ele>1851</ele>
        <time>2015-05-24T11:19:59Z</time>
      </trkpt>
      <trkpt lat="42.90166" lon="0.13144">
        <ele>1849</ele>
        <time>2015-05-24T11:20:11Z</time>
      </trkpt>
      <trkpt lat="42.90164" lon="0.13181">
        <ele>1846</ele>
        <time>2015-05-24T11:20:22Z</time>
      </trkpt>
      <trkpt lat="42.90159" lon="0.13195">
        <ele>1848</ele>
        <time>2015-05-24T11:20:34Z</time>
      </trkpt>
      <trkpt lat="42.90155" lon="0.13199">
        <ele>1849</ele>
        <time>2015-05-24T11:20:49Z</time>
      </trkpt>
      <trkpt lat="42.90152" lon="0.13212">
        <ele>1849</ele>
        <time>2015-05-24T11:21:01Z</time>
      </trkpt>
      <trkpt lat="42.90154" lon="0.13219">
        <ele>1847</ele>
        <time>2015-05-24T11:21:03Z</time>
      </trkpt>
      <trkpt lat="42.90158" lon="0.13225">
        <ele>1846</ele>
        <time>2015-05-24T11:21:05Z</time>
      </trkpt>
      <trkpt lat="42.90177" lon="0.13225">
        <ele>1843</ele>
        <time>2015-05-24T11:21:10Z</time>
      </trkpt>
      <trkpt lat="42.90182" lon="0.13225">
        <ele>1842</ele>
        <time>2015-05-24T11:21:11Z</time>
      </trkpt>
      <trkpt lat="42.90201" lon="0.13225">
        <ele>1839</ele>
        <time>2015-05-24T11:21:15Z</time>
      </trkpt>
      <trkpt lat="42.90228" lon="0.13223">
        <ele>1836</ele>
        <time>2015-05-24T11:21:23Z</time>
      </trkpt>
      <trkpt lat="42.90229" lon="0.13226">
        <ele>1835</ele>
        <time>2015-05-24T11:21:33Z</time>
      </trkpt>
      <trkpt lat="42.90227" lon="0.13225">
        <ele>1835</ele>
        <time>2015-05-24T11:21:51Z</time>
      </trkpt>
      <trkpt lat="42.90227" lon="0.13226">
        <ele>1835</ele>
        <time>2015-05-24T11:21:57Z</time>
      </trkpt>
      <trkpt lat="42.90225" lon="0.13235">
        <ele>1835</ele>
        <time>2015-05-24T11:22:06Z</time>
      </trkpt>
      <trkpt lat="42.90219" lon="0.13242">
        <ele>1836</ele>
        <time>2015-05-24T11:22:20Z</time>
      </trkpt>
      <trkpt lat="42.90216" lon="0.13241">
        <ele>1836</ele>
        <time>2015-05-24T11:22:34Z</time>
      </trkpt>
      <trkpt lat="42.90218" lon="0.1324">
        <ele>1835</ele>
        <time>2015-05-24T11:22:51Z</time>
      </trkpt>
      <trkpt lat="42.90215" lon="0.1324">
        <ele>1834</ele>
        <time>2015-05-24T11:23:05Z</time>
      </trkpt>
    </trkseg>
  </trk>
</gpx>